Provisional Data: Chest Creek near Patton, PA


Please select a monitoring station.
Please select start date.
Please select start date.

Toggle Unit: C/F Toggle Unit: C/F
Sample Time Temperature (C) Temperature (F) Specific Conductivity (mS/cm) pH   Turbidity (NTU+) DO (mg/L)
4/13/2022 12:00:00 AM 10.26 50.468 0.174 7.14 12.32 10.34
4/13/2022 12:15:00 AM 10.21 50.378 0.174 7.14 13.24 10.34
4/13/2022 12:30:00 AM 10.17 50.306 0.174 7.15 12.54 10.34
4/13/2022 12:45:00 AM 10.13 50.234 0.174 7.15 12.29 10.33
4/13/2022 1:00:00 AM 10.1 50.18 0.174 7.15 12.66 10.32
4/13/2022 1:15:00 AM 10.07 50.126 0.174 7.15 12.44 10.32
4/13/2022 1:30:00 AM 10.04 50.072 0.174 7.15 12.12 10.31
4/13/2022 1:45:00 AM 10.02 50.036 0.175 7.15 12.13 10.31
4/13/2022 2:00:00 AM 10 50 0.175 7.14 12.19 10.3
4/13/2022 2:15:00 AM 9.98 49.964 0.175 7.14 12.2 10.29
4/13/2022 2:30:00 AM 9.96 49.928 0.175 7.14 12.47 10.29
4/13/2022 2:45:00 AM 9.94 49.892 0.175 7.14 12.21 10.28
4/13/2022 3:00:00 AM 9.91 49.838 0.175 7.13 12.24 10.28
4/13/2022 3:15:00 AM 9.89 49.802 0.175 7.13 12.22 10.28
4/13/2022 3:30:00 AM 9.86 49.748 0.175 7.13 12.31 10.28
4/13/2022 3:45:00 AM 9.83 49.694 0.175 7.14 11.91 10.28
4/13/2022 4:00:00 AM 9.8 49.64 0.175 7.14 12.14 10.28
4/13/2022 4:15:00 AM 9.78 49.604 0.175 7.14 11.68 10.27
4/13/2022 4:30:00 AM 9.75 49.55 0.175 7.13 11.94 10.27
4/13/2022 4:45:00 AM 9.73 49.514 0.175 7.13 11.79 10.27
4/13/2022 5:00:00 AM 9.7 49.46 0.176 7.13 11.85 10.27
4/13/2022 5:15:00 AM 9.67 49.406 0.176 7.13 11.54 10.27
4/13/2022 5:30:00 AM 9.65 49.37 0.176 7.12 11.83 10.28
4/13/2022 5:45:00 AM 9.64 49.352 0.176 7.13 11.37 10.28
4/13/2022 6:00:00 AM 9.63 49.334 0.176 7.13 12.01 10.28
4/13/2022 6:15:00 AM 9.61 49.298 0.177 7.12 11.62 10.28
4/13/2022 6:30:00 AM 9.58 49.244 0.177 7.13 11.56 10.28
4/13/2022 6:45:00 AM 9.54 49.172 0.177 7.13 11.26 10.29
4/13/2022 7:00:00 AM 9.52 49.136 0.177 7.12 11.16 10.3
4/13/2022 7:15:00 AM 9.52 49.136 0.177 7.13 11.16 10.32
4/13/2022 7:30:00 AM 9.52 49.136 0.177 7.12 11.13 10.33
4/13/2022 7:45:00 AM 9.51 49.118 0.178 7.13 10.99 10.36
4/13/2022 8:00:00 AM 9.52 49.136 0.178 7.14 10.95 10.4
4/13/2022 8:15:00 AM 9.52 49.136 0.177 7.14 10.83 10.45
4/13/2022 8:30:00 AM 9.55 49.19 0.178 7.15 10.77 10.5
4/13/2022 8:45:00 AM 9.6 49.28 0.178 7.15 10.44 10.55
4/13/2022 9:00:00 AM 9.63 49.334 0.178 7.16 10.16 10.59
4/13/2022 9:15:00 AM 9.69 49.442 0.177 7.16 10.29 10.62
4/13/2022 9:30:00 AM 9.75 49.55 0.177 7.17 10.03 10.64
4/13/2022 9:45:00 AM 9.81 49.658 0.178 7.17 10.1 10.67
4/13/2022 10:00:00 AM 9.87 49.766 0.178 7.18 9.97 10.71
4/13/2022 10:15:00 AM 9.95 49.91 0.178 7.18 10.16 10.74
4/13/2022 10:30:00 AM 10.02 50.036 0.178 7.19 9.79 10.76
4/13/2022 10:45:00 AM 10.11 50.198 0.178 7.2 10.32 10.79
4/13/2022 11:00:00 AM 10.21 50.378 0.178 7.19 9.81 10.81
4/13/2022 11:15:00 AM 10.26 50.468 0.178 7.2 9.53 10.82
4/13/2022 11:30:00 AM 10.34 50.612 0.177 7.21 9.7 10.85
4/13/2022 11:45:00 AM 10.34 50.612 0.178 7.21 9.49 10.83
4/13/2022 12:00:00 PM 10.3 50.54 0.178 7.21 9.61 10.81
4/13/2022 12:15:00 PM 10.33 50.594 0.178 7.21 9.67 10.83
4/13/2022 12:30:00 PM 10.43 50.774 0.178 7.21 9.36 10.87
4/13/2022 12:45:00 PM 10.54 50.972 0.178 7.22 9.32 10.91
4/13/2022 1:00:00 PM 10.61 51.098 0.178 7.23 9.22 10.93
4/13/2022 1:15:00 PM 10.65 51.17 0.178 7.24 9.29 10.95
4/13/2022 1:30:00 PM 10.71 51.278 0.178 7.24 8.9 10.97
4/13/2022 1:45:00 PM 10.75 51.35 0.178 7.25 9.01 10.98
4/13/2022 2:00:00 PM 10.83 51.494 0.178 7.26 9.02 10.99
4/13/2022 2:15:00 PM 10.91 51.638 0.178 7.25 8.68 11
4/13/2022 2:30:00 PM 11 51.8 0.178 7.26 9.02 11.01
4/13/2022 2:45:00 PM 11.09 51.962 0.178 7.27 9.15 11.02
4/13/2022 3:00:00 PM 11.26 52.268 0.178 7.27 8.57 11.03
4/13/2022 3:15:00 PM 11.43 52.574 0.179 7.28 8.93 11.04
4/13/2022 3:30:00 PM 11.53 52.754 0.179 7.28 9.05 11.02
4/13/2022 3:45:00 PM 11.59 52.862 0.179 7.28 8.75 11
4/13/2022 4:00:00 PM 11.61 52.898 0.179 7.28 8.8 10.98
4/13/2022 4:15:00 PM 11.63 52.934 0.179 7.29 8.72 10.97
4/13/2022 4:30:00 PM 11.6 52.88 0.179 7.28 8.92 10.93
4/13/2022 4:45:00 PM 11.54 52.772 0.179 7.28 9.06 10.87
4/13/2022 5:00:00 PM 11.47 52.646 0.179 7.27 8.97 10.8
4/13/2022 5:15:00 PM 11.43 52.574 0.179 7.25 9.06 10.77
4/13/2022 5:30:00 PM 11.43 52.574 0.179 7.25 8.74 10.74
4/13/2022 5:45:00 PM 11.45 52.61 0.179 7.25 8.98 10.76
4/13/2022 6:00:00 PM 11.49 52.682 0.179 7.24 8.63 10.77
4/13/2022 6:15:00 PM 11.5 52.7 0.179 7.24 8.89 10.75
4/13/2022 6:30:00 PM 11.49 52.682 0.179 7.24 8.9 10.73
4/13/2022 6:45:00 PM 11.46 52.628 0.179 7.24 9.14 10.69
4/13/2022 7:00:00 PM 11.42 52.556 0.18 7.23 8.73 10.63
4/13/2022 7:15:00 PM 11.39 52.502 0.179 7.22 8.63 10.58
4/13/2022 7:30:00 PM 11.38 52.484 0.18 7.21 8.57 10.51
4/13/2022 7:45:00 PM 11.37 52.466 0.18 7.19 8.44 10.45
4/13/2022 8:00:00 PM 11.35 52.43 0.18 7.18 8.62 10.4
4/13/2022 8:15:00 PM 11.34 52.412 0.18 7.17 8.71 10.35
4/13/2022 8:30:00 PM 11.32 52.376 0.18 7.17 9.14 10.32
4/13/2022 8:45:00 PM 11.31 52.358 0.18 7.15 8.79 10.29
4/13/2022 9:00:00 PM 11.31 52.358 0.18 7.15 8.86 10.27
4/13/2022 9:15:00 PM 11.31 52.358 0.18 7.14 9.52 10.24
4/13/2022 9:30:00 PM 11.3 52.34 0.18 7.14 9.1 10.22
4/13/2022 9:45:00 PM 11.29 52.322 0.18 7.14 9.23 10.2
4/13/2022 10:00:00 PM 11.28 52.304 0.18 7.13 9.32 10.18
4/13/2022 10:15:00 PM 11.27 52.286 0.18 7.13 9.53 10.16
4/13/2022 10:30:00 PM 11.27 52.286 0.18 7.13 9.16 10.14
4/13/2022 10:45:00 PM 11.25 52.25 0.18 7.13 9.9 10.12
4/13/2022 11:00:00 PM 11.23 52.214 0.18 7.12 9.26 10.11
4/13/2022 11:15:00 PM 11.22 52.196 0.18 7.11 9.81 10.08
4/13/2022 11:30:00 PM 11.21 52.178 0.181 7.11 9.3 10.07
4/13/2022 11:45:00 PM 11.2 52.16 0.18 7.11 9.52 10.06
4/14/2022 12:00:00 AM 11.19 52.142 0.18 7.11 9.27 10.04
4/14/2022 12:15:00 AM 11.19 52.142 0.18 7.11 9.5 10.03
4/14/2022 12:30:00 AM 11.18 52.124 0.18 7.1 9.34 10.02
4/14/2022 12:45:00 AM 11.16 52.088 0.181 7.1 9.61 10.01
4/14/2022 1:00:00 AM 11.16 52.088 0.181 7.11 9.44 10
4/14/2022 1:15:00 AM 11.15 52.07 0.181 7.1 9.68 9.99
4/14/2022 1:30:00 AM 11.13 52.034 0.181 7.11 9.44 9.98
4/14/2022 1:45:00 AM 11.12 52.016 0.181 7.11 9.07 9.98
4/14/2022 2:00:00 AM 11.1 51.98 0.181 7.11 9.29 9.97
4/14/2022 2:15:00 AM 11.1 51.98 0.181 7.11 9.01 9.96
4/14/2022 2:30:00 AM 11.1 51.98 0.181 7.1 9.42 9.95
4/14/2022 2:45:00 AM 11.09 51.962 0.181 7.1 9.68 9.94
4/14/2022 3:00:00 AM 11.07 51.926 0.182 7.1 9.87 9.93
4/14/2022 3:15:00 AM 11.06 51.908 0.182 7.1 8.97 9.92
4/14/2022 3:30:00 AM 11.05 51.89 0.182 7.09 9.67 9.91
4/14/2022 3:45:00 AM 11.04 51.872 0.182 7.1 9.24 9.91
4/14/2022 4:00:00 AM 11.04 51.872 0.181 7.1 9.33 9.9
4/14/2022 4:15:00 AM 11.05 51.89 0.182 7.1 9.62 9.89
4/14/2022 4:30:00 AM 11.05 51.89 0.181 7.1 9.79 9.89
4/14/2022 4:45:00 AM 11.06 51.908 0.182 7.1 9.72 9.88
4/14/2022 5:00:00 AM 11.06 51.908 0.182 7.1 10.05 9.88
4/14/2022 5:15:00 AM 11.05 51.89 0.182 7.1 9.9 9.87
4/14/2022 5:30:00 AM 11.05 51.89 0.182 7.11 9.43 9.86
4/14/2022 5:45:00 AM 11.05 51.89 0.181 7.1 9.6 9.86
4/14/2022 6:00:00 AM 11.04 51.872 0.182 7.1 9.63 9.86
4/14/2022 6:15:00 AM 11.04 51.872 0.182 7.11 9.54 9.85
4/14/2022 6:30:00 AM 11.04 51.872 0.182 7.1 9.63 9.85
4/14/2022 6:45:00 AM 11.03 51.854 0.182 7.1 9.27 9.84
4/14/2022 7:00:00 AM 11.02 51.836 0.182 7.1 9.42 9.85
4/14/2022 7:15:00 AM 11.02 51.836 0.181 7.1 9 9.87
4/14/2022 7:30:00 AM 11.02 51.836 0.182 7.1 9.02 9.89
4/14/2022 7:45:00 AM 11.05 51.89 0.182 7.11 9.22 9.95
4/14/2022 8:00:00 AM 11.07 51.926 0.182 7.12 8.92 9.99
4/14/2022 8:15:00 AM 11.12 52.016 0.182 7.13 9.11 10.06
4/14/2022 8:30:00 AM 11.19 52.142 0.181 7.14 8.96 10.12
4/14/2022 8:45:00 AM 11.23 52.214 0.181 7.15 8.92 10.15
4/14/2022 9:00:00 AM 11.27 52.286 0.182 7.15 9.02 10.19
4/14/2022 9:15:00 AM 11.33 52.394 0.181 7.16 9.02 10.23
4/14/2022 9:30:00 AM 11.38 52.484 0.181 7.17 8.4 10.25
4/14/2022 9:45:00 AM 11.42 52.556 0.182 7.17 8.76 10.28
4/14/2022 10:00:00 AM 11.46 52.628 0.182 7.18 8.72 10.28
4/14/2022 10:15:00 AM 11.52 52.736 0.181 7.19 8.54 10.31
4/14/2022 10:30:00 AM 11.58 52.844 0.181 7.19 8.68 10.34
4/14/2022 10:45:00 AM 11.61 52.898 0.182 7.19 8.23 10.34
4/14/2022 11:00:00 AM 11.63 52.934 0.182 7.19 8.68 10.33
4/14/2022 11:15:00 AM 11.64 52.952 0.181 7.2 8.58 10.34
4/14/2022 11:30:00 AM 11.65 52.97 0.182 7.2 8.27 10.34
4/14/2022 11:45:00 AM 11.65 52.97 0.182 7.21 8.88 10.35
4/14/2022 12:00:00 PM 11.67 53.006 0.182 7.22 9.29 10.38
4/14/2022 12:15:00 PM 11.66 52.988 0.182 7.22 9.32 10.4
4/14/2022 12:30:00 PM 11.67 53.006 0.182 7.22 8.93 10.43
4/14/2022 12:45:00 PM 11.7 53.06 0.181 7.23 8.85 10.48
4/14/2022 1:00:00 PM 11.7 53.06 0.181 7.23 9.22 10.48
4/14/2022 1:15:00 PM 11.69 53.042 0.182 7.25 8.69 10.51
4/14/2022 1:30:00 PM 11.67 53.006 0.182 7.26 8.54 10.53
4/14/2022 1:45:00 PM 11.66 52.988 0.182 7.27 8.72 10.54
4/14/2022 2:00:00 PM 11.67 53.006 0.181 7.27 8.8 10.57
4/14/2022 2:15:00 PM 11.66 52.988 0.182 7.27 8.42 10.56
4/14/2022 2:30:00 PM 11.75 53.15 0.182 7.29 8.49 10.61
4/14/2022 2:45:00 PM 11.84 53.312 0.181 7.29 8.77 10.63
4/14/2022 3:00:00 PM 11.88 53.384 0.181 7.29 8.57 10.66
4/14/2022 3:15:00 PM 12.04 53.672 0.181 7.3 8.68 10.69
4/14/2022 3:30:00 PM 12.09 53.762 0.182 7.31 8.33 10.71
4/14/2022 3:45:00 PM 12.16 53.888 0.181 7.32 8.63 10.71
4/14/2022 4:00:00 PM 12.2 53.96 0.181 7.33 8.76 10.71
4/14/2022 4:15:00 PM 12.19 53.942 0.182 7.33 8.46 10.69
4/14/2022 4:30:00 PM 12.17 53.906 0.182 7.33 8.39 10.7
4/14/2022 4:45:00 PM 12.16 53.888 0.182 7.32 8.75 10.69
4/14/2022 5:00:00 PM 12.17 53.906 0.182 7.33 8.42 10.7
4/14/2022 5:15:00 PM 12.17 53.906 0.182 7.33 8.24 10.69
4/14/2022 5:30:00 PM 12.14 53.852 0.182 7.33 8.71 10.69
4/14/2022 5:45:00 PM 12.09 53.762 0.182 7.33 8.16 10.66
4/14/2022 6:00:00 PM 11.97 53.546 0.182 7.31 8.22 10.61
4/14/2022 6:15:00 PM 11.86 53.348 0.182 7.3 8.41 10.58
4/14/2022 6:30:00 PM 11.77 53.186 0.182 7.3 8.42 10.54
4/14/2022 6:45:00 PM 11.68 53.024 0.182 7.29 8.38 10.5
4/14/2022 7:00:00 PM 11.59 52.862 0.182 7.28 8.04 10.46
4/14/2022 7:15:00 PM 11.5 52.7 0.183 7.27 8.67 10.42
4/14/2022 7:30:00 PM 11.42 52.556 0.182 7.26 8.16 10.39
4/14/2022 7:45:00 PM 11.34 52.412 0.183 7.25 8.28 10.34
4/14/2022 8:00:00 PM 11.29 52.322 0.183 7.24 8.41 10.31
4/14/2022 8:15:00 PM 11.23 52.214 0.183 7.22 8.22 10.27
4/14/2022 8:30:00 PM 11.18 52.124 0.183 7.22 8.46 10.25
4/14/2022 8:45:00 PM 11.12 52.016 0.183 7.22 8.86 10.23
4/14/2022 9:00:00 PM 11.07 51.926 0.183 7.21 8.56 10.21
4/14/2022 9:15:00 PM 11.01 51.818 0.183 7.2 8.46 10.2
4/14/2022 9:30:00 PM 10.95 51.71 0.183 7.21 8.8 10.2
4/14/2022 9:45:00 PM 10.88 51.584 0.183 7.2 8.75 10.19
4/14/2022 10:00:00 PM 10.81 51.458 0.183 7.2 8.77 10.19
4/14/2022 10:15:00 PM 10.74 51.332 0.183 7.2 8.55 10.19
4/14/2022 10:30:00 PM 10.68 51.224 0.183 7.2 8.99 10.19
4/14/2022 10:45:00 PM 10.62 51.116 0.184 7.19 9.18 10.18
4/14/2022 11:00:00 PM 10.56 51.008 0.183 7.18 8.81 10.17
4/14/2022 11:15:00 PM 10.5 50.9 0.183 7.19 8.81 10.18
4/14/2022 11:30:00 PM 10.45 50.81 0.183 7.19 9 10.18
4/14/2022 11:45:00 PM 10.39 50.702 0.184 7.19 8.91 10.19
4/15/2022 12:00:00 AM 10.33 50.594 0.184 7.19 8.92 10.19
4/15/2022 12:15:00 AM 10.27 50.486 0.184 7.19 9.05 10.19
4/15/2022 12:30:00 AM 10.21 50.378 0.184 7.19 9.06 10.2
4/15/2022 12:45:00 AM 10.15 50.27 0.184 7.2 8.92 10.21
4/15/2022 1:00:00 AM 10.1 50.18 0.113 7.19 9.09 10.22
4/15/2022 1:15:00 AM 10.03 50.054 0.184 7.19 9.04 10.22
4/15/2022 1:30:00 AM 9.97 49.946 0.184 7.19 8.94 10.22
4/15/2022 1:45:00 AM 9.9 49.82 0.184 7.2 8.9 10.23
4/15/2022 2:00:00 AM 9.83 49.694 0.184 7.19 8.95 10.24
4/15/2022 2:15:00 AM 9.76 49.568 0.184 7.19 8.8 10.25
4/15/2022 2:30:00 AM 9.69 49.442 0.184 7.2 9.09 10.26
4/15/2022 2:45:00 AM 9.63 49.334 0.184 7.2 9.3 10.27
4/15/2022 3:00:00 AM 9.56 49.208 0.184 7.2 9.02 10.28
4/15/2022 3:15:00 AM 9.5 49.1 0.184 7.2 9.16 10.29
4/15/2022 3:30:00 AM 9.44 48.992 0.185 7.2 8.89 10.3
4/15/2022 3:45:00 AM 9.39 48.902 0.184 7.2 9 10.31
4/15/2022 4:00:00 AM 9.33 48.794 0.185 7.2 9.27 10.32
4/15/2022 4:15:00 AM 9.28 48.704 0.185 7.2 9.17 10.33
4/15/2022 4:30:00 AM 9.23 48.614 0.185 7.2 8.77 10.34
4/15/2022 4:45:00 AM 9.17 48.506 0.185 7.2 9.05 10.35
4/15/2022 5:00:00 AM 9.12 48.416 0.185 7.2 8.55 10.36
4/15/2022 5:15:00 AM 9.06 48.308 0.185 7.2 8.88 10.37
4/15/2022 5:30:00 AM 9 48.2 0.185 7.2 8.7 10.38
4/15/2022 5:45:00 AM 8.94 48.092 0.185 7.2 8.89 10.4
4/15/2022 6:00:00 AM 8.88 47.984 0.185 7.2 8.98 10.41
4/15/2022 6:15:00 AM 8.82 47.876 0.185 7.2 9.24 10.42
4/15/2022 6:30:00 AM 8.76 47.768 0.186 7.2 8.48 10.44
4/15/2022 6:45:00 AM 8.7 47.66 0.185 7.2 9.01 10.46
4/15/2022 7:00:00 AM 8.64 47.552 0.186 7.21 8.82 10.49
4/15/2022 7:15:00 AM 8.59 47.462 0.185 7.21 8.65 10.53
4/15/2022 7:30:00 AM 8.54 47.372 0.186 7.22 8.51 10.57
4/15/2022 7:45:00 AM 8.5 47.3 0.186 7.22 8.6 10.63
4/15/2022 8:00:00 AM 8.47 47.246 0.186 7.23 8.33 10.69
4/15/2022 8:15:00 AM 8.45 47.21 0.185 7.24 8.21 10.75
4/15/2022 8:30:00 AM 8.45 47.21 0.186 7.24 7.82 10.81
4/15/2022 8:45:00 AM 8.48 47.264 0.185 7.25 8.05 10.88
4/15/2022 9:00:00 AM 8.53 47.354 0.185 7.26 7.91 10.93
4/15/2022 9:15:00 AM 8.58 47.444 0.185 7.27 7.78 10.98
4/15/2022 9:30:00 AM 8.64 47.552 0.185 7.27 7.76 11.02
4/15/2022 9:45:00 AM 8.72 47.696 0.185 7.27 7.74 11.06
4/15/2022 10:00:00 AM 8.8 47.84 0.186 7.28 7.7 11.1
4/15/2022 10:15:00 AM 8.91 48.038 0.186 7.28 7.76 11.12
4/15/2022 10:30:00 AM 9.01 48.218 0.186 7.29 8.01 11.15
4/15/2022 10:45:00 AM 9.12 48.416 0.186 7.29 7.8 11.18
4/15/2022 11:00:00 AM 9.24 48.632 0.186 7.29 7.5 11.2
4/15/2022 11:15:00 AM 9.37 48.866 0.186 7.29 7.82 11.22
4/15/2022 11:30:00 AM 9.49 49.082 0.186 7.3 7.74 11.25
4/15/2022 11:45:00 AM 9.63 49.334 0.186 7.3 7.76 11.26
4/15/2022 12:00:00 PM 9.76 49.568 0.186 7.31 7.84 11.29
4/15/2022 12:15:00 PM 9.9 49.82 0.186 7.31 8 11.29
4/15/2022 12:30:00 PM 10.04 50.072 0.186 7.32 7.71 11.31
4/15/2022 12:45:00 PM 10.18 50.324 0.186 7.32 7.61 11.32
4/15/2022 1:00:00 PM 10.33 50.594 0.186 7.32 7.36 11.34
4/15/2022 1:15:00 PM 10.47 50.846 0.186 7.33 7.59 11.35
4/15/2022 1:30:00 PM 10.62 51.116 0.186 7.33 7.62 11.36
4/15/2022 1:45:00 PM 10.75 51.35 0.186 7.34 7.69 11.36
4/15/2022 2:00:00 PM 10.86 51.548 0.186 7.33 7.63 11.36
4/15/2022 2:15:00 PM 10.99 51.782 0.186 7.34 7.51 11.36
4/15/2022 2:30:00 PM 11.14 52.052 0.186 7.35 7.68 11.36
4/15/2022 2:45:00 PM 11.25 52.25 0.186 7.35 7.88 11.35
4/15/2022 3:00:00 PM 11.36 52.448 0.186 7.35 7.59 11.34
4/15/2022 3:15:00 PM 11.45 52.61 0.186 7.36 8.09 11.34
4/15/2022 3:30:00 PM 11.51 52.718 0.186 7.36 8.54 11.32
4/15/2022 3:45:00 PM 11.54 52.772 0.186 7.36 7.55 11.31
4/15/2022 4:00:00 PM 11.56 52.808 0.187 7.36 7.35 11.3
4/15/2022 4:15:00 PM 11.6 52.88 0.187 7.37 7.61 11.29
4/15/2022 4:30:00 PM 11.6 52.88 0.187 7.37 7.63 11.26
4/15/2022 4:45:00 PM 11.59 52.862 0.186 7.36 7.61 11.24
4/15/2022 5:00:00 PM 11.55 52.79 0.187 7.35 7.86 11.21
4/15/2022 5:15:00 PM 11.5 52.7 0.187 7.35 7.73 11.18
4/15/2022 5:30:00 PM 11.42 52.556 0.187 7.35 7.66 11.15
4/15/2022 5:45:00 PM 11.33 52.394 0.187 7.33 7.89 11.12
4/15/2022 6:00:00 PM 11.23 52.214 0.187 7.33 7.45 11.09
4/15/2022 6:15:00 PM 11.13 52.034 0.187 7.33 7.58 11.04
4/15/2022 6:30:00 PM 11.03 51.854 0.187 7.32 7.87 11
4/15/2022 6:45:00 PM 10.95 51.71 0.187 7.3 7.43 10.95
4/15/2022 7:00:00 PM 10.87 51.566 0.187 7.29 7.63 10.89
4/15/2022 7:15:00 PM 10.8 51.44 0.188 7.29 7.68 10.84
4/15/2022 7:30:00 PM 10.75 51.35 0.188 7.28 7.27 10.78
4/15/2022 7:45:00 PM 10.7 51.26 0.188 7.26 7.59 10.72
4/15/2022 8:00:00 PM 10.66 51.188 0.189 7.25 9.21 10.65
4/15/2022 8:15:00 PM 10.63 51.134 0.188 7.23 7.6 10.6
4/15/2022 8:30:00 PM 10.61 51.098 0.189 7.23 7.6 10.55
4/15/2022 8:45:00 PM 10.6 51.08 0.189 7.22 7.78 10.51
4/15/2022 9:00:00 PM 10.59 51.062 0.189 7.2 8.25 10.47
4/15/2022 9:15:00 PM 10.58 51.044 0.189 7.19 7.98 10.45
4/15/2022 9:30:00 PM 10.57 51.026 0.189 7.2 7.81 10.42
4/15/2022 9:45:00 PM 10.57 51.026 0.189 7.19 8.45 10.4
4/15/2022 10:00:00 PM 10.55 50.99 0.189 7.18 8.1 10.37
4/15/2022 10:15:00 PM 10.53 50.954 0.19 7.18 7.93 10.36
4/15/2022 10:30:00 PM 10.5 50.9 0.19 7.17 8.08 10.34
4/15/2022 10:45:00 PM 10.49 50.882 0.19 7.17 8.07 10.32
4/15/2022 11:00:00 PM 10.47 50.846 0.19 7.17 7.99 10.3
4/15/2022 11:15:00 PM 10.45 50.81 0.19 7.16 8.07 10.29
4/15/2022 11:30:00 PM 10.42 50.756 0.19 7.16 8.02 10.28
4/15/2022 11:45:00 PM 10.38 50.684 0.19 7.16 7.97 10.26
4/16/2022 12:00:00 AM 10.33 50.594 0.19 7.17 8.01 10.25
4/16/2022 12:15:00 AM 10.29 50.522 0.19 7.17 7.89 10.25
4/16/2022 12:30:00 AM 10.26 50.468 0.191 7.17 8.1 10.24
4/16/2022 12:45:00 AM 10.23 50.414 0.191 7.16 7.97 10.22
4/16/2022 1:00:00 AM 10.2 50.36 0.191 7.16 7.69 10.22
4/16/2022 1:15:00 AM 10.16 50.288 0.191 7.16 8.11 10.22
4/16/2022 1:30:00 AM 10.14 50.252 0.191 7.16 7.8 10.21
4/16/2022 1:45:00 AM 10.12 50.216 0.191 7.16 7.82 10.2
4/16/2022 2:00:00 AM 10.1 50.18 0.191 7.16 7.88 10.2
4/16/2022 2:15:00 AM 10.08 50.144 0.192 7.16 7.81 10.2
4/16/2022 2:30:00 AM 10.06 50.108 0.192 7.16 7.72 10.19
4/16/2022 2:45:00 AM 10.05 50.09 0.191 7.15 7.6 10.19
4/16/2022 3:00:00 AM 10.02 50.036 0.192 7.16 7.8 10.19
4/16/2022 3:15:00 AM 10 50 0.192 7.16 7.94 10.19
4/16/2022 3:30:00 AM 9.98 49.964 0.192 7.16 7.74 10.18
4/16/2022 3:45:00 AM 9.95 49.91 0.192 7.16 7.82 10.18
4/16/2022 4:00:00 AM 9.93 49.874 0.192 7.16 7.86 10.18
4/16/2022 4:15:00 AM 9.9 49.82 0.192 7.16 8.03 10.18
4/16/2022 4:30:00 AM 9.88 49.784 0.192 7.16 7.82 10.18
4/16/2022 4:45:00 AM 9.86 49.748 0.192 7.15 8.03 10.18
4/16/2022 5:00:00 AM 9.85 49.73 0.192 7.16 7.74 10.18
4/16/2022 5:15:00 AM 9.84 49.712 0.192 7.16 8.19 10.18
4/16/2022 5:30:00 AM 9.84 49.712 0.192 7.16 8.83 10.19
4/16/2022 5:45:00 AM 9.83 49.694 0.195 7.16 9.29 10.18
4/16/2022 6:00:00 AM 9.81 49.658 0.194 7.16 9.72 10.18
4/16/2022 6:15:00 AM 9.8 49.64 0.194 7.16 9.91 10.17
4/16/2022 6:30:00 AM 9.79 49.622 0.194 7.16 10.97 10.17
4/16/2022 6:45:00 AM 9.77 49.586 0.193 7.16 10.6 10.17
4/16/2022 7:00:00 AM 9.76 49.568 0.191 7.17 10.94 10.18
4/16/2022 7:15:00 AM 9.75 49.55 0.191 7.17 10.67 10.19
4/16/2022 7:30:00 AM 9.75 49.55 0.191 7.17 10.03 10.21
4/16/2022 7:45:00 AM 9.76 49.568 0.191 7.17 9.63 10.25
4/16/2022 8:00:00 AM 9.77 49.586 0.191 7.18 9.53 10.32
4/16/2022 8:15:00 AM 9.81 49.658 0.191 7.19 9.19 10.41
4/16/2022 8:30:00 AM 9.85 49.73 0.192 7.2 8.66 10.5
4/16/2022 8:45:00 AM 9.87 49.766 0.191 7.21 8.57 10.56
4/16/2022 9:00:00 AM 9.91 49.838 0.192 7.22 9.2 10.6
4/16/2022 9:15:00 AM 9.97 49.946 0.192 7.23 8.05 10.64
4/16/2022 9:30:00 AM 10.04 50.072 0.192 7.24 7.93 10.69
4/16/2022 9:45:00 AM 10.18 50.324 0.191 7.24 8.06 10.75
4/16/2022 10:00:00 AM 10.32 50.576 0.191 7.26 8.09 10.8
4/16/2022 10:15:00 AM 10.44 50.792 0.191 7.26 8.11 10.82
4/16/2022 10:30:00 AM 10.56 51.008 0.191 7.27 9.05 10.85
4/16/2022 10:45:00 AM 10.68 51.224 0.191 7.28 8.61 10.86
4/16/2022 11:00:00 AM 10.77 51.386 0.192 7.3 8.96 10.89
4/16/2022 11:15:00 AM 10.88 51.584 0.192 7.31 8.98 10.91
4/16/2022 11:30:00 AM 10.93 51.674 0.191 7.31 8.29 10.9
4/16/2022 11:45:00 AM 10.94 51.692 0.191 7.32 8.62 10.91
4/16/2022 12:00:00 PM 10.92 51.656 0.189 7.32 8.63 10.91
4/16/2022 12:15:00 PM 10.86 51.548 0.19 7.33 8.38 10.9
4/16/2022 12:30:00 PM 10.78 51.404 0.19 7.33 8.96 10.87
4/16/2022 12:45:00 PM 10.71 51.278 0.189 7.33 8.41 10.82
4/16/2022 1:00:00 PM 10.68 51.224 0.189 7.33 8.73 10.83
4/16/2022 1:15:00 PM 10.64 51.152 0.188 7.32 8.86 10.8
4/16/2022 1:30:00 PM 10.62 51.116 0.188 7.32 8.78 10.8
4/16/2022 1:45:00 PM 10.65 51.17 0.188 7.32 9.12 10.82
4/16/2022 2:00:00 PM 10.7 51.26 0.188 7.32 9.3 10.83
4/16/2022 2:15:00 PM 10.68 51.224 0.188 7.3 9.04 10.76
4/16/2022 2:30:00 PM 10.63 51.134 0.187 7.29 8.61 10.7
4/16/2022 2:45:00 PM 10.57 51.026 0.187 7.28 9.39 10.65
4/16/2022 3:00:00 PM 10.55 50.99 0.186 7.28 9.38 10.65
4/16/2022 3:15:00 PM 10.54 50.972 0.186 7.28 9.65 10.65
4/16/2022 3:30:00 PM 10.52 50.936 0.186 7.27 9.71 10.66
4/16/2022 3:45:00 PM 10.49 50.882 0.186 7.28 9.93 10.65
4/16/2022 4:00:00 PM 10.47 50.846 0.186 7.27 9.67 10.65
4/16/2022 4:15:00 PM 10.45 50.81 0.186 7.27 10.3 10.65
4/16/2022 4:30:00 PM 10.44 50.792 0.184 7.28 11.36 10.65
4/16/2022 4:45:00 PM 10.44 50.792 0.184 7.29 10.92 10.67
4/16/2022 5:00:00 PM 10.41 50.738 0.185 7.28 11.73 10.65
4/16/2022 5:15:00 PM 10.38 50.684 0.184 7.28 11.71 10.62
4/16/2022 5:30:00 PM 10.34 50.612 0.184 7.27 12 10.58
4/16/2022 5:45:00 PM 10.29 50.522 0.183 7.26 12.36 10.54
4/16/2022 6:00:00 PM 10.24 50.432 0.184 7.26 11.77 10.51
4/16/2022 6:15:00 PM 10.2 50.36 0.183 7.25 12.38 10.48
4/16/2022 6:30:00 PM 10.15 50.27 0.184 7.25 12.28 10.46
4/16/2022 6:45:00 PM 10.11 50.198 0.185 7.25 12.57 10.44
4/16/2022 7:00:00 PM 10.07 50.126 0.184 7.25 12.89 10.42
4/16/2022 7:15:00 PM 10.04 50.072 0.184 7.24 13.54 10.41
4/16/2022 7:30:00 PM 10 50 0.184 7.24 13.41 10.41
4/16/2022 7:45:00 PM 9.96 49.928 0.185 7.24 13.93 10.41
4/16/2022 8:00:00 PM 9.91 49.838 0.186 7.24 13.98 10.41
4/16/2022 8:15:00 PM 9.85 49.73 0.186 7.25 14.47 10.4
4/16/2022 8:30:00 PM 9.8 49.64 0.186 7.25 14.59 10.4
4/16/2022 8:45:00 PM 9.75 49.55 0.186 7.25 16.58 10.4
4/16/2022 9:00:00 PM 9.71 49.478 0.187 7.25 17.82 10.39
4/16/2022 9:15:00 PM 9.68 49.424 0.186 7.25 16.76 10.39
4/16/2022 9:30:00 PM 9.65 49.37 0.186 7.25 18.02 10.39
4/16/2022 9:45:00 PM 9.62 49.316 0.186 7.25 16.46 10.39
4/16/2022 10:00:00 PM 9.58 49.244 0.185 7.25 16.01 10.39
4/16/2022 10:15:00 PM 9.54 49.172 0.185 7.25 17.16 10.39
4/16/2022 10:30:00 PM 9.51 49.118 0.185 7.25 16.26 10.39
4/16/2022 10:45:00 PM 9.47 49.046 0.184 7.24 15.82 10.39
4/16/2022 11:00:00 PM 9.42 48.956 0.183 7.25 15.72 10.4
4/16/2022 11:15:00 PM 9.37 48.866 0.183 7.24 14.91 10.4
4/16/2022 11:30:00 PM 9.32 48.776 0.182 7.24 14.75 10.4
4/16/2022 11:45:00 PM 9.26 48.668 0.18 7.24 14.97 10.41
4/17/2022 12:00:00 AM 9.21 48.578 0.18 7.24 14.57 10.41
4/17/2022 12:15:00 AM 9.17 48.506 0.178 7.24 14.78 10.42
4/17/2022 12:30:00 AM 9.13 48.434 0.178 7.24 14.67 10.42
4/17/2022 12:45:00 AM 9.08 48.344 0.177 7.23 14.39 10.42
4/17/2022 1:00:00 AM 9.03 48.254 0.177 7.23 14.64 10.43
4/17/2022 1:15:00 AM 8.98 48.164 0.177 7.23 14.08 10.44
4/17/2022 1:30:00 AM 8.93 48.074 0.177 7.23 14.8 10.45
4/17/2022 1:45:00 AM 8.87 47.966 0.176 7.23 15.42 10.45
4/17/2022 2:00:00 AM 8.83 47.894 0.176 7.23 16.07 10.46
4/17/2022 2:15:00 AM 8.77 47.786 0.176 7.24 14 10.47
4/17/2022 2:30:00 AM 8.71 47.678 0.176 7.24 15.78 10.48
4/17/2022 2:45:00 AM 8.65 47.57 0.175 7.23 16.41 10.49
4/17/2022 3:00:00 AM 8.58 47.444 0.175 7.24 16.62 10.5
4/17/2022 3:15:00 AM 8.52 47.336 0.174 7.24 16.58 10.51
4/17/2022 3:30:00 AM 8.47 47.246 0.174 7.23 16.59 10.52
4/17/2022 3:45:00 AM 8.4 47.12 0.174 7.24 18.23 10.53
4/17/2022 4:00:00 AM 8.35 47.03 0.173 7.24 16.94 10.54
4/17/2022 4:15:00 AM 8.3 46.94 0.173 7.25 17.48 10.55
4/17/2022 4:30:00 AM 8.25 46.85 0.174 7.25 17.42 10.57
4/17/2022 4:45:00 AM 8.2 46.76 0.174 7.25 17.95 10.57
4/17/2022 5:00:00 AM 8.15 46.67 0.174 7.25 17.45 10.59
4/17/2022 5:15:00 AM 8.1 46.58 0.174 7.26 14.84 10.6
4/17/2022 5:30:00 AM 8.06 46.508 0.174 7.25 16.63 10.61
4/17/2022 5:45:00 AM 8.02 46.436 0.174 7.26 17.73 10.62
4/17/2022 6:00:00 AM 7.99 46.382 0.174 7.26 17.26 10.63
4/17/2022 6:15:00 AM 7.94 46.292 0.174 7.26 17.14 10.64
4/17/2022 6:30:00 AM 7.91 46.238 0.174 7.26 16.58 10.66
4/17/2022 6:45:00 AM 7.87 46.166 0.174 7.25 16.19 10.67
4/17/2022 7:00:00 AM 7.84 46.112 0.174 7.26 16.34 10.68
4/17/2022 7:15:00 AM 7.8 46.04 0.174 7.26 15.87 10.71
4/17/2022 7:30:00 AM 7.77 45.986 0.174 7.26 14.91 10.73
4/17/2022 7:45:00 AM 7.74 45.932 0.174 7.27 15.41 10.77
4/17/2022 8:00:00 AM 7.73 45.914 0.174 7.27 15.31 10.81
4/17/2022 8:15:00 AM 7.7 45.86 0.174 7.27 15.21 10.86
4/17/2022 8:30:00 AM 7.67 45.806 0.174 7.28 15.09 10.89
4/17/2022 8:45:00 AM 7.61 45.698 0.175 7.28 14.66 10.91
4/17/2022 9:00:00 AM 7.59 45.662 0.175 7.29 14.72 10.96
4/17/2022 9:15:00 AM 7.59 45.662 0.175 7.29 14.19 11.02
4/17/2022 9:30:00 AM 7.62 45.716 0.175 7.3 14.38 11.1
4/17/2022 9:45:00 AM 7.7 45.86 0.175 7.3 13.89 11.16
4/17/2022 10:00:00 AM 7.65 45.77 0.176 7.31 13.94 11.17
4/17/2022 10:15:00 AM 7.66 45.788 0.176 7.31 13.87 11.21
4/17/2022 10:30:00 AM 7.6 45.68 0.176 7.31 13.35 11.23
4/17/2022 10:45:00 AM 7.65 45.77 0.177 7.33 13.44 11.29
4/17/2022 11:00:00 AM 7.63 45.734 0.177 7.33 13.48 11.3
4/17/2022 11:15:00 AM 7.66 45.788 0.177 7.33 13.54 11.36
4/17/2022 11:30:00 AM 7.77 45.986 0.178 7.34 13.74 11.4
4/17/2022 11:45:00 AM 7.85 46.13 0.178 7.35 13.35 11.42
4/17/2022 12:00:00 PM 7.88 46.184 0.178 7.35 13.28 11.45
4/17/2022 12:15:00 PM 7.91 46.238 0.178 7.36 13.16 11.48
4/17/2022 12:30:00 PM 7.95 46.31 0.179 7.37 13.04 11.52
4/17/2022 12:45:00 PM 7.98 46.364 0.179 7.37 13.49 11.54
4/17/2022 1:00:00 PM 8.12 46.616 0.179 7.37 12.87 11.57
4/17/2022 1:15:00 PM 8.28 46.904 0.179 7.38 12.82 11.6
4/17/2022 1:30:00 PM 8.3 46.94 0.179 7.38 12.77 11.61
4/17/2022 1:45:00 PM 8.38 47.084 0.179 7.39 12.9 11.63
4/17/2022 2:00:00 PM 8.58 47.444 0.179 7.39 12.77 11.65
4/17/2022 2:15:00 PM 8.77 47.786 0.179 7.39 12.59 11.67
4/17/2022 2:30:00 PM 8.92 48.056 0.179 7.4 11.82 11.68
4/17/2022 2:45:00 PM 9 48.2 0.179 7.4 12.47 11.67
4/17/2022 3:00:00 PM 9.03 48.254 0.179 7.41 12.73 11.67
4/17/2022 3:15:00 PM 9 48.2 0.179 7.4 12.03 11.65
4/17/2022 3:30:00 PM 9.03 48.254 0.18 7.4 11.95 11.66
4/17/2022 3:45:00 PM 9.14 48.452 0.18 7.4 11.96 11.67
4/17/2022 4:00:00 PM 9.28 48.704 0.18 7.41 11.6 11.69
4/17/2022 4:15:00 PM 9.41 48.938 0.18 7.41 11.66 11.7
4/17/2022 4:30:00 PM 9.49 49.082 0.18 7.41 11.38 11.69
4/17/2022 4:45:00 PM 9.53 49.154 0.18 7.41 11.45 11.68
4/17/2022 5:00:00 PM 9.55 49.19 0.18 7.4 11.21 11.67
4/17/2022 5:15:00 PM 9.54 49.172 0.18 7.41 10.96 11.65
4/17/2022 5:30:00 PM 9.48 49.064 0.181 7.4 10.8 11.62
4/17/2022 5:45:00 PM 9.38 48.884 0.181 7.4 11.1 11.6
4/17/2022 6:00:00 PM 9.26 48.668 0.182 7.39 10.43 11.57
4/17/2022 6:15:00 PM 9.12 48.416 0.181 7.39 10.66 11.53
4/17/2022 6:30:00 PM 8.99 48.182 0.182 7.38 10.86 11.49
4/17/2022 6:45:00 PM 8.87 47.966 0.182 7.36 10.33 11.44
4/17/2022 7:00:00 PM 8.74 47.732 0.183 7.36 10.45 11.4
4/17/2022 7:15:00 PM 8.64 47.552 0.183 7.35 10.26 11.36
4/17/2022 7:30:00 PM 8.55 47.39 0.183 7.33 10.1 11.31
4/17/2022 7:45:00 PM 8.49 47.282 0.184 7.33 9.86 11.27
4/17/2022 8:00:00 PM 8.43 47.174 0.184 7.31 9.89 11.22
4/17/2022 8:15:00 PM 8.39 47.102 0.184 7.3 9.75 11.18
4/17/2022 8:30:00 PM 8.35 47.03 0.185 7.3 10.27 11.15
4/17/2022 8:45:00 PM 8.31 46.958 0.185 7.29 9.76 11.12
4/17/2022 9:00:00 PM 8.28 46.904 0.185 7.28 9.69 11.1
4/17/2022 9:15:00 PM 8.24 46.832 0.185 7.28 9.7 11.09
4/17/2022 9:30:00 PM 8.2 46.76 0.185 7.28 9.63 11.08
4/17/2022 9:45:00 PM 8.15 46.67 0.185 7.28 9.9 11.06
4/17/2022 10:00:00 PM 8.1 46.58 0.186 7.27 9.85 11.06
4/17/2022 10:15:00 PM 8.04 46.472 0.186 7.28 9.78 11.05
4/17/2022 10:30:00 PM 7.99 46.382 0.186 7.27 10.02 11.04
4/17/2022 10:45:00 PM 7.92 46.256 0.186 7.27 9.79 11.05
4/17/2022 11:00:00 PM 7.86 46.148 0.186 7.27 9.66 11.04
4/17/2022 11:15:00 PM 7.79 46.022 0.186 7.27 9.88 11.04
4/17/2022 11:30:00 PM 7.72 45.896 0.187 7.27 9.85 11.04
4/17/2022 11:45:00 PM 7.65 45.77 0.186 7.27 9.57 11.05
4/18/2022 12:00:00 AM 7.59 45.662 0.186 7.27 9.88 11.05
4/18/2022 12:15:00 AM 7.52 45.536 0.187 7.27 9.59 11.05
4/18/2022 12:30:00 AM 7.46 45.428 0.187 7.26 9.81 11.06
4/18/2022 12:45:00 AM 7.4 45.32 0.187 7.27 9.38 11.06
4/18/2022 1:00:00 AM 7.34 45.212 0.187 7.27 9.19 11.06
4/18/2022 1:15:00 AM 7.28 45.104 0.187 7.27 9.22 11.07
4/18/2022 1:30:00 AM 7.22 44.996 0.187 7.26 9.33 11.08
4/18/2022 1:45:00 AM 7.16 44.888 0.187 7.26 9.21 11.08
4/18/2022 2:00:00 AM 7.11 44.798 0.187 7.27 9.5 11.09
4/18/2022 2:15:00 AM 7.05 44.69 0.188 7.26 9.45 11.09
4/18/2022 2:30:00 AM 7 44.6 0.188 7.26 9.22 11.1
4/18/2022 2:45:00 AM 6.94 44.492 0.187 7.26 9.01 11.11
4/18/2022 3:00:00 AM 6.89 44.402 0.188 7.26 8.79 11.12
4/18/2022 3:15:00 AM 6.83 44.294 0.188 7.26 8.79 11.13
4/18/2022 3:30:00 AM 6.78 44.204 0.188 7.27 8.79 11.13
4/18/2022 3:45:00 AM 6.72 44.096 0.188 7.26 8.97 11.14
4/18/2022 4:00:00 AM 6.67 44.006 0.188 7.27 8.57 11.15
4/18/2022 4:15:00 AM 6.62 43.916 0.188 7.27 8.51 11.16
4/18/2022 4:30:00 AM 6.56 43.808 0.188 7.26 8.58 11.17
4/18/2022 4:45:00 AM 6.51 43.718 0.188 7.26 8.29 11.17
4/18/2022 5:00:00 AM 6.46 43.628 0.188 7.27 8.54 11.18
4/18/2022 5:15:00 AM 6.41 43.538 0.188 7.27 8.56 11.19
4/18/2022 5:30:00 AM 6.37 43.466 0.189 7.27 8.36 11.2
4/18/2022 5:45:00 AM 6.32 43.376 0.188 7.27 8.03 11.2
4/18/2022 6:00:00 AM 6.27 43.286 0.189 7.27 8.31 11.21
4/18/2022 6:15:00 AM 6.22 43.196 0.189 7.27 7.93 11.22
4/18/2022 6:30:00 AM 6.18 43.124 0.189 7.28 8.24 11.23
4/18/2022 6:45:00 AM 6.14 43.052 0.189 7.27 8 11.25
4/18/2022 7:00:00 AM 6.11 42.998 0.189 7.28 7.91 11.27
4/18/2022 7:15:00 AM 6.08 42.944 0.189 7.28 7.78 11.3
4/18/2022 7:30:00 AM 6.06 42.908 0.189 7.28 7.9 11.34
4/18/2022 7:45:00 AM 6.04 42.872 0.19 7.29 7.72 11.37
4/18/2022 8:00:00 AM 6.03 42.854 0.19 7.29 7.95 11.41
4/18/2022 8:15:00 AM 6.02 42.836 0.19 7.29 7.48 11.46
4/18/2022 8:30:00 AM 6.01 42.818 0.189 7.3 7.33 11.51
4/18/2022 8:45:00 AM 6 42.8 0.189 7.31 7.17 11.57
4/18/2022 9:00:00 AM 6 42.8 0.19 7.32 7.37 11.63
4/18/2022 9:15:00 AM 6.01 42.818 0.19 7.33 7.25 11.69
4/18/2022 9:30:00 AM 6.04 42.872 0.19 7.33 7.07 11.74
4/18/2022 9:45:00 AM 6.04 42.872 0.19 7.34 7.41 11.78
4/18/2022 10:00:00 AM 6.03 42.854 0.19 7.34 7.01 11.81
4/18/2022 10:15:00 AM 6 42.8 0.19 7.35 7.16 11.81
4/18/2022 10:30:00 AM 5.97 42.746 0.19 7.35 7.01 11.83
4/18/2022 10:45:00 AM 5.93 42.674 0.19 7.35 6.97 11.84
4/18/2022 11:00:00 AM 5.93 42.674 0.19 7.36 6.83 11.88
4/18/2022 11:15:00 AM 5.91 42.638 0.19 7.36 6.73 11.89
4/18/2022 11:30:00 AM 5.86 42.548 0.19 7.36 7.08 11.91
4/18/2022 11:45:00 AM 5.8 42.44 0.19 7.37 7.1 11.92
4/18/2022 12:00:00 PM 5.69 42.242 0.192 7.37 8.05 11.92
4/18/2022 12:15:00 PM 5.54 41.972 0.191 7.37 7.92 11.95
4/18/2022 12:30:00 PM 5.45 41.81 0.191 7.38 7.73 11.98
4/18/2022 12:45:00 PM 5.37 41.666 0.191 7.38 8.05 12.01
4/18/2022 1:00:00 PM 5.26 41.468 0.192 7.39 7.81 12.04
4/18/2022 1:15:00 PM 5.18 41.324 0.215 7.39 7.94 12.07
4/18/2022 1:30:00 PM 5.09 41.162 0.221 7.4 7.75 12.06
4/18/2022 1:45:00 PM 4.96 40.928 0.216 7.4 7.64 12.08
4/18/2022 2:00:00 PM 4.84 40.712 0.208 7.4 7.61 12.1
4/18/2022 2:15:00 PM 4.76 40.568 0.208 7.41 7.01 12.12
4/18/2022 2:30:00 PM 4.7 40.46 0.226 7.41 7.17 12.15
4/18/2022 2:45:00 PM 4.66 40.388 0.238 7.42 7.3 12.18
4/18/2022 3:00:00 PM 4.6 40.28 0.243 7.42 7.32 12.22
4/18/2022 3:15:00 PM 4.52 40.136 0.25 7.43 7.35 12.25
4/18/2022 3:30:00 PM 4.48 40.064 0.255 7.43 7.32 12.28
4/18/2022 3:45:00 PM 4.45 40.01 0.261 7.44 7.66 12.29
4/18/2022 4:00:00 PM 4.42 39.956 0.256 7.44 7.77 12.31
4/18/2022 4:15:00 PM 4.4 39.92 0.245 7.44 7.63 12.31
4/18/2022 4:30:00 PM 4.38 39.884 0.241 7.44 7.6 12.33
4/18/2022 4:45:00 PM 4.36 39.848 0.235 7.44 7.4 12.32
4/18/2022 5:00:00 PM 4.34 39.812 0.228 7.44 7.16 12.33
4/18/2022 5:15:00 PM 4.32 39.776 0.22 7.44 7.37 12.35
4/18/2022 5:30:00 PM 4.32 39.776 0.216 7.44 7 12.36
4/18/2022 5:45:00 PM 4.32 39.776 0.213 7.44 6.85 12.38
4/18/2022 6:00:00 PM 4.32 39.776 0.212 7.44 6.66 12.37
4/18/2022 6:15:00 PM 4.29 39.722 0.208 7.43 6.71 12.33
4/18/2022 6:30:00 PM 4.25 39.65 0.206 7.42 6.94 12.31
4/18/2022 6:45:00 PM 4.22 39.596 0.204 7.42 6.85 12.29
4/18/2022 7:00:00 PM 4.19 39.542 0.202 7.41 6.66 12.27
4/18/2022 7:15:00 PM 4.13 39.434 0.201 7.4 6.8 12.24
4/18/2022 7:30:00 PM 4.07 39.326 0.202 7.39 6.48 12.21
4/18/2022 7:45:00 PM 4.01 39.218 0.202 7.39 6.85 12.19
4/18/2022 8:00:00 PM 3.98 39.164 0.199 7.39 6.86 12.18
4/18/2022 8:15:00 PM 3.95 39.11 0.199 7.38 6.74 12.16
4/18/2022 8:30:00 PM 3.92 39.056 0.197 7.38 6.76 12.15
4/18/2022 8:45:00 PM 3.89 39.002 0.197 7.37 6.84 12.16
4/18/2022 9:00:00 PM 3.86 38.948 0.198 7.37 6.65 12.15
4/18/2022 9:15:00 PM 3.83 38.894 0.199 7.37 6.77 12.15
4/18/2022 9:30:00 PM 3.8 38.84 0.2 7.37 6.65 12.15
4/18/2022 9:45:00 PM 3.78 38.804 0.201 7.37 6.61 12.16
4/18/2022 10:00:00 PM 3.75 38.75 0.199 7.36 6.62 12.16
4/18/2022 10:15:00 PM 3.73 38.714 0.197 7.36 6.87 12.17
4/18/2022 10:30:00 PM 3.69 38.642 0.195 7.36 6.7 12.18
4/18/2022 10:45:00 PM 3.67 38.606 0.194 7.36 6.84 12.18
4/18/2022 11:00:00 PM 3.65 38.57 0.194 7.36 6.69 12.19
4/18/2022 11:15:00 PM 3.63 38.534 0.193 7.36 6.9 12.19
4/18/2022 11:30:00 PM 3.61 38.498 0.192 7.35 6.8 12.2
4/18/2022 11:45:00 PM 3.58 38.444 0.192 7.35 6.83 12.2
4/19/2022 12:00:00 AM 3.55 38.39 0.192 7.36 6.76 12.2
4/19/2022 12:15:00 AM 3.52 38.336 0.193 7.35 6.82 12.2
4/19/2022 12:30:00 AM 3.49 38.282 0.193 7.35 6.78 12.21
4/19/2022 12:45:00 AM 3.47 38.246 0.192 7.36 6.86 12.21
4/19/2022 1:00:00 AM 3.45 38.21 0.191 7.35 6.83 12.21
4/19/2022 1:15:00 AM 3.44 38.192 0.19 7.36 6.73 12.22
4/19/2022 1:30:00 AM 3.42 38.156 0.19 7.36 6.82 12.22
4/19/2022 1:45:00 AM 3.42 38.156 0.19 7.36 6.75 12.22
4/19/2022 2:00:00 AM 3.4 38.12 0.189 7.35 6.58 12.22
4/19/2022 2:15:00 AM 3.39 38.102 0.189 7.35 6.76 12.22
4/19/2022 2:30:00 AM 3.38 38.084 0.188 7.35 6.93 12.22
4/19/2022 2:45:00 AM 3.36 38.048 0.188 7.35 6.53 12.23
4/19/2022 3:00:00 AM 3.35 38.03 0.189 7.36 6.65 12.23
4/19/2022 3:15:00 AM 3.33 37.994 0.189 7.35 12.47 12.23
4/19/2022 3:30:00 AM 3.32 37.976 0.189 7.36 7.39 12.23
4/19/2022 3:45:00 AM 3.31 37.958 0.189 7.36 6.9 12.23
4/19/2022 4:00:00 AM 3.26 37.868 0.19 7.35 6.77 12.23
4/19/2022 4:15:00 AM 3.25 37.85 0.19 7.35 6.92 12.23
4/19/2022 4:30:00 AM 3.24 37.832 0.19 7.35 6.63 12.24
4/19/2022 4:45:00 AM 3.23 37.814 0.191 7.35 6.75 12.24
4/19/2022 5:00:00 AM 3.21 37.778 0.19 7.35 6.69 12.25
4/19/2022 5:15:00 AM 3.2 37.76 0.191 7.36 6.73 12.25
4/19/2022 5:30:00 AM 3.19 37.742 0.192 7.35 6.75 12.25
4/19/2022 5:45:00 AM 3.17 37.706 0.192 7.36 6.62 12.26
4/19/2022 6:00:00 AM 3.15 37.67 0.194 7.35 6.74 12.26
4/19/2022 6:15:00 AM 3.14 37.652 0.195 7.35 6.59 12.27
4/19/2022 6:30:00 AM 3.04 37.472 0.195 7.35 6.67 12.26
4/19/2022 6:45:00 AM 3.01 37.418 0.195 7.35 6.59 12.27
4/19/2022 7:00:00 AM 3 37.4 0.2 7.36 6.73 12.29
4/19/2022 7:15:00 AM 3 37.4 0.207 7.36 6.82 12.31
4/19/2022 7:30:00 AM 3 37.4 0.209 7.37 6.5 12.35
4/19/2022 7:45:00 AM 2.98 37.364 0.207 7.37 6.64 12.4
4/19/2022 8:00:00 AM 2.97 37.346 0.204 7.37 6.59 12.43
4/19/2022 8:15:00 AM 3.01 37.418 0.201 7.38 6.45 12.5
4/19/2022 8:30:00 AM 3.05 37.49 0.198 7.39 6.27 12.53
4/19/2022 8:45:00 AM 3.07 37.526 0.197 7.4 6.42 12.56
4/19/2022 9:00:00 AM 3.08 37.544 0.196 7.39 6.4 12.57
4/19/2022 9:15:00 AM 3.08 37.544 0.195 7.4 6.44 12.57
4/19/2022 9:30:00 AM 3.1 37.58 0.194 7.4 6.4 12.59
4/19/2022 9:45:00 AM 3.13 37.634 0.195 7.41 6.28 12.62
4/19/2022 10:00:00 AM 3.13 37.634 0.194 7.41 6.13 12.63
4/19/2022 10:15:00 AM 3.14 37.652 0.195 7.42 6.27 12.66
4/19/2022 10:30:00 AM 3.15 37.67 0.205 7.43 6.79 12.68
4/19/2022 10:45:00 AM 3.18 37.724 0.203 7.43 6.6 12.7
4/19/2022 11:00:00 AM 3.18 37.724 0.203 7.43 6.67 12.72
4/19/2022 11:15:00 AM 3.27 37.886 0.204 7.44 6.58 12.76
4/19/2022 11:30:00 AM 3.28 37.904 0.201 7.43 6.75 12.76
4/19/2022 11:45:00 AM 3.3 37.94 0.199 7.44 6.85 12.79
4/19/2022 12:00:00 PM 3.34 38.012 0.198 7.45 6.54 12.81
4/19/2022 12:15:00 PM 3.41 38.138 0.197 7.44 6.64 12.83
4/19/2022 12:30:00 PM 3.5 38.3 0.197 7.46 6.67 12.85
4/19/2022 12:45:00 PM 3.44 38.192 0.197 7.45 6.66 12.85
4/19/2022 1:00:00 PM 3.35 38.03 0.199 7.48 7.26 12.84
4/19/2022 1:15:00 PM 3.46 38.228 0.199 7.49 8.51 12.86
4/19/2022 1:30:00 PM 3.71 38.678 0.201 7.48 7.33 12.87
4/19/2022 1:45:00 PM 3.97 39.146 0.2 7.47 7.2 12.87
4/19/2022 2:00:00 PM 4.1 39.38 0.198 7.48 7.19 12.89
4/19/2022 2:15:00 PM 4.15 39.47 0.196 7.48 7 12.88
4/19/2022 2:30:00 PM 4.22 39.596 0.196 7.47 6.73 12.88
4/19/2022 2:45:00 PM 4.1 39.38 0.197 7.48 6.57 12.83
4/19/2022 3:00:00 PM 4.13 39.434 0.198 7.48 6.83 12.85
4/19/2022 3:15:00 PM 4.18 39.524 0.198 7.49 6.96 12.85
4/19/2022 3:30:00 PM 4.26 39.668 0.199 7.48 6.96 12.85
4/19/2022 3:45:00 PM 4.27 39.686 0.2 7.49 6.73 12.87
4/19/2022 4:00:00 PM 4.24 39.632 0.199 7.48 7.03 12.86
4/19/2022 4:15:00 PM 4.28 39.704 0.199 7.49 6.66 12.87
4/19/2022 4:30:00 PM 4.33 39.794 0.199 7.49 6.82 12.87
4/19/2022 4:45:00 PM 4.34 39.812 0.199 7.49 6.68 12.86
4/19/2022 5:00:00 PM 4.33 39.794 0.199 7.49 6.79 12.86
4/19/2022 5:15:00 PM 4.35 39.83 0.199 7.49 6.94 12.85
4/19/2022 5:30:00 PM 4.37 39.866 0.2 7.5 6.92 12.83
4/19/2022 5:45:00 PM 4.37 39.866 0.201 7.49 6.84 12.8
4/19/2022 6:00:00 PM 4.33 39.794 0.2 7.48 6.89 12.77
4/19/2022 6:15:00 PM 4.3 39.74 0.2 7.47 6.94 12.75
4/19/2022 6:30:00 PM 4.28 39.704 0.2 7.46 6.9 12.72
4/19/2022 6:45:00 PM 4.25 39.65 0.201 7.47 6.88 12.68
4/19/2022 7:00:00 PM 4.22 39.596 0.201 7.46 7.11 12.66
4/19/2022 7:15:00 PM 4.19 39.542 0.201 7.44 6.97 12.6
4/19/2022 7:30:00 PM 4.18 39.524 0.201 7.44 6.96 12.55
4/19/2022 7:45:00 PM 4.15 39.47 0.202 7.43 7.36 12.5
4/19/2022 8:00:00 PM 4.12 39.416 0.203 7.42 7.29 12.46
4/19/2022 8:15:00 PM 4.09 39.362 0.204 7.42 7.07 12.43
4/19/2022 8:30:00 PM 4.08 39.344 0.204 7.4 7.03 12.39
4/19/2022 8:45:00 PM 4.07 39.326 0.205 7.4 7.3 12.37
4/19/2022 9:00:00 PM 4.04 39.272 0.206 7.39 7.16 12.35
4/19/2022 9:15:00 PM 4.01 39.218 0.207 7.4 7.17 12.34
4/19/2022 9:30:00 PM 3.98 39.164 0.206 7.39 7.45 12.31
4/19/2022 9:45:00 PM 3.96 39.128 0.207 7.38 7.59 12.31
4/19/2022 10:00:00 PM 3.94 39.092 0.207 7.39 7.37 12.31
4/19/2022 10:15:00 PM 3.92 39.056 0.207 7.39 7.35 12.3
4/19/2022 10:30:00 PM 3.89 39.002 0.208 7.39 6.99 12.28
4/19/2022 10:45:00 PM 3.87 38.966 0.208 7.39 7.11 12.28
4/19/2022 11:00:00 PM 3.84 38.912 0.208 7.38 7.19 12.27
4/19/2022 11:15:00 PM 3.82 38.876 0.209 7.38 7.2 12.27
4/19/2022 11:30:00 PM 3.8 38.84 0.21 7.38 7.11 12.26
4/19/2022 11:45:00 PM 3.77 38.786 0.21 7.38 7.57 12.26
4/20/2022 12:00:00 AM 3.75 38.75 0.209 7.37 7.59 12.26
4/20/2022 12:15:00 AM 3.73 38.714 0.209 7.37 7.42 12.26
4/20/2022 12:30:00 AM 3.72 38.696 0.209 7.36 7.55 12.25
4/20/2022 12:45:00 AM 3.7 38.66 0.209 7.38 7.9 12.25
4/20/2022 1:00:00 AM 3.68 38.624 0.208 7.37 7.22 12.25
4/20/2022 1:15:00 AM 3.66 38.588 0.208 7.36 7.48 12.25
4/20/2022 1:30:00 AM 3.64 38.552 0.209 7.36 7.55 12.25
4/20/2022 1:45:00 AM 3.61 38.498 0.209 7.36 7.65 12.25
4/20/2022 2:00:00 AM 3.59 38.462 0.209 7.36 7.38 12.25
4/20/2022 2:15:00 AM 3.56 38.408 0.209 7.37 7.53 12.25
4/20/2022 2:30:00 AM 3.53 38.354 0.209 7.35 7.39 12.26
4/20/2022 2:45:00 AM 3.51 38.318 0.209 7.36 7.43 12.26
4/20/2022 3:00:00 AM 3.48 38.264 0.209 7.36 7.44 12.26
4/20/2022 3:15:00 AM 3.45 38.21 0.208 7.35 7.11 12.27
4/20/2022 3:30:00 AM 3.43 38.174 0.207 7.36 7.44 12.27
4/20/2022 3:45:00 AM 3.4 38.12 0.207 7.35 7.37 12.28
4/20/2022 4:00:00 AM 3.38 38.084 0.207 7.36 7.36 12.28
4/20/2022 4:15:00 AM 3.36 38.048 0.206 7.37 7.75 12.28
4/20/2022 4:30:00 AM 3.34 38.012 0.206 7.35 7.41 12.28
4/20/2022 4:45:00 AM 3.31 37.958 0.205 7.34 7.33 12.29
4/20/2022 5:00:00 AM 3.29 37.922 0.205 7.34 7.62 12.29
4/20/2022 5:15:00 AM 3.27 37.886 0.205 7.35 7.35 12.3
4/20/2022 5:30:00 AM 3.25 37.85 0.205 7.34 7.2 12.3
4/20/2022 5:45:00 AM 3.23 37.814 0.205 7.36 7.4 12.31
4/20/2022 6:00:00 AM 3.21 37.778 0.206 7.35 7.61 12.31
4/20/2022 6:15:00 AM 3.2 37.76 0.206 7.35 7.22 12.31
4/20/2022 6:30:00 AM 3.18 37.724 0.206 7.35 7.29 12.32
4/20/2022 6:45:00 AM 3.16 37.688 0.208 7.34 7.28 12.34
4/20/2022 7:00:00 AM 3.15 37.67 0.208 7.34 7.4 12.36
4/20/2022 7:15:00 AM 3.14 37.652 0.208 7.35 7.58 12.4
4/20/2022 7:30:00 AM 3.14 37.652 0.208 7.35 7.2 12.44
4/20/2022 7:45:00 AM 3.15 37.67 0.209 7.36 7.2 12.48
4/20/2022 8:00:00 AM 3.16 37.688 0.208 7.36 7.16 12.53
4/20/2022 8:15:00 AM 3.19 37.742 0.208 7.37 6.92 12.58
4/20/2022 8:30:00 AM 3.25 37.85 0.208 7.38 7.13 12.63
4/20/2022 8:45:00 AM 3.32 37.976 0.208 7.38 6.86 12.67
4/20/2022 9:00:00 AM 3.39 38.102 0.208 7.39 7.01 12.7
4/20/2022 9:15:00 AM 3.47 38.246 0.208 7.39 6.9 12.73
4/20/2022 9:30:00 AM 3.58 38.444 0.208 7.4 6.83 12.76
4/20/2022 9:45:00 AM 3.7 38.66 0.209 7.41 6.78 12.78
4/20/2022 10:00:00 AM 3.83 38.894 0.209 7.4 6.97 12.8
4/20/2022 10:15:00 AM 3.96 39.128 0.209 7.41 6.98 12.81
4/20/2022 10:30:00 AM 4.1 39.38 0.21 7.4 7.01 12.82
4/20/2022 10:45:00 AM 4.24 39.632 0.211 7.4 7.03 12.83
4/20/2022 11:00:00 AM 4.37 39.866 0.211 7.4 6.82 12.84
4/20/2022 11:15:00 AM 4.51 40.118 0.211 7.41 6.8 12.84
4/20/2022 11:30:00 AM 4.67 40.406 0.211 7.41 6.88 12.85
4/20/2022 11:45:00 AM 4.79 40.622 0.212 7.41 6.73 12.85
4/20/2022 12:00:00 PM 4.92 40.856 0.212 7.41 6.95 12.86
4/20/2022 12:15:00 PM 5.05 41.09 0.212 7.41 6.93 12.86
4/20/2022 12:30:00 PM 5.22 41.396 0.212 7.43 7.2 12.86
4/20/2022 12:45:00 PM 5.42 41.756 0.212 7.43 7.21 12.86
4/20/2022 1:00:00 PM 5.63 42.134 0.212 7.41 7.31 12.85
4/20/2022 1:15:00 PM 5.82 42.476 0.212 7.42 7.2 12.84
4/20/2022 1:30:00 PM 6.01 42.818 0.212 7.43 7.44 12.83
4/20/2022 1:45:00 PM 6.2 43.16 0.212 7.43 7.39 12.82
4/20/2022 2:00:00 PM 6.39 43.502 0.212 7.42 7.25 12.8
4/20/2022 2:15:00 PM 6.56 43.808 0.212 7.43 7.26 12.78
4/20/2022 2:30:00 PM 6.71 44.078 0.213 7.42 7.25 12.77
4/20/2022 2:45:00 PM 6.86 44.348 0.213 7.44 7.16 12.74
4/20/2022 3:00:00 PM 6.99 44.582 0.213 7.43 7.05 12.72
4/20/2022 3:15:00 PM 7.12 44.816 0.213 7.45 7.26 12.7
4/20/2022 3:30:00 PM 7.26 45.068 0.214 7.45 7.27 12.67
4/20/2022 3:45:00 PM 7.37 45.266 0.214 7.46 7.73 12.64
4/20/2022 4:00:00 PM 7.45 45.41 0.214 7.48 7.74 12.59
4/20/2022 4:15:00 PM 7.51 45.518 0.216 7.47 7.88 12.56
4/20/2022 4:30:00 PM 7.56 45.608 0.216 7.47 8.12 12.52
4/20/2022 4:45:00 PM 7.57 45.626 0.215 7.47 8.72 12.48
4/20/2022 5:00:00 PM 7.58 45.644 0.212 7.47 9.23 12.44
4/20/2022 5:15:00 PM 7.57 45.626 0.211 7.46 9.73 12.4
4/20/2022 5:30:00 PM 7.54 45.572 0.209 7.45 10.34 12.36
4/20/2022 5:45:00 PM 7.5 45.5 0.207 7.44 9.87 12.31
4/20/2022 6:00:00 PM 7.44 45.392 0.205 7.43 9.86 12.28
4/20/2022 6:15:00 PM 7.38 45.284 0.204 7.43 9.51 12.22
4/20/2022 6:30:00 PM 7.31 45.158 0.202 7.42 9.35 12.18
4/20/2022 6:45:00 PM 7.25 45.05 0.2 7.41 9.23 12.12
4/20/2022 7:00:00 PM 7.2 44.96 0.199 7.4 9.72 12.06
4/20/2022 7:15:00 PM 7.14 44.852 0.198 7.39 9.35 12.01
4/20/2022 7:30:00 PM 7.12 44.816 0.197 7.38 9.53 11.96
4/20/2022 7:45:00 PM 7.1 44.78 0.196 7.36 9.89 11.9
4/20/2022 8:00:00 PM 7.1 44.78 0.196 7.35 9.62 11.84
4/20/2022 8:15:00 PM 7.1 44.78 0.196 7.33 10.6 11.79
4/20/2022 8:30:00 PM 7.11 44.798 0.196 7.33 11.75 11.75
4/20/2022 8:45:00 PM 7.11 44.798 0.196 7.32 12.16 11.71
4/20/2022 9:00:00 PM 7.12 44.816 0.196 7.32 13.99 11.67
4/20/2022 9:15:00 PM 7.13 44.834 0.195 7.31 14.69 11.63
4/20/2022 9:30:00 PM 7.16 44.888 0.194 7.31 16.21 11.59
4/20/2022 9:45:00 PM 7.2 44.96 0.194 7.3 17.48 11.55
4/20/2022 10:00:00 PM 7.23 45.014 0.192 7.3 17.64 11.52
4/20/2022 10:15:00 PM 7.24 45.032 0.191 7.3 19.74 11.48
4/20/2022 10:30:00 PM 7.24 45.032 0.189 7.29 22.22 11.46
4/20/2022 10:45:00 PM 7.23 45.014 0.187 7.29 22.82 11.44
4/20/2022 11:00:00 PM 7.21 44.978 0.186 7.28 23.99 11.43
4/20/2022 11:15:00 PM 7.18 44.924 0.185 7.28 25.92 11.42
4/20/2022 11:30:00 PM 7.15 44.87 0.184 7.28 22.47 11.42
4/20/2022 11:45:00 PM 7.14 44.852 0.183 7.28 25.36 11.4
4/21/2022 12:00:00 AM 7.11 44.798 0.183 7.28 25.72 11.39
4/21/2022 12:15:00 AM 7.09 44.762 0.182 7.28 27.98 11.37
4/21/2022 12:30:00 AM 7.08 44.744 0.181 7.27 29.08 11.35
4/21/2022 12:45:00 AM 7.08 44.744 0.18 7.27 30.06 11.33
4/21/2022 1:00:00 AM 7.09 44.762 0.18 7.27 33.52 11.3
4/21/2022 1:15:00 AM 7.09 44.762 0.178 7.27 37.69 11.28
4/21/2022 1:30:00 AM 7.11 44.798 0.176 7.27 40.47 11.25
4/21/2022 1:45:00 AM 7.12 44.816 0.175 7.26 41.72 11.24
4/21/2022 2:00:00 AM 7.13 44.834 0.173 7.26 40.72 11.22
4/21/2022 2:15:00 AM 7.15 44.87 0.171 7.26 39.66 11.21
4/21/2022 2:30:00 AM 7.16 44.888 0.17 7.25 33.36 11.21
4/21/2022 2:45:00 AM 7.17 44.906 0.169 7.25 38.57 11.2
4/21/2022 3:00:00 AM 7.17 44.906 0.168 7.24 35.33 11.2
4/21/2022 3:15:00 AM 7.17 44.906 0.169 7.25 34.38 11.2
4/21/2022 3:30:00 AM 7.17 44.906 0.169 7.25 32.61 11.19
4/21/2022 3:45:00 AM 7.16 44.888 0.17 7.25 31.18 11.19
4/21/2022 4:00:00 AM 7.16 44.888 0.17 7.25 31.04 11.18
4/21/2022 4:15:00 AM 7.16 44.888 0.17 7.25 30.4 11.17
4/21/2022 4:30:00 AM 7.16 44.888 0.171 7.26 30.21 11.16
4/21/2022 4:45:00 AM 7.15 44.87 0.171 7.26 29.31 11.15
4/21/2022 5:00:00 AM 7.15 44.87 0.17 7.25 29.41 11.14
4/21/2022 5:15:00 AM 7.14 44.852 0.169 7.26 29.98 11.13
4/21/2022 5:30:00 AM 7.12 44.816 0.169 7.26 29.95 11.13
4/21/2022 5:45:00 AM 7.09 44.762 0.168 7.25 30.19 11.13
4/21/2022 6:00:00 AM 7.05 44.69 0.167 7.25 30.53 11.13
4/21/2022 6:15:00 AM 7.01 44.618 0.166 7.25 31.26 11.13
4/21/2022 6:30:00 AM 6.97 44.546 0.165 7.25 26.57 11.15
4/21/2022 6:45:00 AM 6.93 44.474 0.165 7.24 31.81 11.15
4/21/2022 7:00:00 AM 6.89 44.402 0.164 7.24 31.46 11.15
4/21/2022 7:15:00 AM 6.85 44.33 0.164 7.24 31.2 11.17
4/21/2022 7:30:00 AM 6.82 44.276 0.163 7.24 31.97 11.19
4/21/2022 7:45:00 AM 6.8 44.24 0.163 7.24 31.68 11.21
4/21/2022 8:00:00 AM 6.8 44.24 0.162 7.24 30.56 11.25
4/21/2022 8:15:00 AM 6.79 44.222 0.162 7.24 30.63 11.27
4/21/2022 8:30:00 AM 6.78 44.204 0.162 7.24 29.38 11.29
4/21/2022 8:45:00 AM 6.8 44.24 0.162 7.24 29.33 11.34
4/21/2022 9:00:00 AM 6.8 44.24 0.162 7.24 28.29 11.36
4/21/2022 9:15:00 AM 6.78 44.204 0.162 7.24 27.26 11.37
4/21/2022 9:30:00 AM 6.76 44.168 0.162 7.24 27.91 11.37
4/21/2022 9:45:00 AM 6.73 44.114 0.162 7.23 26.13 11.37
4/21/2022 10:00:00 AM 6.71 44.078 0.162 7.23 26.24 11.37
4/21/2022 10:15:00 AM 6.7 44.06 0.163 7.23 25.64 11.38
4/21/2022 10:30:00 AM 6.69 44.042 0.163 7.23 26.25 11.39
4/21/2022 10:45:00 AM 6.67 44.006 0.164 7.23 25 11.4
4/21/2022 11:00:00 AM 6.66 43.988 0.163 7.23 25.88 11.4
4/21/2022 11:15:00 AM 6.64 43.952 0.163 7.23 24.52 11.41
4/21/2022 11:30:00 AM 6.62 43.916 0.163 7.22 23.54 11.42
4/21/2022 11:45:00 AM 6.59 43.862 0.163 7.22 23.69 11.44
4/21/2022 12:00:00 PM 6.57 43.826 0.163 7.21 22.16 11.44
4/21/2022 12:15:00 PM 6.55 43.79 0.163 7.21 22.56 11.46
4/21/2022 12:30:00 PM 6.56 43.808 0.164 7.22 21.23 11.49
4/21/2022 12:45:00 PM 6.57 43.826 0.164 7.22 20.37 11.53
4/21/2022 1:00:00 PM 6.57 43.826 0.165 7.23 20.14 11.56
4/21/2022 1:15:00 PM 6.56 43.808 0.165 7.23 19.4 11.57
4/21/2022 1:30:00 PM 6.55 43.79 0.166 7.23 17.96 11.57
4/21/2022 1:45:00 PM 6.54 43.772 0.166 7.22 18.4 11.56
4/21/2022 2:00:00 PM 6.53 43.754 0.167 7.22 17.58 11.56
4/21/2022 2:15:00 PM 6.53 43.754 0.168 7.22 17.67 11.56
4/21/2022 2:30:00 PM 6.52 43.736 0.168 7.22 17.15 11.55
4/21/2022 2:45:00 PM 6.52 43.736 0.168 7.22 16.32 11.55
4/21/2022 3:00:00 PM 6.52 43.736 0.168 7.23 16.13 11.56
4/21/2022 3:15:00 PM 6.52 43.736 0.168 7.23 17.07 11.56
4/21/2022 3:30:00 PM 6.53 43.754 0.169 7.23 16.96 11.57
4/21/2022 3:45:00 PM 6.54 43.772 0.169 7.23 15.98 11.58
4/21/2022 4:00:00 PM 6.54 43.772 0.168 7.23 16.22 11.58
4/21/2022 4:15:00 PM 6.54 43.772 0.168 7.23 15.75 11.58
4/21/2022 4:30:00 PM 6.55 43.79 0.167 7.23 15.37 11.58
4/21/2022 4:45:00 PM 6.57 43.826 0.167 7.23 14.58 11.59
4/21/2022 5:00:00 PM 6.58 43.844 0.167 7.23 14.77 11.6
4/21/2022 5:15:00 PM 6.61 43.898 0.167 7.23 14.54 11.61
4/21/2022 5:30:00 PM 6.63 43.934 0.167 7.23 14.94 11.62
4/21/2022 5:45:00 PM 6.65 43.97 0.167 7.23 14.39 11.61
4/21/2022 6:00:00 PM 6.67 44.006 0.167 7.23 14.7 11.61
4/21/2022 6:15:00 PM 6.69 44.042 0.167 7.23 14.85 11.61
4/21/2022 6:30:00 PM 6.7 44.06 0.167 7.23 16.55 11.6
4/21/2022 6:45:00 PM 6.72 44.096 0.167 7.23 14.96 11.59
4/21/2022 7:00:00 PM 6.73 44.114 0.166 7.23 15.64 11.58
4/21/2022 7:15:00 PM 6.74 44.132 0.166 7.23 15.27 11.56
4/21/2022 7:30:00 PM 6.74 44.132 0.165 7.22 16.11 11.54
4/21/2022 7:45:00 PM 6.74 44.132 0.165 7.22 15.95 11.52
4/21/2022 8:00:00 PM 6.73 44.114 0.165 7.22 16.1 11.5
4/21/2022 8:15:00 PM 6.73 44.114 0.164 7.21 16.58 11.47
4/21/2022 8:30:00 PM 6.73 44.114 0.165 7.21 17.07 11.46
4/21/2022 8:45:00 PM 6.72 44.096 0.164 7.21 18.15 11.45
4/21/2022 9:00:00 PM 6.72 44.096 0.164 7.21 17.4 11.44
4/21/2022 9:15:00 PM 6.72 44.096 0.163 7.21 16.86 11.44
4/21/2022 9:30:00 PM 6.72 44.096 0.162 7.2 17.64 11.43
4/21/2022 9:45:00 PM 6.71 44.078 0.16 7.2 18.32 11.42
4/21/2022 10:00:00 PM 6.71 44.078 0.161 7.2 19.41 11.42
4/21/2022 10:15:00 PM 6.7 44.06 0.158 7.2 19.55 11.41
4/21/2022 10:30:00 PM 6.7 44.06 0.156 7.2 19.78 11.41
4/21/2022 10:45:00 PM 6.7 44.06 0.163 7.2 21.45 11.4
4/21/2022 11:00:00 PM 6.7 44.06 0.163 7.2 23.47 11.4
4/21/2022 11:15:00 PM 6.71 44.078 0.162 7.2 22.65 11.39
4/21/2022 11:30:00 PM 6.73 44.114 0.162 7.2 22.17 11.38
4/21/2022 11:45:00 PM 6.73 44.114 0.162 7.21 23.13 11.38
4/22/2022 12:00:00 AM 6.74 44.132 0.162 7.2 22.41 11.37
4/22/2022 12:15:00 AM 6.74 44.132 0.162 7.2 23.54 11.37
4/22/2022 12:30:00 AM 6.73 44.114 0.162 7.2 22.5 11.36
4/22/2022 12:45:00 AM 6.73 44.114 0.162 7.21 23.1 11.35
4/22/2022 1:00:00 AM 6.74 44.132 0.162 7.2 24.85 11.34
4/22/2022 1:15:00 AM 6.75 44.15 0.162 7.2 22.1 11.34
4/22/2022 1:30:00 AM 6.75 44.15 0.162 7.2 23.46 11.34
4/22/2022 1:45:00 AM 6.75 44.15 0.162 7.2 23.97 11.33
4/22/2022 2:00:00 AM 6.74 44.132 0.162 7.2 24.26 11.32
4/22/2022 2:15:00 AM 6.74 44.132 0.161 7.2 23.89 11.31
4/22/2022 2:30:00 AM 6.73 44.114 0.162 7.2 23.01 11.31
4/22/2022 2:45:00 AM 6.73 44.114 0.162 7.2 24.86 11.31
4/22/2022 3:00:00 AM 6.72 44.096 0.162 7.2 23.29 11.3
4/22/2022 3:15:00 AM 6.71 44.078 0.161 7.2 22.79 11.3
4/22/2022 3:30:00 AM 6.7 44.06 0.161 7.2 22.61 11.3
4/22/2022 3:45:00 AM 6.69 44.042 0.161 7.2 22.72 11.3
4/22/2022 4:00:00 AM 6.69 44.042 0.161 7.19 22.34 11.29
4/22/2022 4:15:00 AM 6.68 44.024 0.161 7.19 22.21 11.28
4/22/2022 4:30:00 AM 6.67 44.006 0.161 7.19 22.37 11.29
4/22/2022 4:45:00 AM 6.66 43.988 0.161 7.18 21.42 11.28
4/22/2022 5:00:00 AM 6.65 43.97 0.161 7.18 21.3 11.28
4/22/2022 5:15:00 AM 6.63 43.934 0.161 7.18 20.56 11.28
4/22/2022 5:30:00 AM 6.61 43.898 0.161 7.18 21.14 11.29
4/22/2022 5:45:00 AM 6.6 43.88 0.161 7.18 20.68 11.29
4/22/2022 6:00:00 AM 6.58 43.844 0.161 7.17 20.52 11.29
4/22/2022 6:15:00 AM 6.56 43.808 0.162 7.17 20.46 11.29
4/22/2022 6:30:00 AM 6.55 43.79 0.162 7.17 20.16 11.3
4/22/2022 6:45:00 AM 6.53 43.754 0.162 7.17 19.73 11.3
4/22/2022 7:00:00 AM 6.52 43.736 0.162 7.17 19.77 11.31
4/22/2022 7:15:00 AM 6.51 43.718 0.162 7.17 18.52 11.33
4/22/2022 7:30:00 AM 6.5 43.7 0.162 7.17 18.33 11.34
4/22/2022 7:45:00 AM 6.51 43.718 0.161 7.17 18.27 11.37
4/22/2022 8:00:00 AM 6.52 43.736 0.162 7.17 17.81 11.4
4/22/2022 8:15:00 AM 6.55 43.79 0.162 7.18 17.01 11.43
4/22/2022 8:30:00 AM 6.59 43.862 0.161 7.19 17.01 11.46
4/22/2022 8:45:00 AM 6.65 43.97 0.161 7.19 17.15 11.49
4/22/2022 9:00:00 AM 6.71 44.078 0.161 7.19 16.84 11.52
4/22/2022 9:15:00 AM 6.78 44.204 0.162 7.2 15.97 11.54
4/22/2022 9:30:00 AM 6.86 44.348 0.162 7.2 15.53 11.57
4/22/2022 9:45:00 AM 6.94 44.492 0.162 7.2 15.55 11.59
4/22/2022 10:00:00 AM 7.03 44.654 0.162 7.21 15.02 11.61
4/22/2022 10:15:00 AM 7.13 44.834 0.162 7.21 14.91 11.63
4/22/2022 10:30:00 AM 7.23 45.014 0.162 7.21 14.82 11.64
4/22/2022 10:45:00 AM 7.33 45.194 0.162 7.22 14.34 11.66
4/22/2022 11:00:00 AM 7.44 45.392 0.163 7.22 13.93 11.67
4/22/2022 11:15:00 AM 7.57 45.626 0.163 7.22 13.79 11.69
4/22/2022 11:30:00 AM 7.71 45.878 0.163 7.22 13.27 11.7
4/22/2022 11:45:00 AM 7.85 46.13 0.163 7.22 13.13 11.72
4/22/2022 12:00:00 PM 7.95 46.31 0.163 7.23 13.03 11.73
4/22/2022 12:15:00 PM 8.08 46.544 0.163 7.23 13.01 11.74
4/22/2022 12:30:00 PM 8.23 46.814 0.163 7.24 12.44 11.75
4/22/2022 12:45:00 PM 8.37 47.066 0.164 7.25 12.42 11.76
4/22/2022 1:00:00 PM 8.51 47.318 0.164 7.24 12 11.76
4/22/2022 1:15:00 PM 8.67 47.606 0.164 7.25 12.22 11.77
4/22/2022 1:30:00 PM 8.81 47.858 0.164 7.25 11.89 11.77
4/22/2022 1:45:00 PM 8.89 48.002 0.164 7.26 11.88 11.76
4/22/2022 2:00:00 PM 8.96 48.128 0.164 7.26 11.87 11.76
4/22/2022 2:15:00 PM 9.09 48.362 0.164 7.27 11.91 11.76
4/22/2022 2:30:00 PM 9.23 48.614 0.164 7.27 11.62 11.76
4/22/2022 2:45:00 PM 9.32 48.776 0.164 7.27 11 11.74
4/22/2022 3:00:00 PM 9.42 48.956 0.164 7.28 11.01 11.74
4/22/2022 3:15:00 PM 9.5 49.1 0.165 7.29 11.36 11.73
4/22/2022 3:30:00 PM 9.55 49.19 0.164 7.29 10.92 11.71
4/22/2022 3:45:00 PM 9.54 49.172 0.165 7.28 11.5 11.69
4/22/2022 4:00:00 PM 9.54 49.172 0.165 7.29 10.65 11.67
4/22/2022 4:15:00 PM 9.55 49.19 0.165 7.29 10.64 11.65
4/22/2022 4:30:00 PM 9.6 49.28 0.165 7.29 10.67 11.64
4/22/2022 4:45:00 PM 9.64 49.352 0.165 7.29 10.64 11.62
4/22/2022 5:00:00 PM 9.69 49.442 0.165 7.29 10.48 11.6
4/22/2022 5:15:00 PM 9.7 49.46 0.165 7.28 10.56 11.57
4/22/2022 5:30:00 PM 9.69 49.442 0.165 7.29 10.04 11.54
4/22/2022 5:45:00 PM 9.67 49.406 0.165 7.27 10.47 11.5
4/22/2022 6:00:00 PM 9.66 49.388 0.166 7.27 10.22 11.46
4/22/2022 6:15:00 PM 9.66 49.388 0.166 7.27 10.4 11.41
4/22/2022 6:30:00 PM 9.66 49.388 0.166 7.25 10.06 11.36
4/22/2022 6:45:00 PM 9.65 49.37 0.166 7.24 10.07 11.3
4/22/2022 7:00:00 PM 9.65 49.37 0.166 7.22 10.15 11.24
4/22/2022 7:15:00 PM 9.66 49.388 0.166 7.21 10.3 11.19
4/22/2022 7:30:00 PM 9.67 49.406 0.166 7.19 9.86 11.15
4/22/2022 7:45:00 PM 9.67 49.406 0.167 7.2 9.96 11.11
4/22/2022 8:00:00 PM 9.67 49.406 0.167 7.18 10.15 11.06
4/22/2022 8:15:00 PM 9.67 49.406 0.167 7.17 9.98 11.01
4/22/2022 8:30:00 PM 9.66 49.388 0.167 7.16 10.46 10.97
4/22/2022 8:45:00 PM 9.65 49.37 0.167 7.16 10.22 10.94
4/22/2022 9:00:00 PM 9.64 49.352 0.167 7.16 10.05 10.91
4/22/2022 9:15:00 PM 9.62 49.316 0.167 7.15 10.19 10.89
4/22/2022 9:30:00 PM 9.59 49.262 0.167 7.15 9.91 10.87
4/22/2022 9:45:00 PM 9.59 49.262 0.168 7.15 10.34 10.84
4/22/2022 10:00:00 PM 9.59 49.262 0.168 7.15 10.35 10.83
4/22/2022 10:15:00 PM 9.58 49.244 0.168 7.15 10.35 10.81
4/22/2022 10:30:00 PM 9.58 49.244 0.168 7.14 10.41 10.79
4/22/2022 10:45:00 PM 9.58 49.244 0.168 7.14 10.47 10.77
4/22/2022 11:00:00 PM 9.58 49.244 0.168 7.14 10.63 10.76
4/22/2022 11:15:00 PM 9.58 49.244 0.168 7.13 10.8 10.74
4/22/2022 11:30:00 PM 9.58 49.244 0.168 7.12 10.65 10.72
4/22/2022 11:45:00 PM 9.58 49.244 0.168 7.12 10.64 10.7
4/23/2022 12:00:00 AM 9.58 49.244 0.168 7.12 10.34 10.69
4/23/2022 12:15:00 AM 9.58 49.244 0.168 7.12 10.42 10.67
4/23/2022 12:30:00 AM 9.58 49.244 0.169 7.12 10.97 10.66
4/23/2022 12:45:00 AM 9.58 49.244 0.169 7.12 10.82 10.64
4/23/2022 1:00:00 AM 9.58 49.244 0.168 7.11 10.34 10.62
4/23/2022 1:15:00 AM 9.58 49.244 0.169 7.11 10.72 10.6
4/23/2022 1:30:00 AM 9.59 49.262 0.169 7.11 10.86 10.59
4/23/2022 1:45:00 AM 9.6 49.28 0.169 7.1 10.68 10.58
4/23/2022 2:00:00 AM 9.6 49.28 0.169 7.11 10.87 10.57
4/23/2022 2:15:00 AM 9.6 49.28 0.169 7.1 10.97 10.56
4/23/2022 2:30:00 AM 9.6 49.28 0.169 7.1 10.89 10.55
4/23/2022 2:45:00 AM 9.6 49.28 0.17 7.1 11.08 10.54
4/23/2022 3:00:00 AM 9.6 49.28 0.169 7.1 10.35 10.53
4/23/2022 3:15:00 AM 9.59 49.262 0.17 7.1 10.44 10.52
4/23/2022 3:30:00 AM 9.59 49.262 0.17 7.1 10.47 10.51
4/23/2022 3:45:00 AM 9.59 49.262 0.17 7.1 10.49 10.51
4/23/2022 4:00:00 AM 9.58 49.244 0.17 7.1 10.58 10.5
4/23/2022 4:15:00 AM 9.58 49.244 0.17 7.1 10.65 10.49
4/23/2022 4:30:00 AM 9.57 49.226 0.17 7.1 10.37 10.49
4/23/2022 4:45:00 AM 9.56 49.208 0.17 7.1 10.37 10.49
4/23/2022 5:00:00 AM 9.55 49.19 0.17 7.09 10.62 10.49
4/23/2022 5:15:00 AM 9.53 49.154 0.17 7.09 10.88 10.48
4/23/2022 5:30:00 AM 9.52 49.136 0.17 7.1 10.77 10.48
4/23/2022 5:45:00 AM 9.51 49.118 0.17 7.1 10.41 10.48
4/23/2022 6:00:00 AM 9.5 49.1 0.17 7.1 10.72 10.47
4/23/2022 6:15:00 AM 9.49 49.082 0.17 7.1 10.77 10.47
4/23/2022 6:30:00 AM 9.47 49.046 0.171 7.1 10.45 10.47
4/23/2022 6:45:00 AM 9.46 49.028 0.171 7.1 10.59 10.47
4/23/2022 7:00:00 AM 9.45 49.01 0.171 7.1 10.41 10.48
4/23/2022 7:15:00 AM 9.43 48.974 0.171 7.09 10.32 10.49
4/23/2022 7:30:00 AM 9.42 48.956 0.171 7.1 9.93 10.49
4/23/2022 7:45:00 AM 9.41 48.938 0.171 7.1 9.86 10.51
4/23/2022 8:00:00 AM 9.39 48.902 0.171 7.1 10.04 10.52
4/23/2022 8:15:00 AM 9.39 48.902 0.171 7.11 10.07 10.56
4/23/2022 8:30:00 AM 9.38 48.884 0.171 7.12 10.06 10.59
4/23/2022 8:45:00 AM 9.38 48.884 0.171 7.12 10.04 10.63
4/23/2022 9:00:00 AM 9.37 48.866 0.171 7.13 10 10.66
4/23/2022 9:15:00 AM 9.36 48.848 0.172 7.14 9.47 10.69
4/23/2022 9:30:00 AM 9.35 48.83 0.172 7.14 9.43 10.71
4/23/2022 9:45:00 AM 9.33 48.794 0.172 7.15 9.45 10.71
4/23/2022 10:00:00 AM 9.32 48.776 0.172 7.15 9.15 10.74
4/23/2022 10:15:00 AM 9.34 48.812 0.172 7.16 9.29 10.81
4/23/2022 10:30:00 AM 9.36 48.848 0.172 7.16 9.26 10.86
4/23/2022 10:45:00 AM 9.36 48.848 0.172 7.16 9.39 10.88
4/23/2022 11:00:00 AM 9.37 48.866 0.172 7.17 9.53 10.93
4/23/2022 11:15:00 AM 9.39 48.902 0.172 7.18 9.22 10.96
4/23/2022 11:30:00 AM 9.37 48.866 0.172 7.18 8.99 10.96
4/23/2022 11:45:00 AM 9.34 48.812 0.172 7.18 8.87 10.93
4/23/2022 12:00:00 PM 9.34 48.812 0.172 7.18 8.8 10.95
4/23/2022 12:15:00 PM 9.4 48.92 0.172 7.19 9.17 11.02
4/23/2022 12:30:00 PM 9.47 49.046 0.172 7.2 8.59 11.08
4/23/2022 12:45:00 PM 9.62 49.316 0.172 7.22 8.7 11.15
4/23/2022 1:00:00 PM 9.84 49.712 0.172 7.23 8.91 11.19
4/23/2022 1:15:00 PM 10 50 0.172 7.24 9.29 11.22
4/23/2022 1:30:00 PM 10.15 50.27 0.172 7.25 9.25 11.24
4/23/2022 1:45:00 PM 10.31 50.558 0.172 7.26 9.03 11.25
4/23/2022 2:00:00 PM 10.46 50.828 0.172 7.26 8.65 11.25
4/23/2022 2:15:00 PM 10.58 51.044 0.172 7.27 8.38 11.25
4/23/2022 2:30:00 PM 10.69 51.242 0.172 7.28 8.98 11.26
4/23/2022 2:45:00 PM 10.84 51.512 0.172 7.29 9.02 11.27
4/23/2022 3:00:00 PM 10.98 51.764 0.172 7.28 8.58 11.27
4/23/2022 3:15:00 PM 11.1 51.98 0.172 7.29 8.14 11.28
4/23/2022 3:30:00 PM 11.21 52.178 0.172 7.3 8.4 11.27
4/23/2022 3:45:00 PM 11.31 52.358 0.172 7.31 8.5 11.26
4/23/2022 4:00:00 PM 11.39 52.502 0.173 7.3 8.41 11.25
4/23/2022 4:15:00 PM 11.46 52.628 0.172 7.31 8.65 11.24
4/23/2022 4:30:00 PM 11.51 52.718 0.172 7.31 8.29 11.22
4/23/2022 4:45:00 PM 11.55 52.79 0.172 7.31 8.57 11.2
4/23/2022 5:00:00 PM 11.57 52.826 0.172 7.32 8.15 11.19
4/23/2022 5:15:00 PM 11.58 52.844 0.172 7.32 8.39 11.16
4/23/2022 5:30:00 PM 11.56 52.808 0.173 7.32 8.27 11.13
4/23/2022 5:45:00 PM 11.54 52.772 0.173 7.31 8.24 11.1
4/23/2022 6:00:00 PM 11.51 52.718 0.173 7.31 10.61 11.04
4/23/2022 6:15:00 PM 11.47 52.646 0.174 7.3 9.15 11
4/23/2022 6:30:00 PM 11.41 52.538 0.174 7.29 9.14 10.95
4/23/2022 6:45:00 PM 11.37 52.466 0.174 7.27 8.37 10.91
4/23/2022 7:00:00 PM 11.33 52.394 0.174 7.26 8.69 10.86
4/23/2022 7:15:00 PM 11.3 52.34 0.174 7.25 8.21 10.8
4/23/2022 7:30:00 PM 11.28 52.304 0.174 7.23 8.44 10.75
4/23/2022 7:45:00 PM 11.26 52.268 0.174 7.22 8.62 10.68
4/23/2022 8:00:00 PM 11.25 52.25 0.174 7.2 8.18 10.62
4/23/2022 8:15:00 PM 11.23 52.214 0.174 7.19 8.81 10.57
4/23/2022 8:30:00 PM 11.22 52.196 0.174 7.17 8.71 10.52
4/23/2022 8:45:00 PM 11.21 52.178 0.174 7.16 8.48 10.48
4/23/2022 9:00:00 PM 11.2 52.16 0.174 7.15 8.71 10.45
4/23/2022 9:15:00 PM 11.18 52.124 0.174 7.15 8.57 10.42
4/23/2022 9:30:00 PM 11.17 52.106 0.174 7.14 9.02 10.4
4/23/2022 9:45:00 PM 11.15 52.07 0.174 7.14 9.19 10.37
4/23/2022 10:00:00 PM 11.14 52.052 0.174 7.14 8.89 10.36
4/23/2022 10:15:00 PM 11.12 52.016 0.175 7.13 9.04 10.34
4/23/2022 10:30:00 PM 11.09 51.962 0.174 7.13 9.08 10.32
4/23/2022 10:45:00 PM 11.07 51.926 0.175 7.13 9.32 10.3
4/23/2022 11:00:00 PM 11.04 51.872 0.175 7.12 9.13 10.29
4/23/2022 11:15:00 PM 11.01 51.818 0.175 7.12 9.13 10.27
4/23/2022 11:30:00 PM 10.99 51.782 0.175 7.12 9.41 10.26
4/23/2022 11:45:00 PM 10.96 51.728 0.175 7.12 9.43 10.25
4/24/2022 12:00:00 AM 10.94 51.692 0.175 7.12 9.35 10.24
4/24/2022 12:15:00 AM 10.91 51.638 0.175 7.11 9.27 10.23
4/24/2022 12:30:00 AM 10.88 51.584 0.175 7.11 9.49 10.22
4/24/2022 12:45:00 AM 10.86 51.548 0.175 7.11 9.18 10.21
4/24/2022 1:00:00 AM 10.83 51.494 0.175 7.11 9.02 10.2
4/24/2022 1:15:00 AM 10.81 51.458 0.175 7.11 9.83 10.19
4/24/2022 1:30:00 AM 10.78 51.404 0.176 7.1 9.28 10.18
4/24/2022 1:45:00 AM 10.76 51.368 0.175 7.1 9.55 10.18
4/24/2022 2:00:00 AM 10.74 51.332 0.176 7.1 10.29 10.16
4/24/2022 2:15:00 AM 10.72 51.296 0.175 7.1 9.49 10.16
4/24/2022 2:30:00 AM 10.7 51.26 0.176 7.1 9.89 10.15
4/24/2022 2:45:00 AM 10.68 51.224 0.176 7.1 9.39 10.14
4/24/2022 3:00:00 AM 10.66 51.188 0.176 7.09 9.44 10.14
4/24/2022 3:15:00 AM 10.64 51.152 0.176 7.09 9.23 10.14
4/24/2022 3:30:00 AM 10.62 51.116 0.176 7.1 9.36 10.13
4/24/2022 3:45:00 AM 10.6 51.08 0.176 7.1 8.97 10.12
4/24/2022 4:00:00 AM 10.58 51.044 0.176 7.1 9.7 10.12
4/24/2022 4:15:00 AM 10.56 51.008 0.176 7.09 8.9 10.12
4/24/2022 4:30:00 AM 10.54 50.972 0.176 7.09 9.45 10.12
4/24/2022 4:45:00 AM 10.52 50.936 0.176 7.09 9.42 10.11
4/24/2022 5:00:00 AM 10.5 50.9 0.176 7.09 9.95 10.11
4/24/2022 5:15:00 AM 10.48 50.864 0.176 7.09 9.79 10.1
4/24/2022 5:30:00 AM 10.46 50.828 0.176 7.09 9.43 10.11
4/24/2022 5:45:00 AM 10.44 50.792 0.176 7.09 9.82 10.11
4/24/2022 6:00:00 AM 10.42 50.756 0.176 7.09 9.62 10.11
4/24/2022 6:15:00 AM 10.39 50.702 0.176 7.1 9.6 10.11
4/24/2022 6:30:00 AM 10.37 50.666 0.177 7.1 9.47 10.11
4/24/2022 6:45:00 AM 10.35 50.63 0.177 7.1 9.55 10.13
4/24/2022 7:00:00 AM 10.34 50.612 0.177 7.11 9.52 10.16
4/24/2022 7:15:00 AM 10.33 50.594 0.177 7.11 9.08 10.2
4/24/2022 7:30:00 AM 10.32 50.576 0.177 7.12 9.02 10.25
4/24/2022 7:45:00 AM 10.32 50.576 0.177 7.12 9.29 10.3
4/24/2022 8:00:00 AM 10.33 50.594 0.177 7.13 8.94 10.35
4/24/2022 8:15:00 AM 10.36 50.648 0.177 7.14 8.54 10.4
4/24/2022 8:30:00 AM 10.41 50.738 0.177 7.14 8.65 10.46
4/24/2022 8:45:00 AM 10.47 50.846 0.177 7.16 8.63 10.51
4/24/2022 9:00:00 AM 10.54 50.972 0.177 7.17 8.84 10.56
4/24/2022 9:15:00 AM 10.63 51.134 0.177 7.17 8.67 10.59
4/24/2022 9:30:00 AM 10.75 51.35 0.177 7.18 8.72 10.63
4/24/2022 9:45:00 AM 10.87 51.566 0.177 7.19 8.32 10.67
4/24/2022 10:00:00 AM 11.01 51.818 0.177 7.19 8.22 10.7
4/24/2022 10:15:00 AM 11.14 52.052 0.177 7.2 8.5 10.72
4/24/2022 10:30:00 AM 11.27 52.286 0.177 7.21 8.36 10.74
4/24/2022 10:45:00 AM 11.41 52.538 0.177 7.21 8.3 10.76
4/24/2022 11:00:00 AM 11.58 52.844 0.177 7.23 8.1 10.79
4/24/2022 11:15:00 AM 11.72 53.096 0.177 7.24 8.25 10.8
4/24/2022 11:30:00 AM 11.86 53.348 0.177 7.25 8.26 10.82
4/24/2022 11:45:00 AM 12.03 53.654 0.177 7.26 7.88 10.84
4/24/2022 12:00:00 PM 12.2 53.96 0.177 7.27 7.96 10.87
4/24/2022 12:15:00 PM 12.39 54.302 0.177 7.29 9.02 10.88
4/24/2022 12:30:00 PM 12.54 54.572 0.177 7.32 8.73 10.9
4/24/2022 12:45:00 PM 12.62 54.716 0.177 7.33 8.2 10.89
4/24/2022 1:00:00 PM 12.84 55.112 0.177 7.34 7.88 10.92
4/24/2022 1:15:00 PM 13.04 55.472 0.177 7.37 7.76 10.92
4/24/2022 1:30:00 PM 13.2 55.76 0.177 7.39 8.02 10.93
4/24/2022 1:45:00 PM 13.35 56.03 0.177 7.4 8.95 10.93
4/24/2022 2:00:00 PM 13.52 56.336 0.178 7.42 7.85 10.93
4/24/2022 2:15:00 PM 13.67 56.606 0.177 7.44 7.98 10.92
4/24/2022 2:30:00 PM 13.81 56.858 0.177 7.44 7.91 10.91
4/24/2022 2:45:00 PM 13.94 57.092 0.177 7.43 7.84 10.91
4/24/2022 3:00:00 PM 14.05 57.29 0.178 7.43 8.23 10.89
4/24/2022 3:15:00 PM 14.15 57.47 0.178 7.44 8.52 10.88
4/24/2022 3:30:00 PM 14.25 57.65 0.178 7.44 8.4 10.87
4/24/2022 3:45:00 PM 14.31 57.758 0.177 7.45 9.13 10.85
4/24/2022 4:00:00 PM 14.4 57.92 0.178 7.46 8.15 10.83
4/24/2022 4:15:00 PM 14.47 58.046 0.178 7.46 7.9 10.81
4/24/2022 4:30:00 PM 14.53 58.154 0.178 7.46 8.41 10.78
4/24/2022 4:45:00 PM 14.56 58.208 0.178 7.47 8.12 10.74
4/24/2022 5:00:00 PM 14.55 58.19 0.178 7.46 7.95 10.71
4/24/2022 5:15:00 PM 14.53 58.154 0.178 7.44 7.88 10.66
4/24/2022 5:30:00 PM 14.5 58.1 0.178 7.43 7.7 10.6
4/24/2022 5:45:00 PM 14.46 58.028 0.178 7.42 7.82 10.55
4/24/2022 6:00:00 PM 14.43 57.974 0.178 7.44 7.83 10.5
4/24/2022 6:15:00 PM 14.39 57.902 0.179 7.39 7.95 10.43
4/24/2022 6:30:00 PM 14.35 57.83 0.179 7.36 7.89 10.36
4/24/2022 6:45:00 PM 14.31 57.758 0.179 7.36 8.19 10.29
4/24/2022 7:00:00 PM 14.26 57.668 0.179 7.33 8 10.21
4/24/2022 7:15:00 PM 14.21 57.578 0.179 7.31 8.19 10.14
4/24/2022 7:30:00 PM 14.16 57.488 0.179 7.28 7.88 10.07
4/24/2022 7:45:00 PM 14.11 57.398 0.179 7.26 7.95 9.99
4/24/2022 8:00:00 PM 14.08 57.344 0.18 7.24 8.01 9.92
4/24/2022 8:15:00 PM 14.06 57.308 0.18 7.23 9.64 9.86
4/24/2022 8:30:00 PM 14.04 57.272 0.18 7.21 8.22 9.8
4/24/2022 8:45:00 PM 14.02 57.236 0.18 7.2 8.42 9.76
4/24/2022 9:00:00 PM 14 57.2 0.181 7.19 8.61 9.72
4/24/2022 9:15:00 PM 13.97 57.146 0.18 7.19 8.79 9.7
4/24/2022 9:30:00 PM 13.94 57.092 0.181 7.18 8.94 9.67
4/24/2022 9:45:00 PM 13.92 57.056 0.181 7.17 9.21 9.65
4/24/2022 10:00:00 PM 13.9 57.02 0.18 7.16 8.98 9.62
4/24/2022 10:15:00 PM 13.87 56.966 0.181 7.15 9.12 9.6
4/24/2022 10:30:00 PM 13.85 56.93 0.181 7.15 8.9 9.58
4/24/2022 10:45:00 PM 13.82 56.876 0.181 7.14 8.9 9.56
4/24/2022 11:00:00 PM 13.79 56.822 0.181 7.14 8.98 9.54
4/24/2022 11:15:00 PM 13.75 56.75 0.181 7.13 8.8 9.53
4/24/2022 11:30:00 PM 13.71 56.678 0.181 7.14 9.11 9.52
4/24/2022 11:45:00 PM 13.66 56.588 0.181 7.13 8.91 9.5
4/25/2022 12:00:00 AM 13.62 56.516 0.182 7.13 9.23 9.49
4/25/2022 12:15:00 AM 13.59 56.462 0.182 7.13 8.93 9.48
4/25/2022 12:30:00 AM 13.55 56.39 0.182 7.13 9.1 9.47
4/25/2022 12:45:00 AM 13.52 56.336 0.182 7.13 9.04 9.46
4/25/2022 1:00:00 AM 13.48 56.264 0.182 7.13 8.92 9.45
4/25/2022 1:15:00 AM 13.45 56.21 0.182 7.13 9.18 9.45
4/25/2022 1:30:00 AM 13.42 56.156 0.182 7.13 9.39 9.44
4/25/2022 1:45:00 AM 13.39 56.102 0.182 7.13 9.37 9.43
4/25/2022 2:00:00 AM 13.36 56.048 0.182 7.13 9.07 9.43
4/25/2022 2:15:00 AM 13.34 56.012 0.182 7.12 9.41 9.42
4/25/2022 2:30:00 AM 13.31 55.958 0.183 7.12 9.12 9.42
4/25/2022 2:45:00 AM 13.28 55.904 0.182 7.12 9.05 9.41
4/25/2022 3:00:00 AM 13.25 55.85 0.183 7.12 9.07 9.41
4/25/2022 3:15:00 AM 13.22 55.796 0.183 7.12 9.25 9.4
4/25/2022 3:30:00 AM 13.2 55.76 0.183 7.12 9.43 9.4
4/25/2022 3:45:00 AM 13.18 55.724 0.183 7.12 8.99 9.4
4/25/2022 4:00:00 AM 13.15 55.67 0.183 7.12 9.2 9.39
4/25/2022 4:15:00 AM 13.13 55.634 0.183 7.12 9.3 9.39
4/25/2022 4:30:00 AM 13.11 55.598 0.183 7.12 9 9.38
4/25/2022 4:45:00 AM 13.09 55.562 0.183 7.12 9.01 9.38
4/25/2022 5:00:00 AM 13.07 55.526 0.183 7.12 9.04 9.38
4/25/2022 5:15:00 AM 13.05 55.49 0.183 7.11 9.03 9.38
4/25/2022 5:30:00 AM 13.03 55.454 0.183 7.11 8.98 9.37
4/25/2022 5:45:00 AM 13.01 55.418 0.183 7.12 9.17 9.37
4/25/2022 6:00:00 AM 12.99 55.382 0.183 7.12 9.41 9.37
4/25/2022 6:15:00 AM 12.97 55.346 0.183 7.12 9.21 9.37
4/25/2022 6:30:00 AM 12.94 55.292 0.184 7.12 9.07 9.38
4/25/2022 6:45:00 AM 12.92 55.256 0.184 7.12 9.12 9.39
4/25/2022 7:00:00 AM 12.9 55.22 0.183 7.12 8.58 9.41
4/25/2022 7:15:00 AM 12.88 55.184 0.184 7.13 8.78 9.45
4/25/2022 7:30:00 AM 12.87 55.166 0.184 7.14 9.16 9.51
4/25/2022 7:45:00 AM 12.87 55.166 0.184 7.15 8.86 9.58
4/25/2022 8:00:00 AM 12.88 55.184 0.184 7.16 8.6 9.66
4/25/2022 8:15:00 AM 12.92 55.256 0.184 7.17 8.25 9.75
4/25/2022 8:30:00 AM 12.96 55.328 0.184 7.18 8.42 9.83
4/25/2022 8:45:00 AM 13.02 55.436 0.183 7.19 8.38 9.89
4/25/2022 9:00:00 AM 13.1 55.58 0.184 7.21 8.45 9.96
4/25/2022 9:15:00 AM 13.19 55.742 0.184 7.22 8.62 10.02
4/25/2022 9:30:00 AM 13.29 55.922 0.184 7.22 8.07 10.07
4/25/2022 9:45:00 AM 13.4 56.12 0.184 7.23 8.41 10.11
4/25/2022 10:00:00 AM 13.52 56.336 0.184 7.24 8.13 10.15
4/25/2022 10:15:00 AM 13.65 56.57 0.184 7.25 7.86 10.19
4/25/2022 10:30:00 AM 13.79 56.822 0.184 7.26 8.01 10.22
4/25/2022 10:45:00 AM 13.94 57.092 0.184 7.27 7.9 10.25
4/25/2022 11:00:00 AM 14.1 57.38 0.184 7.28 7.9 10.27
4/25/2022 11:15:00 AM 14.32 57.776 0.184 7.29 8.05 10.32
4/25/2022 11:30:00 AM 14.44 57.992 0.184 7.3 7.84 10.34
4/25/2022 11:45:00 AM 14.47 58.046 0.184 7.32 7.99 10.32
4/25/2022 12:00:00 PM 14.5 58.1 0.184 7.32 9.21 10.29
4/25/2022 12:15:00 PM 14.71 58.478 0.184 7.33 8.08 10.37
4/25/2022 12:30:00 PM 14.91 58.838 0.184 7.34 8.28 10.38
4/25/2022 12:45:00 PM 15.03 59.054 0.184 7.35 8.08 10.37
4/25/2022 1:00:00 PM 15.12 59.216 0.184 7.37 7.85 10.39
4/25/2022 1:15:00 PM 15.15 59.27 0.184 7.38 8.02 10.37
4/25/2022 1:30:00 PM 15.25 59.45 0.184 7.39 7.72 10.39
4/25/2022 1:45:00 PM 15.37 59.666 0.184 7.4 7.88 10.41
4/25/2022 2:00:00 PM 15.42 59.756 0.184 7.41 7.85 10.4
4/25/2022 2:15:00 PM 15.43 59.774 0.184 7.42 8.26 10.38
4/25/2022 2:30:00 PM 15.57 60.026 0.184 7.43 7.86 10.41
4/25/2022 2:45:00 PM 15.61 60.098 0.184 7.44 7.74 10.4
4/25/2022 3:00:00 PM 15.63 60.134 0.184 7.45 7.8 10.39
4/25/2022 3:15:00 PM 15.63 60.134 0.184 7.45 7.97 10.35
4/25/2022 3:30:00 PM 15.63 60.134 0.185 7.46 7.63 10.36
4/25/2022 3:45:00 PM 15.53 59.954 0.185 7.45 8.64 10.31
4/25/2022 4:00:00 PM 15.44 59.792 0.184 7.43 7.89 10.24
4/25/2022 4:15:00 PM 15.38 59.684 0.185 7.43 7.56 10.2
4/25/2022 4:30:00 PM 15.34 59.612 0.185 7.42 8.51 10.19
4/25/2022 4:45:00 PM 15.3 59.54 0.185 7.41 7.64 10.12
4/25/2022 5:00:00 PM 15.25 59.45 0.185 7.4 7.53 10.1
4/25/2022 5:15:00 PM 15.28 59.504 0.185 7.4 7.89 10.16
4/25/2022 5:30:00 PM 15.28 59.504 0.185 7.39 7.72 10.12
4/25/2022 5:45:00 PM 15.28 59.504 0.185 7.39 8.06 10.13
4/25/2022 6:00:00 PM 15.28 59.504 0.185 7.39 7.94 10.13
4/25/2022 6:15:00 PM 15.23 59.414 0.186 7.38 8.01 10.08
4/25/2022 6:30:00 PM 15.17 59.306 0.186 7.36 7.71 10.02
4/25/2022 6:45:00 PM 15.09 59.162 0.186 7.35 7.83 9.94
4/25/2022 7:00:00 PM 15.03 59.054 0.186 7.34 7.59 9.9
4/25/2022 7:15:00 PM 14.98 58.964 0.186 7.33 8.09 9.82
4/25/2022 7:30:00 PM 14.93 58.874 0.186 7.31 7.79 9.76
4/25/2022 7:45:00 PM 14.88 58.784 0.186 7.3 8.42 9.68
4/25/2022 8:00:00 PM 14.82 58.676 0.186 7.28 8.08 9.6
4/25/2022 8:15:00 PM 14.77 58.586 0.186 7.26 8.25 9.54
4/25/2022 8:30:00 PM 14.73 58.514 0.187 7.25 8.39 9.48
4/25/2022 8:45:00 PM 14.68 58.424 0.187 7.23 8.36 9.45
4/25/2022 9:00:00 PM 14.64 58.352 0.187 7.23 8.3 9.42
4/25/2022 9:15:00 PM 14.61 58.298 0.187 7.22 8.61 9.4
4/25/2022 9:30:00 PM 14.57 58.226 0.187 7.21 8.5 9.37
4/25/2022 9:45:00 PM 14.54 58.172 0.188 7.21 8.15 9.36
4/25/2022 10:00:00 PM 14.51 58.118 0.188 7.2 8.19 9.35
4/25/2022 10:15:00 PM 14.49 58.082 0.188 7.2 8.99 9.32
4/25/2022 10:30:00 PM 14.47 58.046 0.188 7.19 8.58 9.31
4/25/2022 10:45:00 PM 14.45 58.01 0.188 7.18 8.83 9.29
4/25/2022 11:00:00 PM 14.43 57.974 0.188 7.18 9.01 9.27
4/25/2022 11:15:00 PM 14.4 57.92 0.188 7.18 9.08 9.27
4/25/2022 11:30:00 PM 14.37 57.866 0.188 7.17 8.85 9.26
4/25/2022 11:45:00 PM 14.34 57.812 0.188 7.17 8.4 9.24
4/26/2022 12:00:00 AM 14.31 57.758 0.188 7.17 8.93 9.24
4/26/2022 12:15:00 AM 14.29 57.722 0.189 7.17 8.75 9.23
4/26/2022 12:30:00 AM 14.28 57.704 0.189 7.17 8.97 9.21
4/26/2022 12:45:00 AM 14.27 57.686 0.189 7.16 9.21 9.21
4/26/2022 1:00:00 AM 14.26 57.668 0.189 7.16 8.83 9.19
4/26/2022 1:15:00 AM 14.25 57.65 0.189 7.16 9.02 9.19
4/26/2022 1:30:00 AM 14.23 57.614 0.189 7.16 8.99 9.18
4/26/2022 1:45:00 AM 14.21 57.578 0.189 7.16 8.58 9.17
4/26/2022 2:00:00 AM 14.19 57.542 0.189 7.15 8.81 9.17
4/26/2022 2:15:00 AM 14.23 57.614 0.192 7.21 52.87 9.18
4/26/2022 2:30:00 AM 14.13 57.434 0.193 7.26 29.04 9.18
4/26/2022 2:45:00 AM 14.1 57.38 0.197 7.27 29.19 9.14
4/26/2022 3:00:00 AM 14.13 57.434 0.191 7.28 22.74 9.12
4/26/2022 3:15:00 AM 14.1 57.38 0.189 7.25 19.69 9.12
4/26/2022 3:30:00 AM 14.07 57.326 0.189 7.23 15.85 9.12
4/26/2022 3:45:00 AM 14.01 57.218 0.191 7.21 14.08 9.13
4/26/2022 4:00:00 AM 13.96 57.128 0.192 7.19 12.23 9.13
4/26/2022 4:15:00 AM 13.93 57.074 0.191 7.18 11.61 9.13
4/26/2022 4:30:00 AM 13.88 56.984 0.191 7.18 11.9 9.13
4/26/2022 4:45:00 AM 13.84 56.912 0.191 7.18 11.34 9.14
4/26/2022 5:00:00 AM 13.79 56.822 0.192 7.18 10.17 9.15
4/26/2022 5:15:00 AM 13.75 56.75 0.192 7.18 10.04 9.16
4/26/2022 5:30:00 AM 13.72 56.696 0.192 7.17 9.8 9.17
4/26/2022 5:45:00 AM 13.68 56.624 0.192 7.17 10.41 9.17
4/26/2022 6:00:00 AM 13.63 56.534 0.192 7.17 10.14 9.18
4/26/2022 6:15:00 AM 13.59 56.462 0.192 7.17 10.52 9.19
4/26/2022 6:30:00 AM 13.54 56.372 0.194 7.18 9.77 9.2
4/26/2022 6:45:00 AM 13.48 56.264 0.195 7.18 9.92 9.23
4/26/2022 7:00:00 AM 13.45 56.21 0.195 7.18 9.64 9.24
4/26/2022 7:15:00 AM 13.43 56.174 0.193 7.18 10.29 9.27
4/26/2022 7:30:00 AM 13.41 56.138 0.193 7.19 9.63 9.29
4/26/2022 7:45:00 AM 13.39 56.102 0.193 7.19 9.17 9.31
4/26/2022 8:00:00 AM 13.36 56.048 0.194 7.19 9.64 9.33
4/26/2022 8:15:00 AM 13.34 56.012 0.194 7.2 10.83 9.36
4/26/2022 8:30:00 AM 13.32 55.976 0.194 7.21 9.54 9.41
4/26/2022 8:45:00 AM 13.32 55.976 0.194 7.22 9.45 9.49
4/26/2022 9:00:00 AM 13.31 55.958 0.193 7.22 9.06 9.53
4/26/2022 9:15:00 AM 13.3 55.94 0.193 7.23 8.75 9.6
4/26/2022 9:30:00 AM 13.28 55.904 0.193 7.24 8.54 9.62
4/26/2022 9:45:00 AM 13.27 55.886 0.193 7.24 8.26 9.68
4/26/2022 10:00:00 AM 13.27 55.886 0.193 7.25 8.3 9.74
4/26/2022 10:15:00 AM 13.28 55.904 0.192 7.26 8.04 9.81
4/26/2022 10:30:00 AM 13.29 55.922 0.192 7.27 8.07 9.86
4/26/2022 10:45:00 AM 13.29 55.922 0.192 7.27 8.16 9.88
4/26/2022 11:00:00 AM 13.26 55.868 0.192 7.27 8.29 9.88
4/26/2022 11:15:00 AM 13.26 55.868 0.192 7.28 8.12 9.92
4/26/2022 11:30:00 AM 13.26 55.868 0.192 7.29 7.95 9.97
4/26/2022 11:45:00 AM 13.23 55.814 0.192 7.29 7.93 9.93
4/26/2022 12:00:00 PM 13.2 55.76 0.192 7.29 7.93 9.92
4/26/2022 12:15:00 PM 13.16 55.688 0.192 7.28 7.98 9.88
4/26/2022 12:30:00 PM 13.12 55.616 0.192 7.28 7.6 9.85
4/26/2022 12:45:00 PM 13.08 55.544 0.192 7.28 7.93 9.87
4/26/2022 1:00:00 PM 13.07 55.526 0.192 7.28 9.18 9.9
4/26/2022 1:15:00 PM 13.06 55.508 0.192 7.29 8.19 9.98
4/26/2022 1:30:00 PM 13.04 55.472 0.191 7.29 7.69 9.95
4/26/2022 1:45:00 PM 13.02 55.436 0.191 7.3 7.76 9.99
4/26/2022 2:00:00 PM 12.97 55.346 0.191 7.29 7.83 9.95
4/26/2022 2:15:00 PM 12.93 55.274 0.19 7.29 7.9 9.96
4/26/2022 2:30:00 PM 12.93 55.274 0.189 7.3 8.31 10.02
4/26/2022 2:45:00 PM 12.94 55.292 0.189 7.32 7.73 10.12
4/26/2022 3:00:00 PM 12.92 55.256 0.189 7.32 8.03 10.14
4/26/2022 3:15:00 PM 12.9 55.22 0.189 7.33 7.81 10.16
4/26/2022 3:30:00 PM 12.87 55.166 0.189 7.34 7.88 10.16
4/26/2022 3:45:00 PM 12.84 55.112 0.188 7.34 7.97 10.15
4/26/2022 4:00:00 PM 12.81 55.058 0.188 7.34 7.92 10.12
4/26/2022 4:15:00 PM 12.78 55.004 0.188 7.33 7.91 10.12
4/26/2022 4:30:00 PM 12.76 54.968 0.188 7.34 7.94 10.16
4/26/2022 4:45:00 PM 12.74 54.932 0.188 7.34 7.93 10.17
4/26/2022 5:00:00 PM 12.73 54.914 0.188 7.35 7.79 10.22
4/26/2022 5:15:00 PM 12.72 54.896 0.188 7.35 7.87 10.26
4/26/2022 5:30:00 PM 12.71 54.878 0.188 7.36 7.82 10.28
4/26/2022 5:45:00 PM 12.69 54.842 0.188 7.37 8.03 10.3
4/26/2022 6:00:00 PM 12.63 54.734 0.188 7.37 7.71 10.25
4/26/2022 6:15:00 PM 12.58 54.644 0.189 7.36 7.6 10.21
4/26/2022 6:30:00 PM 12.53 54.554 0.188 7.35 7.83 10.16
4/26/2022 6:45:00 PM 12.49 54.482 0.188 7.35 7.52 10.17
4/26/2022 7:00:00 PM 12.43 54.374 0.189 7.35 7.68 10.16
4/26/2022 7:15:00 PM 12.38 54.284 0.189 7.34 7.67 10.12
4/26/2022 7:30:00 PM 12.32 54.176 0.189 7.34 7.64 10.09
4/26/2022 7:45:00 PM 12.26 54.068 0.189 7.33 7.87 10.03
4/26/2022 8:00:00 PM 12.22 53.996 0.189 7.32 8.2 9.97
4/26/2022 8:15:00 PM 12.15 53.87 0.19 7.3 8.21 9.93
4/26/2022 8:30:00 PM 12.07 53.726 0.19 7.29 8.16 9.9
4/26/2022 8:45:00 PM 12.01 53.618 0.19 7.3 8.21 9.88
4/26/2022 9:00:00 PM 11.95 53.51 0.19 7.3 8.09 9.87
4/26/2022 9:15:00 PM 11.9 53.42 0.191 7.29 8.43 9.86
4/26/2022 9:30:00 PM 11.84 53.312 0.191 7.29 8.04 9.86
4/26/2022 9:45:00 PM 11.77 53.186 0.191 7.29 8.08 9.86
4/26/2022 10:00:00 PM 11.72 53.096 0.191 7.29 8.65 9.86
4/26/2022 10:15:00 PM 11.66 52.988 0.191 7.29 8.4 9.86
4/26/2022 10:30:00 PM 11.58 52.844 0.191 7.29 8.5 9.86
4/26/2022 10:45:00 PM 11.53 52.754 0.191 7.28 8.57 9.86
4/26/2022 11:00:00 PM 11.48 52.664 0.192 7.28 8.27 9.86
4/26/2022 11:15:00 PM 11.43 52.574 0.192 7.28 8.67 9.86
4/26/2022 11:30:00 PM 11.38 52.484 0.192 7.28 8.87 9.86
4/26/2022 11:45:00 PM 11.32 52.376 0.192 7.28 8.83 9.87
4/27/2022 12:00:00 AM 11.25 52.25 0.192 7.29 8.45 9.87
4/27/2022 12:15:00 AM 11.18 52.124 0.192 7.29 8.71 9.88
4/27/2022 12:30:00 AM 11.11 51.998 0.192 7.29 8.78 9.89
4/27/2022 12:45:00 AM 11.05 51.89 0.193 7.29 8.72 9.89
4/27/2022 1:00:00 AM 10.99 51.782 0.192 7.29 8.88 9.9
4/27/2022 1:15:00 AM 10.9 51.62 0.193 7.3 8.58 9.91
4/27/2022 1:30:00 AM 10.83 51.494 0.193 7.3 9.34 9.92
4/27/2022 1:45:00 AM 10.76 51.368 0.193 7.3 9 9.93
4/27/2022 2:00:00 AM 10.68 51.224 0.193 7.3 9.18 9.95
4/27/2022 2:15:00 AM 10.6 51.08 0.193 7.3 8.88 9.96
4/27/2022 2:30:00 AM 10.52 50.936 0.193 7.31 8.89 9.97
4/27/2022 2:45:00 AM 10.45 50.81 0.193 7.31 8.86 9.98
4/27/2022 3:00:00 AM 10.38 50.684 0.193 7.31 8.96 9.99
4/27/2022 3:15:00 AM 10.31 50.558 0.194 7.31 9.28 10.01
4/27/2022 3:30:00 AM 10.22 50.396 0.194 7.31 8.87 10.02
4/27/2022 3:45:00 AM 10.14 50.252 0.194 7.32 9.16 10.04
4/27/2022 4:00:00 AM 10.06 50.108 0.194 7.32 9.5 10.05
4/27/2022 4:15:00 AM 9.98 49.964 0.194 7.32 8.79 10.06
4/27/2022 4:30:00 AM 9.91 49.838 0.194 7.32 9.09 10.08
4/27/2022 4:45:00 AM 9.83 49.694 0.194 7.32 8.92 10.09
4/27/2022 5:00:00 AM 9.75 49.55 0.194 7.32 8.97 10.11
4/27/2022 5:15:00 AM 9.7 49.46 0.194 7.32 8.69 10.12
4/27/2022 5:30:00 AM 9.64 49.352 0.194 7.32 9.1 10.13
4/27/2022 5:45:00 AM 9.6 49.28 0.194 7.32 9.18 10.15
4/27/2022 6:00:00 AM 9.54 49.172 0.195 7.32 8.93 10.15
4/27/2022 6:15:00 AM 9.48 49.064 0.195 7.32 8.95 10.17
4/27/2022 6:30:00 AM 9.42 48.956 0.195 7.32 9.56 10.19
4/27/2022 6:45:00 AM 9.37 48.866 0.195 7.32 8.69 10.22
4/27/2022 7:00:00 AM 9.32 48.776 0.195 7.33 8.9 10.27
4/27/2022 7:15:00 AM 9.26 48.668 0.195 7.34 8.97 10.35
4/27/2022 7:30:00 AM 9.23 48.614 0.195 7.35 8.52 10.46
4/27/2022 7:45:00 AM 9.19 48.542 0.195 7.36 8.32 10.55
4/27/2022 8:00:00 AM 9.16 48.488 0.195 7.37 8.51 10.6
4/27/2022 8:15:00 AM 9.14 48.452 0.195 7.38 8 10.67
4/27/2022 8:30:00 AM 9.12 48.416 0.195 7.38 8.01 10.73
4/27/2022 8:45:00 AM 9.16 48.488 0.195 7.4 7.92 10.83
4/27/2022 9:00:00 AM 9.2 48.56 0.195 7.41 7.97 10.91
4/27/2022 9:15:00 AM 9.19 48.542 0.195 7.42 7.97 10.97
4/27/2022 9:30:00 AM 9.15 48.47 0.195 7.42 7.68 10.97
4/27/2022 9:45:00 AM 9.1 48.38 0.195 7.43 8.06 10.99
4/27/2022 10:00:00 AM 9.04 48.272 0.195 7.43 7.66 10.97
4/27/2022 10:15:00 AM 8.98 48.164 0.196 7.43 7.51 10.97
4/27/2022 10:30:00 AM 8.98 48.164 0.196 7.44 7.69 11.06
4/27/2022 10:45:00 AM 8.99 48.182 0.196 7.45 7.51 11.14
4/27/2022 11:00:00 AM 9.01 48.218 0.195 7.46 7.72 11.18
4/27/2022 11:15:00 AM 9 48.2 0.195 7.47 7.65 11.23
4/27/2022 11:30:00 AM 9.02 48.236 0.195 7.47 7.36 11.27
4/27/2022 11:45:00 AM 9.02 48.236 0.195 7.48 7.47 11.3
4/27/2022 12:00:00 PM 8.99 48.182 0.195 7.49 7.66 11.31
4/27/2022 12:15:00 PM 8.99 48.182 0.195 7.5 7.71 11.35
4/27/2022 12:30:00 PM 8.97 48.146 0.195 7.5 7.54 11.37
4/27/2022 12:45:00 PM 8.94 48.092 0.195 7.51 7.79 11.39
4/27/2022 1:00:00 PM 8.91 48.038 0.195 7.51 7.88 11.42
4/27/2022 1:15:00 PM 8.88 47.984 0.195 7.52 8.01 11.43
4/27/2022 1:30:00 PM 8.94 48.092 0.196 7.53 7.5 11.5
4/27/2022 1:45:00 PM 8.92 48.056 0.196 7.53 8.12 11.48
4/27/2022 2:00:00 PM 8.89 48.002 0.196 7.53 7.21 11.47
4/27/2022 2:15:00 PM 8.85 47.93 0.196 7.53 7.07 11.49
4/27/2022 2:30:00 PM 8.81 47.858 0.196 7.54 7.07 11.49
4/27/2022 2:45:00 PM 8.76 47.768 0.196 7.54 7.13 11.5
4/27/2022 3:00:00 PM 8.71 47.678 0.196 7.54 7.35 11.51
4/27/2022 3:15:00 PM 8.66 47.588 0.196 7.53 6.88 11.49
4/27/2022 3:30:00 PM 8.67 47.606 0.196 7.54 6.9 11.56
4/27/2022 3:45:00 PM 8.62 47.516 0.196 7.54 7.2 11.52
4/27/2022 4:00:00 PM 8.57 47.426 0.196 7.53 6.98 11.51
4/27/2022 4:15:00 PM 8.54 47.372 0.196 7.54 6.97 11.54
4/27/2022 4:30:00 PM 8.49 47.282 0.197 7.53 6.95 11.48
4/27/2022 4:45:00 PM 8.43 47.174 0.197 7.52 6.79 11.46
4/27/2022 5:00:00 PM 8.35 47.03 0.196 7.51 6.87 11.42
4/27/2022 5:15:00 PM 8.32 46.976 0.197 7.51 6.91 11.43
4/27/2022 5:30:00 PM 8.26 46.868 0.197 7.5 7.01 11.42
4/27/2022 5:45:00 PM 8.22 46.796 0.197 7.49 6.9 11.43
4/27/2022 6:00:00 PM 8.18 46.724 0.197 7.5 6.98 11.46
4/27/2022 6:15:00 PM 8.14 46.652 0.197 7.49 6.72 11.45
4/27/2022 6:30:00 PM 8.09 46.562 0.197 7.48 6.73 11.44
4/27/2022 6:45:00 PM 8.02 46.436 0.197 7.48 6.78 11.39
4/27/2022 7:00:00 PM 7.95 46.31 0.197 7.47 6.76 11.36
4/27/2022 7:15:00 PM 7.89 46.202 0.198 7.46 6.95 11.32
4/27/2022 7:30:00 PM 7.83 46.094 0.198 7.45 6.87 11.27
4/27/2022 7:45:00 PM 7.77 45.986 0.198 7.44 6.9 11.23
4/27/2022 8:00:00 PM 7.71 45.878 0.198 7.43 6.83 11.19
4/27/2022 8:15:00 PM 7.66 45.788 0.199 7.43 6.85 11.15
4/27/2022 8:30:00 PM 7.61 45.698 0.199 7.42 6.74 11.12
4/27/2022 8:45:00 PM 7.55 45.59 0.199 7.41 6.91 11.1
4/27/2022 9:00:00 PM 7.5 45.5 0.199 7.41 7.41 11.08
4/27/2022 9:15:00 PM 7.45 45.41 0.199 7.4 6.99 11.08
4/27/2022 9:30:00 PM 7.38 45.284 0.199 7.4 7.01 11.08
4/27/2022 9:45:00 PM 7.32 45.176 0.2 7.4 7.01 11.07
4/27/2022 10:00:00 PM 7.26 45.068 0.2 7.4 7.36 11.08
4/27/2022 10:15:00 PM 7.22 44.996 0.2 7.4 7.07 11.08
4/27/2022 10:30:00 PM 7.16 44.888 0.2 7.4 7.41 11.08
4/27/2022 10:45:00 PM 7.09 44.762 0.2 7.4 7.39 11.09
4/27/2022 11:00:00 PM 7.05 44.69 0.2 7.4 7.36 11.09
4/27/2022 11:15:00 PM 7.02 44.636 0.2 7.4 7.3 11.1
4/27/2022 11:30:00 PM 6.97 44.546 0.2 7.39 7.3 11.1
4/27/2022 11:45:00 PM 6.93 44.474 0.2 7.39 7.08 11.1
4/28/2022 12:00:00 AM 6.88 44.384 0.201 7.39 7 11.1
4/28/2022 12:15:00 AM 6.83 44.294 0.201 7.39 7.09 11.11
4/28/2022 12:30:00 AM 6.77 44.186 0.201 7.39 7.47 11.12
4/28/2022 12:45:00 AM 6.73 44.114 0.201 7.39 7.03 11.13
4/28/2022 1:00:00 AM 6.68 44.024 0.201 7.39 7.44 11.14
4/28/2022 1:15:00 AM 6.64 43.952 0.201 7.39 7.64 11.14
4/28/2022 1:30:00 AM 6.59 43.862 0.201 7.39 7.25 11.15
4/28/2022 1:45:00 AM 6.55 43.79 0.201 7.39 7.15 11.14
4/28/2022 2:00:00 AM 6.51 43.718 0.201 7.39 7.42 11.16
4/28/2022 2:15:00 AM 6.47 43.646 0.201 7.39 7.2 11.16
4/28/2022 2:30:00 AM 6.4 43.52 0.202 7.39 7.17 11.17
4/28/2022 2:45:00 AM 6.36 43.448 0.202 7.39 7.23 11.18
4/28/2022 3:00:00 AM 6.32 43.376 0.202 7.39 7.63 11.19
4/28/2022 3:15:00 AM 6.27 43.286 0.202 7.39 7.02 11.2
4/28/2022 3:30:00 AM 6.23 43.214 0.202 7.39 7.02 11.21
4/28/2022 3:45:00 AM 6.19 43.142 0.202 7.39 7.51 11.22
4/28/2022 4:00:00 AM 6.14 43.052 0.203 7.39 7.36 11.23
4/28/2022 4:15:00 AM 6.09 42.962 0.202 7.39 7.17 11.24
4/28/2022 4:30:00 AM 6.05 42.89 0.203 7.39 7.4 11.25
4/28/2022 4:45:00 AM 6 42.8 0.203 7.39 7.3 11.26
4/28/2022 5:00:00 AM 5.95 42.71 0.203 7.39 7.08 11.27
4/28/2022 5:15:00 AM 5.9 42.62 0.203 7.39 7 11.28
4/28/2022 5:30:00 AM 5.88 42.584 0.203 7.39 7.03 11.29
4/28/2022 5:45:00 AM 5.86 42.548 0.203 7.38 7.29 11.3
4/28/2022 6:00:00 AM 5.81 42.458 0.203 7.39 7.31 11.31
4/28/2022 6:15:00 AM 5.77 42.386 0.203 7.39 6.68 11.32
4/28/2022 6:30:00 AM 5.74 42.332 0.203 7.39 7.03 11.33
4/28/2022 6:45:00 AM 5.7 42.26 0.203 7.39 7.11 11.37
4/28/2022 7:00:00 AM 5.67 42.206 0.203 7.39 6.95 11.41
4/28/2022 7:15:00 AM 5.64 42.152 0.203 7.4 6.81 11.47
4/28/2022 7:30:00 AM 5.63 42.134 0.203 7.41 6.81 11.56
4/28/2022 7:45:00 AM 5.62 42.116 0.204 7.42 6.83 11.66
4/28/2022 8:00:00 AM 5.62 42.116 0.203 7.43 6.94 11.75
4/28/2022 8:15:00 AM 5.63 42.134 0.203 7.44 6.75 11.84
4/28/2022 8:30:00 AM 5.68 42.224 0.203 7.45 6.68 11.93
4/28/2022 8:45:00 AM 5.74 42.332 0.203 7.46 6.88 12
4/28/2022 9:00:00 AM 5.8 42.44 0.203 7.47 6.74 12.05
4/28/2022 9:15:00 AM 5.87 42.566 0.203 7.48 6.52 12.1
4/28/2022 9:30:00 AM 6.01 42.818 0.203 7.49 6.41 12.14
4/28/2022 9:45:00 AM 6.15 43.07 0.203 7.49 6.63 12.18
4/28/2022 10:00:00 AM 6.29 43.322 0.203 7.5 6.35 12.2
4/28/2022 10:15:00 AM 6.42 43.556 0.203 7.5 6.5 12.21
4/28/2022 10:30:00 AM 6.57 43.826 0.203 7.52 6.33 12.22
4/28/2022 10:45:00 AM 6.73 44.114 0.203 7.52 6.36 12.25
4/28/2022 11:00:00 AM 6.88 44.384 0.203 7.52 6.81 12.26
4/28/2022 11:15:00 AM 7.05 44.69 0.203 7.53 6.53 12.26
4/28/2022 11:30:00 AM 7.21 44.978 0.203 7.53 6.34 12.27
4/28/2022 11:45:00 AM 7.38 45.284 0.203 7.54 6.27 12.28
4/28/2022 12:00:00 PM 7.57 45.626 0.203 7.54 6.25 12.28
4/28/2022 12:15:00 PM 7.75 45.95 0.203 7.54 6.18 12.28
4/28/2022 12:30:00 PM 7.92 46.256 0.203 7.54 6.23 12.29
4/28/2022 12:45:00 PM 8.1 46.58 0.203 7.54 6.2 12.28
4/28/2022 1:00:00 PM 8.27 46.886 0.203 7.55 6.09 12.27
4/28/2022 1:15:00 PM 8.44 47.192 0.203 7.55 6.41 12.27
4/28/2022 1:30:00 PM 8.61 47.498 0.203 7.55 6.31 12.26
4/28/2022 1:45:00 PM 8.78 47.804 0.203 7.56 6.31 12.26
4/28/2022 2:00:00 PM 8.93 48.074 0.203 7.56 6.21 12.24
4/28/2022 2:15:00 PM 9.09 48.362 0.203 7.56 6.19 12.23
4/28/2022 2:30:00 PM 9.24 48.632 0.203 7.57 6.47 12.22
4/28/2022 2:45:00 PM 9.39 48.902 0.203 7.57 6.34 12.2
4/28/2022 3:00:00 PM 9.53 49.154 0.203 7.57 6.65 12.18
4/28/2022 3:15:00 PM 9.65 49.37 0.203 7.57 6.23 12.16
4/28/2022 3:30:00 PM 9.75 49.55 0.203 7.57 6.24 12.13
4/28/2022 3:45:00 PM 9.83 49.694 0.203 7.57 6.37 12.11
4/28/2022 4:00:00 PM 9.91 49.838 0.203 7.57 6.15 12.08
4/28/2022 4:15:00 PM 9.96 49.928 0.203 7.57 6.14 12.06
4/28/2022 4:30:00 PM 9.99 49.982 0.203 7.58 6.55 12.03
4/28/2022 4:45:00 PM 10 50 0.203 7.58 6.27 12
4/28/2022 5:00:00 PM 9.98 49.964 0.203 7.57 6.12 11.98
4/28/2022 5:15:00 PM 9.95 49.91 0.203 7.57 6.19 11.94
4/28/2022 5:30:00 PM 9.89 49.802 0.203 7.56 6.84 11.9
4/28/2022 5:45:00 PM 9.8 49.64 0.203 7.56 6.3 11.86
4/28/2022 6:00:00 PM 9.67 49.406 0.203 7.55 6.17 11.81
4/28/2022 6:15:00 PM 9.55 49.19 0.204 7.54 6.24 11.76
4/28/2022 6:30:00 PM 9.42 48.956 0.204 7.53 5.96 11.71
4/28/2022 6:45:00 PM 9.28 48.704 0.204 7.51 6.02 11.65
4/28/2022 7:00:00 PM 9.14 48.452 0.204 7.5 6.03 11.59
4/28/2022 7:15:00 PM 9.02 48.236 0.204 7.49 6.34 11.52
4/28/2022 7:30:00 PM 8.9 48.02 0.204 7.47 6.17 11.46
4/28/2022 7:45:00 PM 8.79 47.822 0.204 7.46 6.17 11.4
4/28/2022 8:00:00 PM 8.68 47.624 0.205 7.44 5.96 11.33
4/28/2022 8:15:00 PM 8.58 47.444 0.205 7.42 6.13 11.25
4/28/2022 8:30:00 PM 8.48 47.264 0.205 7.41 6.31 11.19
4/28/2022 8:45:00 PM 8.41 47.138 0.205 7.4 6.28 11.14
4/28/2022 9:00:00 PM 8.35 47.03 0.205 7.38 6.19 11.1
4/28/2022 9:15:00 PM 8.29 46.922 0.206 7.38 6.21 11.06
4/28/2022 9:30:00 PM 8.24 46.832 0.205 7.37 6.68 11.04
4/28/2022 9:45:00 PM 8.21 46.778 0.205 7.36 6.69 11.02
4/28/2022 10:00:00 PM 8.17 46.706 0.205 7.36 6.88 11
4/28/2022 10:15:00 PM 8.13 46.634 0.206 7.34 6.78 10.96
4/28/2022 10:30:00 PM 8.09 46.562 0.206 7.34 6.38 10.95
4/28/2022 10:45:00 PM 8.06 46.508 0.206 7.34 6.87 10.94
4/28/2022 11:00:00 PM 8.03 46.454 0.206 7.34 6.54 10.94
4/28/2022 11:15:00 PM 8 46.4 0.206 7.33 6.72 10.92
4/28/2022 11:30:00 PM 7.97 46.346 0.206 7.33 6.67 10.91
4/28/2022 11:45:00 PM 7.94 46.292 0.207 7.34 6.86 10.9
4/29/2022 12:00:00 AM 7.91 46.238 0.206 7.34 6.79 10.89
4/29/2022 12:15:00 AM 7.87 46.166 0.207 7.33 6.97 10.89
4/29/2022 12:30:00 AM 7.84 46.112 0.206 7.33 6.98 10.88
4/29/2022 12:45:00 AM 7.8 46.04 0.207 7.33 7.02 10.87
4/29/2022 1:00:00 AM 7.74 45.932 0.207 7.33 6.91 10.87
4/29/2022 1:15:00 AM 7.69 45.842 0.207 7.34 6.92 10.87
4/29/2022 1:30:00 AM 7.65 45.77 0.207 7.34 7.14 10.86
4/29/2022 1:45:00 AM 7.61 45.698 0.207 7.34 7.26 10.86
4/29/2022 2:00:00 AM 7.57 45.626 0.207 7.34 6.81 10.87
4/29/2022 2:15:00 AM 7.51 45.518 0.208 7.34 6.78 10.87
4/29/2022 2:30:00 AM 7.46 45.428 0.207 7.34 7.15 10.87
4/29/2022 2:45:00 AM 7.4 45.32 0.208 7.33 7.1 10.87
4/29/2022 3:00:00 AM 7.35 45.23 0.208 7.34 7.15 10.88
4/29/2022 3:15:00 AM 7.29 45.122 0.208 7.34 6.76 10.89
4/29/2022 3:30:00 AM 7.24 45.032 0.208 7.34 7 10.89
4/29/2022 3:45:00 AM 7.18 44.924 0.208 7.35 7.09 10.9
4/29/2022 4:00:00 AM 7.13 44.834 0.209 7.34 7.04 10.91
4/29/2022 4:15:00 AM 7.07 44.726 0.209 7.35 7.28 10.92
4/29/2022 4:30:00 AM 7.02 44.636 0.209 7.35 7.34 10.92
4/29/2022 4:45:00 AM 6.96 44.528 0.209 7.35 7.34 10.93
4/29/2022 5:00:00 AM 6.9 44.42 0.209 7.35 7.26 10.95
4/29/2022 5:15:00 AM 6.84 44.312 0.209 7.35 7.08 10.95
4/29/2022 5:30:00 AM 6.78 44.204 0.21 7.35 7.18 10.97
4/29/2022 5:45:00 AM 6.73 44.114 0.21 7.35 7.19 10.98
4/29/2022 6:00:00 AM 6.67 44.006 0.21 7.35 7.24 10.98
4/29/2022 6:15:00 AM 6.62 43.916 0.21 7.35 6.83 11
4/29/2022 6:30:00 AM 6.56 43.808 0.21 7.35 7.29 11.03
4/29/2022 6:45:00 AM 6.51 43.718 0.21 7.36 6.87 11.08
4/29/2022 7:00:00 AM 6.47 43.646 0.21 7.37 6.83 11.14
4/29/2022 7:15:00 AM 6.44 43.592 0.21 7.37 7.77 11.22
4/29/2022 7:30:00 AM 6.42 43.556 0.21 7.38 8.16 11.32
4/29/2022 7:45:00 AM 6.42 43.556 0.21 7.4 6.69 11.42
4/29/2022 8:00:00 AM 6.42 43.556 0.21 7.41 6.4 11.5
4/29/2022 8:15:00 AM 6.46 43.628 0.21 7.42 6.47 11.6
4/29/2022 8:30:00 AM 6.5 43.7 0.21 7.43 6.59 11.67
4/29/2022 8:45:00 AM 6.58 43.844 0.21 7.44 6.93 11.75
4/29/2022 9:00:00 AM 6.66 43.988 0.21 7.45 6.69 11.8
4/29/2022 9:15:00 AM 6.76 44.168 0.211 7.46 7.01 11.86
4/29/2022 9:30:00 AM 6.88 44.384 0.21 7.46 6.6 11.9
4/29/2022 9:45:00 AM 7.01 44.618 0.21 7.46 6.49 11.94
4/29/2022 10:00:00 AM 7.19 44.942 0.209 7.47 6.48 11.96
4/29/2022 10:15:00 AM 7.37 45.266 0.209 7.47 6.24 11.99
4/29/2022 10:30:00 AM 7.56 45.608 0.21 7.48 6.62 12
4/29/2022 10:45:00 AM 7.76 45.968 0.21 7.48 6.35 12.02
4/29/2022 11:00:00 AM 7.95 46.31 0.209 7.48 6.18 12.02
4/29/2022 11:15:00 AM 8.15 46.67 0.21 7.48 6.9 12.04
4/29/2022 11:30:00 AM 8.35 47.03 0.21 7.49 6.27 12.04
4/29/2022 11:45:00 AM 8.56 47.408 0.21 7.49 6.05 12.05
4/29/2022 12:00:00 PM 8.75 47.75 0.209 7.5 6.15 12.06
4/29/2022 12:15:00 PM 8.96 48.128 0.21 7.51 6.82 12.07
4/29/2022 12:30:00 PM 9.16 48.488 0.209 7.51 6.35 12.05
4/29/2022 12:45:00 PM 9.35 48.83 0.209 7.51 6.12 12.05
4/29/2022 1:00:00 PM 9.55 49.19 0.209 7.52 6.44 12.05
4/29/2022 1:15:00 PM 9.74 49.532 0.209 7.53 6.17 12.04
4/29/2022 1:30:00 PM 9.93 49.874 0.209 7.53 6.29 12.03
4/29/2022 1:45:00 PM 10.11 50.198 0.209 7.54 6.14 12.02
4/29/2022 2:00:00 PM 10.29 50.522 0.209 7.55 6.16 12.02
4/29/2022 2:15:00 PM 10.46 50.828 0.208 7.55 6.24 12
4/29/2022 2:30:00 PM 10.62 51.116 0.209 7.56 6.42 11.99
4/29/2022 2:45:00 PM 10.77 51.386 0.209 7.56 6.39 11.97
4/29/2022 3:00:00 PM 10.91 51.638 0.208 7.57 6.36 11.95
4/29/2022 3:15:00 PM 11.06 51.908 0.209 7.57 6.64 11.93
4/29/2022 3:30:00 PM 11.17 52.106 0.208 7.56 6.32 11.91
4/29/2022 3:45:00 PM 11.28 52.304 0.209 7.56 6.29 11.88
4/29/2022 4:00:00 PM 11.36 52.448 0.209 7.55 6.61 11.85
4/29/2022 4:15:00 PM 11.42 52.556 0.209 7.56 6.42 11.82
4/29/2022 4:30:00 PM 11.46 52.628 0.209 7.57 6.51 11.78
4/29/2022 4:45:00 PM 11.47 52.646 0.209 7.57 6.38 11.74
4/29/2022 5:00:00 PM 11.46 52.628 0.209 7.57 6.16 11.71
4/29/2022 5:15:00 PM 11.45 52.61 0.209 7.56 6.57 11.67
4/29/2022 5:30:00 PM 11.39 52.502 0.209 7.55 6.2 11.63
4/29/2022 5:45:00 PM 11.31 52.358 0.209 7.55 6.06 11.58
4/29/2022 6:00:00 PM 11.2 52.16 0.209 7.54 6.01 11.53
4/29/2022 6:15:00 PM 11.07 51.926 0.209 7.53 6.13 11.47
4/29/2022 6:30:00 PM 10.93 51.674 0.209 7.5 5.98 11.39
4/29/2022 6:45:00 PM 10.79 51.422 0.21 7.48 6.27 11.32
4/29/2022 7:00:00 PM 10.65 51.17 0.21 7.47 6.34 11.24
4/29/2022 7:15:00 PM 10.51 50.918 0.21 7.45 6.25 11.15
4/29/2022 7:30:00 PM 10.39 50.702 0.21 7.43 6.02 11.08
4/29/2022 7:45:00 PM 10.28 50.504 0.21 7.41 6.23 11.01
4/29/2022 8:00:00 PM 10.18 50.324 0.21 7.39 6.49 10.92
4/29/2022 8:15:00 PM 10.08 50.144 0.211 7.37 6.42 10.83
4/29/2022 8:30:00 PM 9.96 49.928 0.211 7.35 6.39 10.76
4/29/2022 8:45:00 PM 9.86 49.748 0.211 7.34 6.92 10.71
4/29/2022 9:00:00 PM 9.76 49.568 0.211 7.33 6.65 10.67
4/29/2022 9:15:00 PM 9.66 49.388 0.211 7.32 6.64 10.64
4/29/2022 9:30:00 PM 9.58 49.244 0.211 7.32 6.58 10.62
4/29/2022 9:45:00 PM 9.51 49.118 0.212 7.31 6.84 10.6
4/29/2022 10:00:00 PM 9.45 49.01 0.212 7.31 7.3 10.59
4/29/2022 10:15:00 PM 9.4 48.92 0.212 7.31 6.86 10.57
4/29/2022 10:30:00 PM 9.35 48.83 0.212 7.3 6.98 10.56
4/29/2022 10:45:00 PM 9.31 48.758 0.212 7.3 6.58 10.55
4/29/2022 11:00:00 PM 9.27 48.686 0.212 7.3 6.86 10.54
4/29/2022 11:15:00 PM 9.23 48.614 0.212 7.3 6.68 10.53
4/29/2022 11:30:00 PM 9.19 48.542 0.212 7.3 7.23 10.52
4/29/2022 11:45:00 PM 9.15 48.47 0.212 7.29 6.85 10.5
4/30/2022 12:00:00 AM 9.11 48.398 0.212 7.29 7.07 10.49
4/30/2022 12:15:00 AM 9.07 48.326 0.212 7.28 7.2 10.47
4/30/2022 12:30:00 AM 9.02 48.236 0.213 7.28 7.75 10.46
4/30/2022 12:45:00 AM 8.97 48.146 0.212 7.28 7.18 10.46
4/30/2022 1:00:00 AM 8.93 48.074 0.213 7.29 7.93 10.46
4/30/2022 1:15:00 AM 8.87 47.966 0.213 7.29 7.1 10.46
4/30/2022 1:30:00 AM 8.82 47.876 0.213 7.29 7.18 10.46
4/30/2022 1:45:00 AM 8.77 47.786 0.213 7.29 7.31 10.46
4/30/2022 2:00:00 AM 8.72 47.696 0.213 7.29 7.46 10.46
4/30/2022 2:15:00 AM 8.66 47.588 0.213 7.29 7.05 10.47
4/30/2022 2:30:00 AM 8.6 47.48 0.213 7.29 7 10.47
4/30/2022 2:45:00 AM 8.55 47.39 0.213 7.29 7.4 10.48
4/30/2022 3:00:00 AM 8.5 47.3 0.213 7.29 6.97 10.48
4/30/2022 3:15:00 AM 8.43 47.174 0.214 7.3 7.24 10.49
4/30/2022 3:30:00 AM 8.37 47.066 0.214 7.3 7.21 10.5
4/30/2022 3:45:00 AM 8.31 46.958 0.214 7.29 7.36 10.51
4/30/2022 4:00:00 AM 8.25 46.85 0.214 7.3 7.38 10.51
4/30/2022 4:15:00 AM 8.19 46.742 0.214 7.3 7.4 10.52
4/30/2022 4:30:00 AM 8.13 46.634 0.214 7.3 7.43 10.53
4/30/2022 4:45:00 AM 8.07 46.526 0.214 7.3 7.1 10.54
4/30/2022 5:00:00 AM 8 46.4 0.215 7.3 7.28 10.56
4/30/2022 5:15:00 AM 7.93 46.274 0.215 7.31 7.07 10.57
4/30/2022 5:30:00 AM 7.87 46.166 0.215 7.31 7.22 10.58
4/30/2022 5:45:00 AM 7.81 46.058 0.215 7.3 7.29 10.59
4/30/2022 6:00:00 AM 7.74 45.932 0.215 7.31 7.48 10.61
4/30/2022 6:15:00 AM 7.68 45.824 0.215 7.31 7.37 10.62
4/30/2022 6:30:00 AM 7.61 45.698 0.215 7.31 7.36 10.66
4/30/2022 6:45:00 AM 7.56 45.608 0.215 7.32 7.14 10.71
4/30/2022 7:00:00 AM 7.51 45.518 0.216 7.33 7.77 10.78
4/30/2022 7:15:00 AM 7.47 45.446 0.216 7.34 9.48 10.88
4/30/2022 7:30:00 AM 7.44 45.392 0.215 7.34 5.56 10.98
4/30/2022 7:45:00 AM 7.43 45.374 0.216 7.36 7.19 11.08
4/30/2022 8:00:00 AM 7.43 45.374 0.215 7.37 6.91 11.19
4/30/2022 8:15:00 AM 7.46 45.428 0.216 7.38 6.7 11.29
4/30/2022 8:30:00 AM 7.53 45.554 0.215 7.39 6.75 11.39
4/30/2022 8:45:00 AM 7.61 45.698 0.216 7.4 6.64 11.48
4/30/2022 9:00:00 AM 7.72 45.896 0.216 7.41 6.57 11.55
4/30/2022 9:15:00 AM 7.84 46.112 0.215 7.42 6.57 11.61
4/30/2022 9:30:00 AM 7.99 46.382 0.216 7.43 7.08 11.67
4/30/2022 9:45:00 AM 8.14 46.652 0.215 7.44 7.06 11.71
4/30/2022 10:00:00 AM 8.31 46.958 0.216 7.44 6.95 11.75
4/30/2022 10:15:00 AM 8.49 47.282 0.215 7.45 7.12 11.78
4/30/2022 10:30:00 AM 8.69 47.642 0.215 7.45 6.99 11.8
4/30/2022 10:45:00 AM 8.87 47.966 0.215 7.46 6.76 11.83
4/30/2022 11:00:00 AM 9.07 48.326 0.215 7.46 6.66 11.83
4/30/2022 11:15:00 AM 9.27 48.686 0.215 7.47 6.47 11.87
4/30/2022 11:30:00 AM 9.46 49.028 0.215 7.48 6.58 11.88
4/30/2022 11:45:00 AM 9.66 49.388 0.215 7.48 7.08 11.89
4/30/2022 12:00:00 PM 9.88 49.784 0.214 7.49 6.65 11.89
4/30/2022 12:15:00 PM 10.11 50.198 0.215 7.49 6.52 11.9
4/30/2022 12:30:00 PM 10.32 50.576 0.215 7.5 6.59 11.9
4/30/2022 12:45:00 PM 10.54 50.972 0.215 7.5 6.68 11.9
4/30/2022 1:00:00 PM 10.7 51.26 0.215 7.5 6.4 11.9
4/30/2022 1:15:00 PM 10.85 51.53 0.215 7.51 6.43 11.9
4/30/2022 1:30:00 PM 10.93 51.674 0.215 7.52 6.47 11.88
4/30/2022 1:45:00 PM 11.09 51.962 0.214 7.53 6.57 11.88
4/30/2022 2:00:00 PM 11.21 52.178 0.214 7.54 6.42 11.88
4/30/2022 2:15:00 PM 11.34 52.412 0.215 7.55 6.73 11.87
4/30/2022 2:30:00 PM 11.45 52.61 0.214 7.54 6.49 11.87
4/30/2022 2:45:00 PM 11.6 52.88 0.214 7.55 7.18 11.87
4/30/2022 3:00:00 PM 11.66 52.988 0.214 7.56 6.5 11.84
4/30/2022 3:15:00 PM 11.72 53.096 0.214 7.57 6.31 11.82
4/30/2022 3:30:00 PM 11.78 53.204 0.214 7.57 6.29 11.82
4/30/2022 3:45:00 PM 11.85 53.33 0.214 7.57 8.08 11.81
4/30/2022 4:00:00 PM 11.9 53.42 0.214 7.58 14.11 11.78
4/30/2022 4:15:00 PM 11.96 53.528 0.214 7.59 6.75 11.76
4/30/2022 4:30:00 PM 12.05 53.69 0.214 7.6 7.34 11.75
4/30/2022 4:45:00 PM 12.07 53.726 0.214 7.6 7.07 11.71
4/30/2022 5:00:00 PM 12.11 53.798 0.214 7.59 13.79 11.68
4/30/2022 5:15:00 PM 12.11 53.798 0.214 7.58 5.39 11.64
4/30/2022 5:30:00 PM 12.1 53.78 0.214 7.57 5.16 11.58
4/30/2022 5:45:00 PM 12.07 53.726 0.214 7.56 6.78 11.52
4/30/2022 6:00:00 PM 12 53.6 0.214 7.54 7.45 11.46
4/30/2022 6:15:00 PM 11.87 53.366 0.214 7.52 6.82 11.34
4/30/2022 6:30:00 PM 11.74 53.132 0.214 7.5 47.96 11.27
4/30/2022 6:45:00 PM 11.66 52.988 0.214 7.49 14.92 11.25
4/30/2022 7:00:00 PM 11.57 52.826 0.215 7.48 7.45 11.17
4/30/2022 7:15:00 PM 11.46 52.628 0.215 7.46 7.05 11.07
4/30/2022 7:30:00 PM 11.36 52.448 0.215 7.44 8.02 10.97
4/30/2022 7:45:00 PM 11.26 52.268 0.215 7.41 6.93 10.86
4/30/2022 8:00:00 PM 11.16 52.088 0.215 7.38 6.68 10.74
4/30/2022 8:15:00 PM 11.06 51.908 0.216 7.35 6.65 10.63
4/30/2022 8:30:00 PM 10.96 51.728 0.216 7.32 6.85 10.53
4/30/2022 8:45:00 PM 10.88 51.584 0.216 7.31 7.28 10.47
4/30/2022 9:00:00 PM 10.81 51.458 0.216 7.29 7.04 10.41
4/30/2022 9:15:00 PM 10.74 51.332 0.216 7.28 6.89 10.37
4/30/2022 9:30:00 PM 10.65 51.17 0.216 7.27 6.98 10.34
4/30/2022 9:45:00 PM 10.57 51.026 0.216 7.27 6.68 10.32
4/30/2022 10:00:00 PM 10.49 50.882 0.216 7.27 7.48 10.3
4/30/2022 10:15:00 PM 10.42 50.756 0.216 7.26 6.69 10.28
4/30/2022 10:30:00 PM 10.36 50.648 0.217 7.26 7.02 10.27
4/30/2022 10:45:00 PM 10.3 50.54 0.217 7.26 6.94 10.26
4/30/2022 11:00:00 PM 10.26 50.468 0.216 7.26 6.9 10.25
4/30/2022 11:15:00 PM 10.22 50.396 0.217 7.26 7.11 10.24
4/30/2022 11:30:00 PM 10.2 50.36 0.217 7.25 7.03 10.23
4/30/2022 11:45:00 PM 10.18 50.324 0.217 7.25 6.91 10.21
5/1/2022 12:00:00 AM 10.16 50.288 0.217 7.24 7.15 10.2
5/1/2022 12:15:00 AM 10.16 50.288 0.217 7.24 6.95 10.18
5/1/2022 12:30:00 AM 10.15 50.27 0.217 7.23 7.39 10.17
5/1/2022 12:45:00 AM 10.14 50.252 0.217 7.24 8.33 10.16
5/1/2022 1:00:00 AM 10.13 50.234 0.217 7.24 8.36 10.15
5/1/2022 1:15:00 AM 10.13 50.234 0.218 7.24 7.27 10.13
5/1/2022 1:30:00 AM 10.12 50.216 0.217 7.24 6.95 10.13
5/1/2022 1:45:00 AM 10.11 50.198 0.218 7.24 7.09 10.1
5/1/2022 2:00:00 AM 10.1 50.18 0.218 7.23 7.22 10.09
5/1/2022 2:15:00 AM 10.09 50.162 0.218 7.23 7.5 10.08
5/1/2022 2:30:00 AM 10.08 50.144 0.218 7.23 7.56 10.08
5/1/2022 2:45:00 AM 10.06 50.108 0.218 7.23 7.84 10.07
5/1/2022 3:00:00 AM 10.05 50.09 0.218 7.23 9.13 10.06
5/1/2022 3:15:00 AM 10.03 50.054 0.218 7.23 11.62 10.06
5/1/2022 3:30:00 AM 10.01 50.018 0.218 7.23 13.36 10.05
5/1/2022 3:45:00 AM 10 50 0.218 7.23 6.94 10.05
5/1/2022 4:00:00 AM 9.98 49.964 0.218 7.23 7.12 10.04
5/1/2022 4:15:00 AM 9.96 49.928 0.219 7.22 7.2 10.04
5/1/2022 4:30:00 AM 9.94 49.892 0.218 7.22 7.39 10.03
5/1/2022 4:45:00 AM 9.91 49.838 0.219 7.22 7.5 10.04
5/1/2022 5:00:00 AM 9.88 49.784 0.219 7.22 7.57 10.03
5/1/2022 5:15:00 AM 9.85 49.73 0.219 7.22 8.42 10.03
5/1/2022 5:30:00 AM 9.82 49.676 0.219 7.22 7.93 10.03
5/1/2022 5:45:00 AM 9.8 49.64 0.219 7.22 8.43 10.03
5/1/2022 6:00:00 AM 9.79 49.622 0.219 7.22 7.3 10.03
5/1/2022 6:15:00 AM 9.77 49.586 0.219 7.22 7.2 10.04
5/1/2022 6:30:00 AM 9.74 49.532 0.219 7.23 7.63 10.06
5/1/2022 6:45:00 AM 9.71 49.478 0.219 7.23 7.43 10.1
5/1/2022 7:00:00 AM 9.71 49.478 0.219 7.24 6.96 10.2
5/1/2022 7:15:00 AM 9.71 49.478 0.219 7.25 6.94 10.31
5/1/2022 7:30:00 AM 9.73 49.514 0.219 7.26 7.06 10.43
5/1/2022 7:45:00 AM 9.75 49.55 0.219 7.27 7.76 10.56
5/1/2022 8:00:00 AM 9.79 49.622 0.219 7.29 7.25 10.68
5/1/2022 8:15:00 AM 9.82 49.676 0.219 7.3 7.26 10.79
5/1/2022 8:30:00 AM 9.91 49.838 0.219 7.32 7.17 10.91
5/1/2022 8:45:00 AM 9.91 49.838 0.219 7.33 7.37 10.92
5/1/2022 9:00:00 AM 9.95 49.91 0.219 7.34 7.35 10.98
5/1/2022 9:15:00 AM 9.97 49.946 0.219 7.35 8.49 10.99
5/1/2022 9:30:00 AM 9.98 49.964 0.219 7.35 8.94 11
5/1/2022 9:45:00 AM 9.97 49.946 0.219 7.35 7.81 10.94
5/1/2022 10:00:00 AM 9.95 49.91 0.219 7.34 10.2 10.86
5/1/2022 10:15:00 AM 9.92 49.856 0.218 7.34 8.49 10.84
5/1/2022 10:30:00 AM 9.89 49.802 0.219 7.34 7.08 10.82
5/1/2022 10:45:00 AM 9.85 49.73 0.219 7.34 8.3 10.75
5/1/2022 11:00:00 AM 9.84 49.712 0.222 7.33 13.5 10.69
5/1/2022 11:15:00 AM 9.82 49.676 0.221 7.33 11.56 10.63
5/1/2022 11:30:00 AM 9.81 49.658 0.221 7.32 12.09 10.61
5/1/2022 11:45:00 AM 9.77 49.586 0.223 7.31 13.45 10.56
5/1/2022 12:00:00 PM 9.76 49.568 0.221 7.3 10.64 10.55
5/1/2022 12:15:00 PM 9.76 49.568 0.218 7.3 11.09 10.56
5/1/2022 12:30:00 PM 9.77 49.586 0.217 7.31 10.66 10.6
5/1/2022 12:45:00 PM 9.73 49.514 0.217 7.3 10.3 10.58
5/1/2022 1:00:00 PM 9.78 49.604 0.213 7.31 14.5 10.56
5/1/2022 1:15:00 PM 9.76 49.568 0.216 7.32 13.52 10.61
5/1/2022 1:30:00 PM 9.75 49.55 0.22 7.31 11.16 10.65
5/1/2022 1:45:00 PM 9.75 49.55 0.216 7.31 11.06 10.66
5/1/2022 2:00:00 PM 9.8 49.64 0.21 7.32 16.9 10.6
5/1/2022 2:15:00 PM 9.83 49.694 0.204 7.33 21.94 10.57
5/1/2022 2:30:00 PM 9.91 49.838 0.198 7.34 32.28 10.52
5/1/2022 2:45:00 PM 9.87 49.766 0.203 7.35 23.09 10.52
5/1/2022 3:00:00 PM 9.88 49.784 0.199 7.35 28.13 10.52
5/1/2022 3:15:00 PM 9.86 49.748 0.197 7.34 29.11 10.52
5/1/2022 3:30:00 PM 9.82 49.676 0.199 7.34 31.85 10.57
5/1/2022 3:45:00 PM 9.84 49.712 0.203 7.35 28.76 10.67
5/1/2022 4:00:00 PM 9.79 49.622 0.211 7.35 20.78 10.71
5/1/2022 4:15:00 PM 9.79 49.622 0.214 7.37 48.4 10.78
5/1/2022 4:30:00 PM 9.77 49.586 0.216 7.39 36.95 10.82
5/1/2022 4:45:00 PM 9.79 49.622 0.216 7.39 29.86 10.85
5/1/2022 5:00:00 PM 9.84 49.712 0.214 7.39 30.33 10.83
5/1/2022 5:15:00 PM 9.86 49.748 0.214 7.4 28.24 10.82
5/1/2022 5:30:00 PM 9.9 49.82 0.214 7.4 40.84 10.78
5/1/2022 5:45:00 PM 9.94 49.892 0.212 7.39 39.72 10.73
5/1/2022 6:00:00 PM 9.96 49.928 0.211 7.39 39.19 10.68
5/1/2022 6:15:00 PM 9.97 49.946 0.21 7.38 36.79 10.63
5/1/2022 6:30:00 PM 9.97 49.946 0.211 7.37 32.94 10.62
5/1/2022 6:45:00 PM 9.97 49.946 0.21 7.37 27.53 10.61
5/1/2022 7:00:00 PM 9.96 49.928 0.208 7.36 25.17 10.59
5/1/2022 7:15:00 PM 9.94 49.892 0.205 7.35 22.28 10.56
5/1/2022 7:30:00 PM 9.92 49.856 0.202 7.34 23.53 10.53
5/1/2022 7:45:00 PM 9.91 49.838 0.199 7.34 20.28 10.5
5/1/2022 8:00:00 PM 9.89 49.802 0.197 7.33 21.12 10.48
5/1/2022 8:15:00 PM 9.88 49.784 0.196 7.32 17.02 10.47
5/1/2022 8:30:00 PM 9.87 49.766 0.195 7.32 18.97 10.45
5/1/2022 8:45:00 PM 9.85 49.73 0.194 7.32 18.52 10.44
5/1/2022 9:00:00 PM 9.85 49.73 0.193 7.32 17.39 10.43
5/1/2022 9:15:00 PM 9.85 49.73 0.191 7.31 17.78 10.41
5/1/2022 9:30:00 PM 9.85 49.73 0.189 7.31 19.09 10.39
5/1/2022 9:45:00 PM 9.85 49.73 0.187 7.3 18.86 10.36
5/1/2022 10:00:00 PM 9.85 49.73 0.186 7.29 18.14 10.35
5/1/2022 10:15:00 PM 9.87 49.766 0.185 7.29 20.41 10.34
5/1/2022 10:30:00 PM 10.09 50.162 0.174 7.33 43.65 10.33
5/1/2022 10:45:00 PM 10.01 50.018 0.181 7.33 34.08 10.3
5/1/2022 11:00:00 PM 10.05 50.09 0.179 7.33 35.72 10.26
5/1/2022 11:15:00 PM 10 50 0.177 7.33 35.33 10.27
5/1/2022 11:30:00 PM 9.94 49.892 0.179 7.31 33.48 10.27
5/1/2022 11:45:00 PM 9.89 49.802 0.18 7.3 30.51 10.27
5/2/2022 12:00:00 AM 9.86 49.748 0.181 7.29 30.62 10.27
5/2/2022 12:15:00 AM 9.83 49.694 0.18 7.28 33.45 10.26
5/2/2022 12:30:00 AM 9.82 49.676 0.181 7.28 32.22 10.26
5/2/2022 12:45:00 AM 9.8 49.64 0.18 7.28 34.83 10.27
5/2/2022 1:00:00 AM 9.8 49.64 0.179 7.27 36.18 10.26
5/2/2022 1:15:00 AM 9.8 49.64 0.18 7.27 28.91 10.25
5/2/2022 1:30:00 AM 9.8 49.64 0.18 7.27 30.25 10.25
5/2/2022 1:45:00 AM 9.81 49.658 0.181 7.28 32.43 10.25
5/2/2022 2:00:00 AM 9.81 49.658 0.18 7.28 34.66 10.25
5/2/2022 2:15:00 AM 9.81 49.658 0.179 7.28 37.14 10.23
5/2/2022 2:30:00 AM 9.81 49.658 0.179 7.28 39.68 10.22
5/2/2022 2:45:00 AM 9.81 49.658 0.179 7.29 42.05 10.2
5/2/2022 3:00:00 AM 9.79 49.622 0.179 7.28 38.01 10.2
5/2/2022 3:15:00 AM 9.77 49.586 0.179 7.27 37.38 10.2
5/2/2022 3:30:00 AM 9.75 49.55 0.179 7.27 30.09 10.2
5/2/2022 3:45:00 AM 9.73 49.514 0.179 7.27 29.45 10.2
5/2/2022 4:00:00 AM 9.71 49.478 0.18 7.27 30.53 10.2
5/2/2022 4:15:00 AM 9.69 49.442 0.18 7.27 29.09 10.2
5/2/2022 4:30:00 AM 9.67 49.406 0.18 7.27 30.07 10.2
5/2/2022 4:45:00 AM 9.66 49.388 0.18 7.27 27.67 10.2
5/2/2022 5:00:00 AM 9.65 49.37 0.181 7.27 27.99 10.2
5/2/2022 5:15:00 AM 9.64 49.352 0.181 7.27 26.37 10.2
5/2/2022 5:30:00 AM 9.64 49.352 0.181 7.27 27.37 10.19
5/2/2022 5:45:00 AM 9.64 49.352 0.182 7.27 25.46 10.19
5/2/2022 6:00:00 AM 9.64 49.352 0.182 7.26 25.71 10.19
5/2/2022 6:15:00 AM 9.61 49.298 0.182 7.26 24.37 10.19
5/2/2022 6:30:00 AM 9.59 49.262 0.181 7.26 24.96 10.2
5/2/2022 6:45:00 AM 9.57 49.226 0.181 7.26 23.71 10.21
5/2/2022 7:00:00 AM 9.57 49.226 0.181 7.27 22.12 10.24
5/2/2022 7:15:00 AM 9.57 49.226 0.18 7.27 19.82 10.27
5/2/2022 7:30:00 AM 9.57 49.226 0.18 7.27 21.92 10.31
5/2/2022 7:45:00 AM 9.6 49.28 0.18 7.27 21.8 10.35
5/2/2022 8:00:00 AM 9.61 49.298 0.18 7.28 21.3 10.37
5/2/2022 8:15:00 AM 9.69 49.442 0.18 7.28 18.78 10.45
5/2/2022 8:30:00 AM 9.72 49.496 0.18 7.29 20.4 10.49
5/2/2022 8:45:00 AM 9.82 49.676 0.18 7.3 19.9 10.56
5/2/2022 9:00:00 AM 9.89 49.802 0.181 7.31 20.4 10.6
5/2/2022 9:15:00 AM 9.94 49.892 0.181 7.31 20.5 10.61
5/2/2022 9:30:00 AM 9.96 49.928 0.181 7.31 21 10.59
5/2/2022 9:45:00 AM 10.06 50.108 0.182 7.32 20.13 10.67
5/2/2022 10:00:00 AM 10.01 50.018 0.182 7.31 19.71 10.6
5/2/2022 10:15:00 AM 10.02 50.036 0.182 7.32 19.28 10.62
5/2/2022 10:30:00 AM 10.01 50.018 0.182 7.31 18.05 10.59
5/2/2022 10:45:00 AM 10 50 0.182 7.31 18.62 10.59
5/2/2022 11:00:00 AM 10 50 0.182 7.32 18.99 10.6
5/2/2022 11:15:00 AM 10 50 0.183 7.32 21.59 10.61
5/2/2022 11:30:00 AM 10 50 0.183 7.31 18.76 10.6
5/2/2022 11:45:00 AM 10.01 50.018 0.183 7.32 19.04 10.63
5/2/2022 12:00:00 PM 10.1 50.18 0.183 7.33 18.84 10.74
5/2/2022 12:15:00 PM 10.2 50.36 0.183 7.34 18.35 10.81
5/2/2022 12:30:00 PM 10.24 50.432 0.183 7.34 18.83 10.8
5/2/2022 12:45:00 PM 10.33 50.594 0.183 7.35 18.87 10.86
5/2/2022 1:00:00 PM 10.43 50.774 0.184 7.37 18.71 10.92
5/2/2022 1:15:00 PM 10.52 50.936 0.184 7.37 18.38 10.91
5/2/2022 1:30:00 PM 10.58 51.044 0.184 7.38 18.16 10.92
5/2/2022 1:45:00 PM 10.65 51.17 0.185 7.38 17.85 10.93
5/2/2022 2:00:00 PM 10.75 51.35 0.185 7.39 17.93 10.96
5/2/2022 2:15:00 PM 10.83 51.494 0.185 7.39 17.48 10.98
5/2/2022 2:30:00 PM 10.97 51.746 0.185 7.4 17.71 10.99
5/2/2022 2:45:00 PM 11.14 52.052 0.186 7.41 16.63 11.05
5/2/2022 3:00:00 PM 11.24 52.232 0.186 7.41 16.65 11.03
5/2/2022 3:15:00 PM 11.41 52.538 0.186 7.41 15.35 11.05
5/2/2022 3:30:00 PM 11.59 52.862 0.186 7.41 17.22 11.04
5/2/2022 3:45:00 PM 11.61 52.898 0.186 7.41 17.52 11.01
5/2/2022 4:00:00 PM 11.68 53.024 0.186 7.41 17.23 11
5/2/2022 4:15:00 PM 11.73 53.114 0.186 7.42 16.98 10.99
5/2/2022 4:30:00 PM 11.81 53.258 0.186 7.41 16.6 10.97
5/2/2022 4:45:00 PM 11.88 53.384 0.186 7.41 16.2 10.99
5/2/2022 5:00:00 PM 11.77 53.186 0.186 7.4 15.95 10.9
5/2/2022 5:15:00 PM 11.8 53.24 0.186 7.4 16.39 10.94
5/2/2022 5:30:00 PM 11.75 53.15 0.186 7.38 16.03 10.81
5/2/2022 5:45:00 PM 11.81 53.258 0.186 7.39 15.68 10.88
5/2/2022 6:00:00 PM 11.78 53.204 0.186 7.37 16.3 10.8
5/2/2022 6:15:00 PM 11.76 53.168 0.186 7.37 15.15 10.78
5/2/2022 6:30:00 PM 11.72 53.096 0.186 7.36 15 10.72
5/2/2022 6:45:00 PM 11.66 52.988 0.186 7.34 15.92 10.65
5/2/2022 7:00:00 PM 11.61 52.898 0.186 7.33 14.76 10.57
5/2/2022 7:15:00 PM 11.56 52.808 0.186 7.31 14.74 10.5
5/2/2022 7:30:00 PM 11.51 52.718 0.186 7.3 15.13 10.43
5/2/2022 7:45:00 PM 11.46 52.628 0.187 7.28 14.64 10.36
5/2/2022 8:00:00 PM 11.41 52.538 0.187 7.26 14.17 10.29
5/2/2022 8:15:00 PM 11.36 52.448 0.188 7.25 14.31 10.22
5/2/2022 8:30:00 PM 11.3 52.34 0.188 7.24 13.87 10.17
5/2/2022 8:45:00 PM 11.25 52.25 0.188 7.22 14.73 10.12
5/2/2022 9:00:00 PM 11.2 52.16 0.189 7.21 13.88 10.09
5/2/2022 9:15:00 PM 11.16 52.088 0.189 7.21 13.97 10.06
5/2/2022 9:30:00 PM 11.12 52.016 0.189 7.2 14.15 10.04
5/2/2022 9:45:00 PM 11.08 51.944 0.19 7.2 12.95 10.03
5/2/2022 10:00:00 PM 11.04 51.872 0.19 7.2 14.04 10.01
5/2/2022 10:15:00 PM 11.01 51.818 0.191 7.19 13.68 10
5/2/2022 10:30:00 PM 10.97 51.746 0.191 7.19 13.48 9.99
5/2/2022 10:45:00 PM 10.94 51.692 0.191 7.19 13.56 9.99
5/2/2022 11:00:00 PM 10.91 51.638 0.191 7.19 13.35 9.98
5/2/2022 11:15:00 PM 10.87 51.566 0.192 7.19 13.35 9.97
5/2/2022 11:30:00 PM 10.84 51.512 0.192 7.19 14.18 9.96
5/2/2022 11:45:00 PM 10.8 51.44 0.192 7.19 13.29 9.95
5/3/2022 12:00:00 AM 10.77 51.386 0.193 7.19 14.17 9.94
5/3/2022 12:15:00 AM 10.74 51.332 0.193 7.19 13.21 9.94
5/3/2022 12:30:00 AM 10.7 51.26 0.193 7.19 13.63 9.94
5/3/2022 12:45:00 AM 10.67 51.206 0.193 7.19 13.27 9.94
5/3/2022 1:00:00 AM 10.63 51.134 0.194 7.19 12.56 9.94
5/3/2022 1:15:00 AM 10.6 51.08 0.194 7.19 13.08 9.93
5/3/2022 1:30:00 AM 10.57 51.026 0.194 7.19 12.58 9.93
5/3/2022 1:45:00 AM 10.53 50.954 0.195 7.19 12.76 9.92
5/3/2022 2:00:00 AM 10.49 50.882 0.195 7.19 12.91 9.93
5/3/2022 2:15:00 AM 10.45 50.81 0.196 7.19 12.2 9.93
5/3/2022 2:30:00 AM 10.41 50.738 0.196 7.19 12.33 9.92
5/3/2022 2:45:00 AM 10.37 50.666 0.196 7.19 12.65 9.93
5/3/2022 3:00:00 AM 10.33 50.594 0.196 7.19 12.89 9.93
5/3/2022 3:15:00 AM 10.3 50.54 0.197 7.19 12.84 9.93
5/3/2022 3:30:00 AM 10.26 50.468 0.197 7.19 13.62 9.93
5/3/2022 3:45:00 AM 10.22 50.396 0.197 7.19 12.2 9.94
5/3/2022 4:00:00 AM 10.18 50.324 0.197 7.19 11.92 9.94
5/3/2022 4:15:00 AM 10.14 50.252 0.197 7.19 12.16 9.94
5/3/2022 4:30:00 AM 10.1 50.18 0.198 7.19 11.83 9.95
5/3/2022 4:45:00 AM 10.05 50.09 0.198 7.19 11.78 9.95
5/3/2022 5:00:00 AM 10.02 50.036 0.198 7.2 11.81 9.96
5/3/2022 5:15:00 AM 9.97 49.946 0.198 7.19 11.55 9.96
5/3/2022 5:30:00 AM 9.93 49.874 0.199 7.2 11.38 9.97
5/3/2022 5:45:00 AM 9.89 49.802 0.199 7.2 10.98 9.98
5/3/2022 6:00:00 AM 9.85 49.73 0.199 7.2 11.1 9.99
5/3/2022 6:15:00 AM 9.83 49.694 0.199 7.2 11.06 9.99
5/3/2022 6:30:00 AM 9.81 49.658 0.199 7.2 9.98 10.03
5/3/2022 6:45:00 AM 9.79 49.622 0.2 7.21 10.36 10.06
5/3/2022 7:00:00 AM 9.79 49.622 0.2 7.21 10.22 10.12
5/3/2022 7:15:00 AM 9.78 49.604 0.2 7.22 10.35 10.17
5/3/2022 7:30:00 AM 9.76 49.568 0.2 7.22 10.31 10.22
5/3/2022 7:45:00 AM 9.79 49.622 0.2 7.24 10.01 10.36
5/3/2022 8:00:00 AM 9.84 49.712 0.2 7.25 10.93 10.53
5/3/2022 8:15:00 AM 9.92 49.856 0.2 7.27 9.77 10.67
5/3/2022 8:30:00 AM 9.97 49.946 0.201 7.28 9.63 10.73
5/3/2022 8:45:00 AM 10.01 50.018 0.201 7.29 9.46 10.77
5/3/2022 9:00:00 AM 10.09 50.162 0.201 7.31 9.27 10.87
5/3/2022 9:15:00 AM 10.19 50.342 0.201 7.32 9.24 10.95
5/3/2022 9:30:00 AM 10.31 50.558 0.2 7.33 8.92 11.02
5/3/2022 9:45:00 AM 10.41 50.738 0.201 7.34 9.55 11.06
5/3/2022 10:00:00 AM 10.59 51.062 0.201 7.35 8.55 11.14
5/3/2022 10:15:00 AM 10.64 51.152 0.2 7.35 8.63 11.12
5/3/2022 10:30:00 AM 10.73 51.314 0.201 7.36 8.77 11.15
5/3/2022 10:45:00 AM 10.91 51.638 0.201 7.37 8.6 11.23
5/3/2022 11:00:00 AM 11.09 51.962 0.201 7.38 8.47 11.27
5/3/2022 11:15:00 AM 11.38 52.484 0.201 7.39 7.85 11.31
5/3/2022 11:30:00 AM 11.49 52.682 0.201 7.39 8.28 11.33
5/3/2022 11:45:00 AM 11.54 52.772 0.201 7.4 8.28 11.31
5/3/2022 12:00:00 PM 11.6 52.88 0.202 7.42 8.43 11.32
5/3/2022 12:15:00 PM 11.8 53.24 0.199 7.44 8.07 11.4
5/3/2022 12:30:00 PM 12 53.6 0.202 7.45 8.63 11.43
5/3/2022 12:45:00 PM 12.11 53.798 0.202 7.46 8.19 11.41
5/3/2022 1:00:00 PM 12.2 53.96 0.202 7.47 7.94 11.42
5/3/2022 1:15:00 PM 12.19 53.942 0.202 7.48 8.07 11.35
5/3/2022 1:30:00 PM 12.13 53.834 0.203 7.48 8.29 11.27
5/3/2022 1:45:00 PM 12.12 53.816 0.204 7.51 7.93 11.33
5/3/2022 2:00:00 PM 12.14 53.852 0.204 7.52 7.96 11.35
5/3/2022 2:15:00 PM 12.17 53.906 0.204 7.52 8.09 11.36
5/3/2022 2:30:00 PM 12.18 53.924 0.204 7.52 8.07 11.33
5/3/2022 2:45:00 PM 12.18 53.924 0.204 7.52 8.08 11.33
5/3/2022 3:00:00 PM 12.16 53.888 0.204 7.53 7.83 11.29
5/3/2022 3:15:00 PM 12.15 53.87 0.204 7.52 7.66 11.29
5/3/2022 3:30:00 PM 12.15 53.87 0.204 7.52 7.7 11.27
5/3/2022 3:45:00 PM 12.2 53.96 0.204 7.52 7.76 11.3
5/3/2022 4:00:00 PM 12.27 54.086 0.204 7.53 7.99 11.34
5/3/2022 4:15:00 PM 12.34 54.212 0.204 7.54 7.5 11.35
5/3/2022 4:30:00 PM 12.4 54.32 0.205 7.54 7.69 11.31
5/3/2022 4:45:00 PM 12.43 54.374 0.205 7.53 7.39 11.26
5/3/2022 5:00:00 PM 12.46 54.428 0.205 7.54 7.73 11.25
5/3/2022 5:15:00 PM 12.52 54.536 0.205 7.54 7.48 11.26
5/3/2022 5:30:00 PM 12.61 54.698 0.205 7.54 7.7 11.28
5/3/2022 5:45:00 PM 12.7 54.86 0.206 7.54 7.47 11.26
5/3/2022 6:00:00 PM 12.7 54.86 0.206 7.52 7.29 11.16
5/3/2022 6:15:00 PM 12.69 54.842 0.206 7.51 7.73 11.09
5/3/2022 6:30:00 PM 12.65 54.77 0.206 7.49 7.35 10.98
5/3/2022 6:45:00 PM 12.59 54.662 0.206 7.45 7.29 10.84
5/3/2022 7:00:00 PM 12.52 54.536 0.206 7.42 8.57 10.69
5/3/2022 7:15:00 PM 12.48 54.464 0.207 7.4 7.73 10.63
5/3/2022 7:30:00 PM 12.43 54.374 0.207 7.37 7.87 10.49
5/3/2022 7:45:00 PM 12.4 54.32 0.207 7.33 7.57 10.33
5/3/2022 8:00:00 PM 12.62 54.716 0.206 7.35 41.35 10.18
5/3/2022 8:15:00 PM 12.65 54.77 0.204 7.38 29.49 10.03
5/3/2022 8:30:00 PM 12.67 54.806 0.209 7.35 27.74 9.9
5/3/2022 8:45:00 PM 12.7 54.86 0.201 7.35 26.57 9.81
5/3/2022 9:00:00 PM 12.62 54.716 0.198 7.32 26.74 9.76
5/3/2022 9:15:00 PM 12.5 54.5 0.199 7.29 28.56 9.76
5/3/2022 9:30:00 PM 12.39 54.302 0.199 7.26 20.12 9.76
5/3/2022 9:45:00 PM 12.32 54.176 0.199 7.25 20.48 9.77
5/3/2022 10:00:00 PM 12.5 54.5 0.192 7.25 22.28 9.74
5/3/2022 10:15:00 PM 12.42 54.356 0.196 7.25 24 9.72
5/3/2022 10:30:00 PM 12.44 54.392 0.193 7.25 29.7 9.7
5/3/2022 10:45:00 PM 12.42 54.356 0.19 7.24 29.52 9.7
5/3/2022 11:00:00 PM 12.33 54.194 0.191 7.23 34.67 9.72
5/3/2022 11:15:00 PM 12.27 54.086 0.19 7.23 43.24 9.73
5/3/2022 11:30:00 PM 12.19 53.942 0.189 7.26 97.15 9.77
5/3/2022 11:45:00 PM 12.15 53.87 0.179 7.24 128.8 9.78
5/4/2022 12:00:00 AM 12.12 53.816 0.178 7.24 143.41 9.79
5/4/2022 12:15:00 AM 12.09 53.762 0.176 7.24 163.75 9.8
5/4/2022 12:30:00 AM 12.06 53.708 0.173 7.23 173.79 9.81
5/4/2022 12:45:00 AM 12.04 53.672 0.174 7.23 148.84 9.81
5/4/2022 1:00:00 AM 12.02 53.636 0.177 7.22 143.15 9.81
5/4/2022 1:15:00 AM 12 53.6 0.174 7.22 140.4 9.81
5/4/2022 1:30:00 AM 11.98 53.564 0.169 7.21 124.15 9.81
5/4/2022 1:45:00 AM 11.98 53.564 0.166 7.21 110.3 9.8
5/4/2022 2:00:00 AM 11.98 53.564 0.166 7.21 94.45 9.79
5/4/2022 2:15:00 AM 11.98 53.564 0.167 7.21 81.18 9.78
5/4/2022 2:30:00 AM 11.99 53.582 0.166 7.21 72.63 9.78
5/4/2022 2:45:00 AM 12 53.6 0.164 7.2 64.98 9.76
5/4/2022 3:00:00 AM 12.01 53.618 0.162 7.2 60.32 9.74
5/4/2022 3:15:00 AM 12.01 53.618 0.162 7.19 58.73 9.72
5/4/2022 3:30:00 AM 11.99 53.582 0.16 7.19 49.17 9.71
5/4/2022 3:45:00 AM 11.97 53.546 0.158 7.18 59.15 9.7
5/4/2022 4:00:00 AM 11.95 53.51 0.156 7.17 60.68 9.69
5/4/2022 4:15:00 AM 11.93 53.474 0.156 7.16 62.73 9.68
5/4/2022 4:30:00 AM 11.91 53.438 0.157 7.15 61.1 9.67
5/4/2022 4:45:00 AM 11.89 53.402 0.157 7.15 66.1 9.67
5/4/2022 5:00:00 AM 11.86 53.348 0.158 7.14 71.37 9.67
5/4/2022 5:15:00 AM 11.85 53.33 0.157 7.14 82.04 9.66
5/4/2022 5:30:00 AM 11.83 53.294 0.157 7.13 88.27 9.65
5/4/2022 5:45:00 AM 11.82 53.276 0.157 7.13 89.96 9.64
5/4/2022 6:00:00 AM 11.81 53.258 0.156 7.12 89.88 9.63
5/4/2022 6:15:00 AM 11.82 53.276 0.156 7.13 90 9.62
5/4/2022 6:30:00 AM 11.82 53.276 0.155 7.12 91.97 9.61
5/4/2022 6:45:00 AM 11.81 53.258 0.153 7.12 92.42 9.6
5/4/2022 7:00:00 AM 11.81 53.258 0.152 7.11 97.63 9.58
5/4/2022 7:15:00 AM 11.81 53.258 0.151 7.11 106.21 9.57
5/4/2022 7:30:00 AM 11.82 53.276 0.151 7.11 114.52 9.55
5/4/2022 7:45:00 AM 11.83 53.294 0.151 7.11 121.51 9.53
5/4/2022 8:00:00 AM 11.86 53.348 0.151 7.11 131 9.52
5/4/2022 8:15:00 AM 11.89 53.402 0.151 7.12 134.95 9.51
5/4/2022 8:30:00 AM 11.91 53.438 0.15 7.12 137.07 9.51
5/4/2022 8:45:00 AM 11.94 53.492 0.15 7.11 133.03 9.5
5/4/2022 9:00:00 AM 11.98 53.564 0.15 7.08 126.17 9.51
5/4/2022 9:15:00 AM 12.03 53.654 0.15 7.09 111.61 9.52
5/4/2022 9:30:00 AM 12.08 53.744 0.15 7.1 113.28 9.53
5/4/2022 9:45:00 AM 12.1 53.78 0.15 7.11 97.64 9.54
5/4/2022 10:00:00 AM 12.09 53.762 0.151 7.13 92.87 9.55
5/4/2022 10:15:00 AM 12.09 53.762 0.152 7.13 88.49 9.55
5/4/2022 10:30:00 AM 12.1 53.78 0.153 7.14 87.64 9.56
5/4/2022 10:45:00 AM 12.11 53.798 0.153 7.14 89.85 9.57
5/4/2022 11:00:00 AM 12.15 53.87 0.153 7.14 90.5 9.59
5/4/2022 11:15:00 AM 12.19 53.942 0.152 7.14 88.98 9.6
5/4/2022 11:30:00 AM 12.22 53.996 0.151 7.14 91.73 9.61
5/4/2022 11:45:00 AM 12.21 53.978 0.149 7.14 92.58 9.61
5/4/2022 12:00:00 PM 12.15 53.87 0.147 7.13 96.81 9.6
5/4/2022 12:15:00 PM 12.18 53.924 0.146 7.13 93.86 9.6
5/4/2022 12:30:00 PM 12.36 54.248 0.145 7.11 95.69 9.61
5/4/2022 12:45:00 PM 12.46 54.428 0.144 7.11 93.09 9.63
5/4/2022 1:00:00 PM 12.4 54.32 0.143 7.11 94.44 9.62
5/4/2022 1:15:00 PM 12.31 54.158 0.143 7.11 89.61 9.6
5/4/2022 1:30:00 PM 12.28 54.104 0.142 7.1 89.32 9.59
5/4/2022 1:45:00 PM 12.28 54.104 0.142 7.09 89.31 9.58
5/4/2022 2:00:00 PM 12.29 54.122 0.142 7.09 89.59 9.59
5/4/2022 2:15:00 PM 12.3 54.14 0.142 7.08 85.78 9.59
5/4/2022 2:30:00 PM 12.32 54.176 0.142 7.08 83.28 9.59
5/4/2022 2:45:00 PM 12.34 54.212 0.142 7.08 78.19 9.59
5/4/2022 3:00:00 PM 12.36 54.248 0.142 7.08 79.67 9.59
5/4/2022 3:15:00 PM 12.41 54.338 0.142 7.08 74.98 9.6
5/4/2022 3:30:00 PM 12.51 54.518 0.143 7.07 72.81 9.61
5/4/2022 3:45:00 PM 12.59 54.662 0.143 7.07 72.99 9.62
5/4/2022 4:00:00 PM 12.65 54.77 0.144 7.07 68.96 9.62
5/4/2022 4:15:00 PM 12.66 54.788 0.145 7.08 63.4 9.62
5/4/2022 4:30:00 PM 12.65 54.77 0.146 7.08 60.5 9.61
5/4/2022 4:45:00 PM 12.61 54.698 0.146 7.07 58.78 9.6
5/4/2022 5:00:00 PM 12.59 54.662 0.146 7.07 57.96 9.6
5/4/2022 5:15:00 PM 12.57 54.626 0.147 7.07 53.78 9.6
5/4/2022 5:30:00 PM 12.55 54.59 0.147 7.07 52.06 9.59
5/4/2022 5:45:00 PM 12.53 54.554 0.147 7.07 50.3 9.59
5/4/2022 6:00:00 PM 12.52 54.536 0.148 7.07 47.48 9.59
5/4/2022 6:15:00 PM 12.49 54.482 0.148 7.07 46.32 9.59
5/4/2022 6:30:00 PM 12.45 54.41 0.148 7.06 44.37 9.58
5/4/2022 6:45:00 PM 12.42 54.356 0.148 7.05 42.47 9.58
5/4/2022 7:00:00 PM 12.4 54.32 0.149 7.05 41.75 9.58
5/4/2022 7:15:00 PM 12.36 54.248 0.149 7.06 43.2 9.59
5/4/2022 7:30:00 PM 12.33 54.194 0.15 7.06 38.64 9.59
5/4/2022 7:45:00 PM 12.31 54.158 0.15 7.06 38.71 9.6
5/4/2022 8:00:00 PM 12.28 54.104 0.151 7.06 37.37 9.61
5/4/2022 8:15:00 PM 12.26 54.068 0.151 7.07 35.36 9.61
5/4/2022 8:30:00 PM 12.24 54.032 0.151 7.07 34.56 9.62
5/4/2022 8:45:00 PM 12.22 53.996 0.152 7.07 32.77 9.63
5/4/2022 9:00:00 PM 12.21 53.978 0.153 7.07 32.78 9.63
5/4/2022 9:15:00 PM 12.2 53.96 0.153 7.07 30.72 9.64
5/4/2022 9:30:00 PM 12.18 53.924 0.153 7.07 29.89 9.64
5/4/2022 9:45:00 PM 12.17 53.906 0.153 7.08 30.13 9.65
5/4/2022 10:00:00 PM 12.15 53.87 0.154 7.08 28.89 9.65
5/4/2022 10:15:00 PM 12.14 53.852 0.154 7.08 28.26 9.66
5/4/2022 10:30:00 PM 12.12 53.816 0.155 7.08 28.06 9.66
5/4/2022 10:45:00 PM 12.1 53.78 0.155 7.09 26.38 9.66
5/4/2022 11:00:00 PM 12.08 53.744 0.156 7.09 25.97 9.67
5/4/2022 11:15:00 PM 12.06 53.708 0.156 7.08 26.17 9.67
5/4/2022 11:30:00 PM 12.04 53.672 0.156 7.08 25.48 9.67
5/4/2022 11:45:00 PM 12.02 53.636 0.156 7.09 25.19 9.68
5/5/2022 12:00:00 AM 12 53.6 0.157 7.09 24.91 9.68
5/5/2022 12:15:00 AM 11.99 53.582 0.157 7.09 24.47 9.68
5/5/2022 12:30:00 AM 11.97 53.546 0.157 7.1 23.68 9.68
5/5/2022 12:45:00 AM 11.95 53.51 0.158 7.1 23.77 9.69
5/5/2022 1:00:00 AM 11.93 53.474 0.158 7.1 22.47 9.69
5/5/2022 1:15:00 AM 11.92 53.456 0.158 7.1 21.96 9.7
5/5/2022 1:30:00 AM 11.9 53.42 0.159 7.11 22.21 9.69
5/5/2022 1:45:00 AM 11.88 53.384 0.159 7.1 22.26 9.7
5/5/2022 2:00:00 AM 11.86 53.348 0.159 7.11 21.47 9.71
5/5/2022 2:15:00 AM 11.84 53.312 0.159 7.11 22.04 9.71
5/5/2022 2:30:00 AM 11.82 53.276 0.16 7.11 21.46 9.71
5/5/2022 2:45:00 AM 11.79 53.222 0.161 7.11 20.36 9.72
5/5/2022 3:00:00 AM 11.76 53.168 0.161 7.11 21.44 9.72
5/5/2022 3:15:00 AM 11.74 53.132 0.161 7.12 25.05 9.72
5/5/2022 3:30:00 AM 11.72 53.096 0.162 7.12 21.36 9.73
5/5/2022 3:45:00 AM 11.7 53.06 0.162 7.12 20.01 9.73
5/5/2022 4:00:00 AM 11.68 53.024 0.162 7.12 20.88 9.74
5/5/2022 4:15:00 AM 11.65 52.97 0.163 7.12 19.27 9.74
5/5/2022 4:30:00 AM 11.63 52.934 0.163 7.12 22.12 9.75
5/5/2022 4:45:00 AM 11.6 52.88 0.163 7.12 19.66 9.75
5/5/2022 5:00:00 AM 11.58 52.844 0.164 7.12 19.6 9.76
5/5/2022 5:15:00 AM 11.55 52.79 0.164 7.13 19.71 9.76
5/5/2022 5:30:00 AM 11.53 52.754 0.164 7.13 18.64 9.76
5/5/2022 5:45:00 AM 11.5 52.7 0.165 7.13 19.12 9.77
5/5/2022 6:00:00 AM 11.47 52.646 0.165 7.13 18.38 9.78
5/5/2022 6:15:00 AM 11.45 52.61 0.165 7.13 18.04 9.78
5/5/2022 6:30:00 AM 11.42 52.556 0.165 7.13 18.58 9.79
5/5/2022 6:45:00 AM 11.39 52.502 0.165 7.13 15.23 9.81
5/5/2022 7:00:00 AM 11.37 52.466 0.165 7.14 15.73 9.82
5/5/2022 7:15:00 AM 11.36 52.448 0.166 7.14 16.78 9.85
5/5/2022 7:30:00 AM 11.35 52.43 0.166 7.14 16.79 9.88
5/5/2022 7:45:00 AM 11.36 52.448 0.166 7.15 17.15 9.93
5/5/2022 8:00:00 AM 11.36 52.448 0.166 7.16 16.71 9.97
5/5/2022 8:15:00 AM 11.38 52.484 0.166 7.17 16.97 10.03
5/5/2022 8:30:00 AM 11.39 52.502 0.166 7.17 15.32 10.08
5/5/2022 8:45:00 AM 11.4 52.52 0.166 7.18 15.38 10.11
5/5/2022 9:00:00 AM 11.41 52.538 0.167 7.18 15.87 10.14
5/5/2022 9:15:00 AM 11.49 52.682 0.167 7.19 13.36 10.18
5/5/2022 9:30:00 AM 11.56 52.808 0.167 7.2 14.84 10.22
5/5/2022 9:45:00 AM 11.6 52.88 0.167 7.2 15.05 10.24
5/5/2022 10:00:00 AM 11.69 53.042 0.167 7.2 15.05 10.28
5/5/2022 10:15:00 AM 11.82 53.276 0.167 7.21 14.67 10.31
5/5/2022 10:30:00 AM 11.97 53.546 0.167 7.21 14.87 10.35
5/5/2022 10:45:00 AM 12.06 53.708 0.167 7.22 14.45 10.38
5/5/2022 11:00:00 AM 12.14 53.852 0.168 7.22 14.15 10.41
5/5/2022 11:15:00 AM 12.21 53.978 0.167 7.23 14.01 10.43
5/5/2022 11:30:00 AM 12.31 54.158 0.168 7.23 14.19 10.45
5/5/2022 11:45:00 AM 12.44 54.392 0.168 7.24 13.75 10.48
5/5/2022 12:00:00 PM 12.56 54.608 0.168 7.25 13.35 10.5
5/5/2022 12:15:00 PM 12.62 54.716 0.168 7.25 12.71 10.51
5/5/2022 12:30:00 PM 12.69 54.842 0.168 7.26 13.14 10.53
5/5/2022 12:45:00 PM 12.79 55.022 0.168 7.27 13.73 10.55
5/5/2022 1:00:00 PM 12.94 55.292 0.169 7.27 13.7 10.58
5/5/2022 1:15:00 PM 13.04 55.472 0.169 7.28 12.98 10.58
5/5/2022 1:30:00 PM 13.18 55.724 0.169 7.28 12.81 10.6
5/5/2022 1:45:00 PM 13.33 55.994 0.169 7.29 13.21 10.62
5/5/2022 2:00:00 PM 13.49 56.282 0.169 7.29 13.07 10.62
5/5/2022 2:15:00 PM 13.62 56.516 0.169 7.29 12.6 10.62
5/5/2022 2:30:00 PM 13.77 56.786 0.169 7.3 12.69 10.62
5/5/2022 2:45:00 PM 13.9 57.02 0.169 7.3 13.73 10.62
5/5/2022 3:00:00 PM 14.03 57.254 0.169 7.3 12.95 10.61
5/5/2022 3:15:00 PM 14.13 57.434 0.169 7.3 12.36 10.6
5/5/2022 3:30:00 PM 14.19 57.542 0.17 7.31 12.63 10.59
5/5/2022 3:45:00 PM 14.25 57.65 0.17 7.31 11.86 10.59
5/5/2022 4:00:00 PM 14.26 57.668 0.169 7.32 12.37 10.56
5/5/2022 4:15:00 PM 14.28 57.704 0.17 7.32 12.52 10.56
5/5/2022 4:30:00 PM 14.27 57.686 0.169 7.32 12.18 10.53
5/5/2022 4:45:00 PM 14.25 57.65 0.17 7.31 12.16 10.49
5/5/2022 5:00:00 PM 14.23 57.614 0.17 7.32 12.22 10.47
5/5/2022 5:15:00 PM 14.18 57.524 0.17 7.31 12.14 10.43
5/5/2022 5:30:00 PM 14.16 57.488 0.171 7.31 12.3 10.41
5/5/2022 5:45:00 PM 14.13 57.434 0.171 7.3 12.15 10.36
5/5/2022 6:00:00 PM 14.09 57.362 0.171 7.3 11.8 10.32
5/5/2022 6:15:00 PM 14.07 57.326 0.171 7.29 12.06 10.29
5/5/2022 6:30:00 PM 14.04 57.272 0.171 7.28 11.67 10.24
5/5/2022 6:45:00 PM 14 57.2 0.171 7.27 11.78 10.18
5/5/2022 7:00:00 PM 13.96 57.128 0.171 7.26 12.11 10.11
5/5/2022 7:15:00 PM 13.92 57.056 0.171 7.24 11.45 10.04
5/5/2022 7:30:00 PM 13.9 57.02 0.172 7.23 11.64 9.97
5/5/2022 7:45:00 PM 13.88 56.984 0.172 7.21 11.89 9.9
5/5/2022 8:00:00 PM 13.86 56.948 0.172 7.2 11.93 9.84
5/5/2022 8:15:00 PM 13.84 56.912 0.172 7.19 11.89 9.79
5/5/2022 8:30:00 PM 13.82 56.876 0.173 7.18 11.9 9.76
5/5/2022 8:45:00 PM 13.81 56.858 0.173 7.17 12.05 9.72
5/5/2022 9:00:00 PM 13.79 56.822 0.173 7.16 12.51 9.69
5/5/2022 9:15:00 PM 13.77 56.786 0.173 7.16 12 9.66
5/5/2022 9:30:00 PM 13.75 56.75 0.173 7.16 12.94 9.63
5/5/2022 9:45:00 PM 13.72 56.696 0.173 7.15 12.04 9.61
5/5/2022 10:00:00 PM 13.69 56.642 0.174 7.15 12.51 9.59
5/5/2022 10:15:00 PM 13.67 56.606 0.173 7.14 12.91 9.57
5/5/2022 10:30:00 PM 13.62 56.516 0.174 7.14 12.6 9.56
5/5/2022 10:45:00 PM 13.59 56.462 0.174 7.14 12.73 9.54
5/5/2022 11:00:00 PM 13.56 56.408 0.174 7.14 12.77 9.53
5/5/2022 11:15:00 PM 13.54 56.372 0.174 7.13 12.51 9.52
5/5/2022 11:30:00 PM 13.51 56.318 0.174 7.13 12.74 9.51
5/5/2022 11:45:00 PM 13.48 56.264 0.174 7.13 12.73 9.49
5/6/2022 12:00:00 AM 13.45 56.21 0.174 7.13 13.02 9.49
5/6/2022 12:15:00 AM 13.42 56.156 0.174 7.13 12.81 9.47
5/6/2022 12:30:00 AM 13.39 56.102 0.175 7.13 12.58 9.46
5/6/2022 12:45:00 AM 13.36 56.048 0.174 7.12 12.93 9.46
5/6/2022 1:00:00 AM 13.33 55.994 0.174 7.12 12.5 9.45
5/6/2022 1:15:00 AM 13.31 55.958 0.175 7.12 12.58 9.44
5/6/2022 1:30:00 AM 13.29 55.922 0.175 7.12 12.57 9.43
5/6/2022 1:45:00 AM 13.26 55.868 0.175 7.12 12.9 9.43
5/6/2022 2:00:00 AM 13.24 55.832 0.175 7.12 12.38 9.42
5/6/2022 2:15:00 AM 13.22 55.796 0.175 7.12 11.97 9.42
5/6/2022 2:30:00 AM 13.19 55.742 0.175 7.12 12.37 9.41
5/6/2022 2:45:00 AM 13.17 55.706 0.176 7.12 12.58 9.4
5/6/2022 3:00:00 AM 13.14 55.652 0.176 7.12 12.5 9.4
5/6/2022 3:15:00 AM 13.12 55.616 0.176 7.12 12.17 9.39
5/6/2022 3:30:00 AM 13.09 55.562 0.176 7.12 12.17 9.39
5/6/2022 3:45:00 AM 13.07 55.526 0.176 7.12 12.63 9.39
5/6/2022 4:00:00 AM 13.05 55.49 0.176 7.12 12.64 9.38
5/6/2022 4:15:00 AM 13.03 55.454 0.176 7.12 12.18 9.38
5/6/2022 4:30:00 AM 13.01 55.418 0.176 7.12 12.02 9.38
5/6/2022 4:45:00 AM 12.98 55.364 0.176 7.12 12.1 9.38
5/6/2022 5:00:00 AM 12.95 55.31 0.177 7.12 12.47 9.38
5/6/2022 5:15:00 AM 12.93 55.274 0.176 7.12 12.97 9.38
5/6/2022 5:30:00 AM 12.89 55.202 0.177 7.12 12.73 9.38
5/6/2022 5:45:00 AM 12.87 55.166 0.176 7.12 13.95 9.38
5/6/2022 6:00:00 AM 12.84 55.112 0.174 7.13 13.96 9.39
5/6/2022 6:15:00 AM 12.81 55.058 0.173 7.13 15.37 9.39
5/6/2022 6:30:00 AM 12.77 54.986 0.172 7.13 15.79 9.41
5/6/2022 6:45:00 AM 12.73 54.914 0.171 7.13 17.35 9.42
5/6/2022 7:00:00 AM 12.7 54.86 0.171 7.13 17.91 9.43
5/6/2022 7:15:00 AM 12.65 54.77 0.171 7.13 18.56 9.45
5/6/2022 7:30:00 AM 12.6 54.68 0.171 7.14 18.96 9.48
5/6/2022 7:45:00 AM 12.53 54.554 0.173 7.14 19.41 9.5
5/6/2022 8:00:00 AM 12.46 54.428 0.173 7.15 20.73 9.54
5/6/2022 8:15:00 AM 12.38 54.284 0.174 7.16 20.43 9.58
5/6/2022 8:30:00 AM 12.3 54.14 0.175 7.17 24.9 9.61
5/6/2022 8:45:00 AM 12.23 54.014 0.175 7.18 29.48 9.66
5/6/2022 9:00:00 AM 12.21 53.978 0.174 7.19 37.07 9.67
5/6/2022 9:15:00 AM 12.21 53.978 0.172 7.2 42.75 9.68
5/6/2022 9:30:00 AM 12.23 54.014 0.17 7.2 42.93 9.68
5/6/2022 9:45:00 AM 12.23 54.014 0.168 7.2 41.95 9.68
5/6/2022 10:00:00 AM 12.22 53.996 0.167 7.2 41.81 9.69
5/6/2022 10:15:00 AM 12.22 53.996 0.167 7.2 41.95 9.69
5/6/2022 10:30:00 AM 12.22 53.996 0.165 7.19 42.6 9.68
5/6/2022 10:45:00 AM 12.21 53.978 0.161 7.18 41.41 9.69
5/6/2022 11:00:00 AM 12.19 53.942 0.156 7.17 42.27 9.7
5/6/2022 11:15:00 AM 12.16 53.888 0.151 7.17 44.25 9.71
5/6/2022 11:30:00 AM 12.14 53.852 0.146 7.16 50.7 9.72
5/6/2022 11:45:00 AM 12.08 53.744 0.144 7.16 57.63 9.74
5/6/2022 12:00:00 PM 11.98 53.564 0.143 7.15 70.97 9.75
5/6/2022 12:15:00 PM 11.88 53.384 0.142 7.14 90.76 9.78
5/6/2022 12:30:00 PM 11.8 53.24 0.141 7.12 120.59 9.79
5/6/2022 12:45:00 PM 11.76 53.168 0.14 7.11 151.89 9.79
5/6/2022 1:00:00 PM 11.74 53.132 0.139 7.1 175.97 9.77
5/6/2022 1:15:00 PM 11.75 53.15 0.136 7.09 198.5 9.75
5/6/2022 1:30:00 PM 11.75 53.15 0.134 7.08 179.67 9.74
5/6/2022 1:45:00 PM 11.74 53.132 0.132 7.07 172.43 9.74
5/6/2022 2:00:00 PM 11.73 53.114 0.13 7.06 164.81 9.75
5/6/2022 2:15:00 PM 11.7 53.06 0.129 7.04 163.82 9.74
5/6/2022 2:30:00 PM 11.69 53.042 0.127 7.04 158.24 9.74
5/6/2022 2:45:00 PM 11.66 52.988 0.125 7.03 165.17 9.73
5/6/2022 3:00:00 PM 11.63 52.934 0.117 7.01 176.12 9.72
5/6/2022 3:15:00 PM 11.6 52.88 0.124 7 183.24 9.71
5/6/2022 3:30:00 PM 11.6 52.88 0.123 6.98 189.67 9.7
5/6/2022 3:45:00 PM 11.6 52.88 0.122 6.98 199.9 9.68
5/6/2022 4:00:00 PM 11.59 52.862 0.114 6.97 201.47 9.67
5/6/2022 4:15:00 PM 11.6 52.88 0.112 6.95 196.58 9.67
5/6/2022 4:30:00 PM 11.59 52.862 0.111 6.96 191.06 9.67
5/6/2022 4:45:00 PM 11.57 52.826 0.109 6.95 184.34 9.67
5/6/2022 5:00:00 PM 11.56 52.808 0.109 6.94 179.25 9.67
5/6/2022 5:15:00 PM 11.54 52.772 0.109 6.93 209.67 9.66
5/6/2022 5:30:00 PM 11.52 52.736 0.108 6.95 210.87 9.67
5/6/2022 5:45:00 PM 11.49 52.682 0.108 6.95 187.27 9.67
5/6/2022 6:00:00 PM 11.47 52.646 0.108 6.94 170.77 9.67
5/6/2022 6:15:00 PM 11.44 52.592 0.108 6.95 173.63 9.67
5/6/2022 6:30:00 PM 11.42 52.556 0.107 6.94 166.46 9.65
5/6/2022 6:45:00 PM 11.4 52.52 0.107 6.94 166.98 9.64
5/6/2022 7:00:00 PM 11.37 52.466 0.105 6.93 160.55 9.64
5/6/2022 7:15:00 PM 11.34 52.412 0.105 6.92 151.04 9.63
5/6/2022 7:30:00 PM 11.31 52.358 0.104 6.91 150.62 9.62
5/6/2022 7:45:00 PM 11.28 52.304 0.104 6.9 146.17 9.61
5/6/2022 8:00:00 PM 11.25 52.25 0.103 6.9 149.73 9.6
5/6/2022 8:15:00 PM 11.22 52.196 0.103 6.89 157.42 9.6
5/6/2022 8:30:00 PM 11.19 52.142 0.102 6.88 151.54 9.6
5/6/2022 8:45:00 PM 11.16 52.088 0.101 6.87 151.66 9.59
5/6/2022 9:00:00 PM 11.13 52.034 0.1 6.86 150.98 9.58
5/6/2022 9:15:00 PM 11.09 51.962 0.099 6.86 146.87 9.58
5/6/2022 9:30:00 PM 11.06 51.908 0.098 6.85 151.85 9.57
5/6/2022 9:45:00 PM 11.04 51.872 0.098 6.84 156.71 9.56
5/6/2022 10:00:00 PM 11.01 51.818 0.097 6.84 152.81 9.56
5/6/2022 10:15:00 PM 10.98 51.764 0.096 6.83 147.23 9.56
5/6/2022 10:30:00 PM 10.95 51.71 0.096 6.84 153.49 9.55
5/6/2022 10:45:00 PM 10.92 51.656 0.095 6.83 141.28 9.54
5/6/2022 11:00:00 PM 10.88 51.584 0.095 6.83 141.03 9.54
5/6/2022 11:15:00 PM 10.86 51.548 0.094 6.81 133.85 9.54
5/6/2022 11:30:00 PM 10.83 51.494 0.094 6.81 133.63 9.53
5/6/2022 11:45:00 PM 10.81 51.458 0.094 6.81 133.67 9.52
5/7/2022 12:00:00 AM 10.78 51.404 0.093 6.81 127.57 9.52
5/7/2022 12:15:00 AM 10.76 51.368 0.092 6.78 131.11 9.51
5/7/2022 12:30:00 AM 10.73 51.314 0.092 6.79 167.1 9.5
5/7/2022 12:45:00 AM 10.71 51.278 0.091 6.79 115.01 9.48
5/7/2022 1:00:00 AM 10.68 51.224 0.091 6.77 117.01 9.48
5/7/2022 1:15:00 AM 10.65 51.17 0.091 6.77 108.85 9.48
5/7/2022 1:30:00 AM 10.62 51.116 0.09 6.79 113.93 9.47
5/7/2022 1:45:00 AM 10.59 51.062 0.09 6.78 111.68 9.47
5/7/2022 2:00:00 AM 10.56 51.008 0.09 6.76 107.1 9.47
5/7/2022 2:15:00 AM 10.53 50.954 0.089 6.74 108.03 9.47
5/7/2022 2:30:00 AM 10.51 50.918 0.089 6.73 118.84 9.47
5/7/2022 2:45:00 AM 10.48 50.864 0.089 6.76 110.66 9.48
5/7/2022 3:00:00 AM 10.45 50.81 0.089 6.74 99.82 9.48
5/7/2022 3:15:00 AM 10.43 50.774 0.088 6.75 95.49 9.49
5/7/2022 3:30:00 AM 10.4 50.72 0.089 6.75 98.09 9.49
5/7/2022 3:45:00 AM 10.37 50.666 0.089 6.76 100.38 9.5
5/7/2022 4:00:00 AM 10.34 50.612 0.089 6.77 91.75 9.51
5/7/2022 4:15:00 AM 10.31 50.558 0.089 6.76 90.63 9.52
5/7/2022 4:30:00 AM 10.28 50.504 0.089 6.76 90.17 9.53
5/7/2022 4:45:00 AM 10.24 50.432 0.089 6.76 83.55 9.54
5/7/2022 5:00:00 AM 10.21 50.378 0.09 6.77 81.03 9.56
5/7/2022 5:15:00 AM 10.17 50.306 0.09 6.76 77.79 9.57
5/7/2022 5:30:00 AM 10.14 50.252 0.09 6.77 78.43 9.59
5/7/2022 5:45:00 AM 10.1 50.18 0.09 6.76 77.6 9.6
5/7/2022 6:00:00 AM 10.07 50.126 0.09 6.78 72.95 9.62
5/7/2022 6:15:00 AM 10.03 50.054 0.091 6.79 70.86 9.64
5/7/2022 6:30:00 AM 9.99 49.982 0.091 6.8 70.77 9.66
5/7/2022 6:45:00 AM 9.95 49.91 0.092 6.79 70.51 9.69
5/7/2022 7:00:00 AM 9.91 49.838 0.092 6.81 68.43 9.72
5/7/2022 7:15:00 AM 9.87 49.766 0.093 6.82 68.8 9.75
5/7/2022 7:30:00 AM 9.84 49.712 0.093 6.82 67.15 9.77
5/7/2022 7:45:00 AM 9.8 49.64 0.093 6.83 69.55 9.79
5/7/2022 8:00:00 AM 9.76 49.568 0.094 6.84 73 9.82
5/7/2022 8:15:00 AM 9.73 49.514 0.094 6.83 75.81 9.84
5/7/2022 8:30:00 AM 9.7 49.46 0.094 6.85 74.56 9.86
5/7/2022 8:45:00 AM 9.67 49.406 0.094 6.85 80.11 9.87
5/7/2022 9:00:00 AM 9.65 49.37 0.094 6.85 75.76 9.88
5/7/2022 9:15:00 AM 9.62 49.316 0.094 6.85 70.4 9.9
5/7/2022 9:30:00 AM 9.6 49.28 0.094 6.84 66.82 9.92
5/7/2022 9:45:00 AM 9.58 49.244 0.094 6.85 65.78 9.93
5/7/2022 10:00:00 AM 9